PWSweather.com
Personal Weather Stations
Station Observations
ALLANTONFL
Allanton, Panama City, FL 32404

AllantonPanama City, FL 32404

Lat: 30.036, Lon: -85.48284060000003

Elevation: 11

Station Type: Acurite 5in1

High Low Average
Temperature 65.8°F18.8°C 38.3°F3.5°C 51.2°F10.7°C
Dew Point 45.1°F7.3°C 33.1°F0.6°C 38.2°F3.4°C
Winds 5.8 mph 9.3 kmh Calm Calm 1.0 mph E1.6 kmh E
Wind Gusts 5.8 mph9.3 kmh -- 2.0 mph3.2 kmh
Humidity 88% 31% 64%
Pressure 30.44 in1030.8 mb 30.28 in1025.4 mb -
Precipitation 0.00 in0.0 mm - -
Hour Temp Dew Point Humidity Winds Wind Gusts Pressure Precip Precip Rate Daily Precip Total
12:00 AM 42.8°F6.0°C 36.4°F2.4°C 78% Calm Calm -- 30.39 in1029.1 mb 0.00 in0.0 mm 0.00 in0.0 mm 0.00 in0.0 mm
12:01 AM 42.8°F6.0°C 36.4°F2.4°C 78% Calm Calm -- 30.39 in1029.1 mb 0.00 in0.0 mm 0.00 in0.0 mm 0.00 in0.0 mm
12:02 AM 42.8°F6.0°C 36.7°F2.6°C 79% Calm Calm -- 30.39 in1029.1 mb 0.00 in0.0 mm 0.00 in0.0 mm 0.00 in0.0 mm
12:03 AM 42.8°F6.0°C 36.7°F2.6°C 79% Calm Calm -- 30.39 in1029.1 mb 0.00 in0.0 mm 0.00 in0.0 mm 0.00 in0.0 mm
12:04 AM 42.8°F6.0°C 36.7°F2.6°C 79% Calm Calm -- 30.39 in1029.1 mb 0.00 in0.0 mm 0.00 in0.0 mm 0.00 in0.0 mm
12:05 AM 42.8°F6.0°C 37.1°F2.8°C 80% Calm Calm -- 30.39 in1029.1 mb 0.00 in0.0 mm 0.00 in0.0 mm 0.00 in0.0 mm
12:06 AM 42.8°F6.0°C 37.1°F2.8°C 80% Calm Calm -- 30.38 in1028.8 mb 0.00 in0.0 mm 0.00 in0.0 mm 0.00 in0.0 mm
12:07 AM 42.8°F6.0°C 37.1°F2.8°C 80% Calm Calm -- 30.38 in1028.8 mb 0.00 in0.0 mm 0.00 in0.0 mm 0.00 in0.0 mm
12:08 AM 42.8°F6.0°C 37.1°F2.8°C 80% Calm Calm -- 30.38 in1028.8 mb 0.00 in0.0 mm 0.00 in0.0 mm 0.00 in0.0 mm
12:09 AM 42.8°F6.0°C 37.1°F2.8°C 80% Calm Calm -- 30.38 in1028.8 mb 0.00 in0.0 mm 0.00 in0.0 mm 0.00 in0.0 mm
12:10 AM 42.8°F6.0°C 37.1°F2.8°C 80% 1.1 mph ESE1.8 kmh ESE 1.1 mph1.8 kmh 30.38 in1028.8 mb 0.00 in0.0 mm 0.00 in0.0 mm 0.00 in0.0 mm
12:11 AM 42.8°F6.0°C 37.1°F2.8°C 80% Calm Calm 1.1 mph1.8 kmh 30.38 in1028.8 mb 0.00 in0.0 mm 0.00 in0.0 mm 0.00 in0.0 mm
12:12 AM 42.8°F6.0°C 37.1°F2.8°C 80% Calm Calm 1.1 mph1.8 kmh 30.38 in1028.8 mb 0.00 in0.0 mm 0.00 in0.0 mm 0.00 in0.0 mm
12:13 AM 42.8°F6.0°C 37.4°F3.0°C 81% Calm Calm 1.1 mph1.8 kmh 30.38 in1028.8 mb 0.00 in0.0 mm 0.00 in0.0 mm 0.00 in0.0 mm
12:14 AM 42.8°F6.0°C 37.4°F3.0°C 81% Calm Calm 1.1 mph1.8 kmh 30.38 in1028.8 mb 0.00 in0.0 mm 0.00 in0.0 mm 0.00 in0.0 mm
12:15 AM 42.6°F5.9°C 37.2°F2.9°C 81% Calm Calm 1.1 mph1.8 kmh 30.38 in1028.8 mb 0.00 in0.0 mm 0.00 in0.0 mm 0.00 in0.0 mm
12:16 AM 42.6°F5.9°C 37.2°F2.9°C 81% Calm Calm 1.1 mph1.8 kmh 30.38 in1028.8 mb 0.00 in0.0 mm 0.00 in0.0 mm 0.00 in0.0 mm
12:17 AM 42.6°F5.9°C 37.2°F2.9°C 81% Calm Calm 1.1 mph1.8 kmh 30.38 in1028.8 mb 0.00 in0.0 mm 0.00 in0.0 mm 0.00 in0.0 mm
12:18 AM 42.6°F5.9°C 37.2°F2.9°C 81% Calm Calm 1.1 mph1.8 kmh 30.38 in1028.8 mb 0.00 in0.0 mm 0.00 in0.0 mm 0.00 in0.0 mm
12:19 AM 42.6°F5.9°C 37.2°F2.9°C 81% Calm Calm 1.1 mph1.8 kmh 30.38 in1028.8 mb 0.00 in0.0 mm 0.00 in0.0 mm 0.00 in0.0 mm
12:20 AM 42.6°F5.9°C 37.2°F2.9°C 81% Calm Calm 1.1 mph1.8 kmh 30.38 in1028.8 mb 0.00 in0.0 mm 0.00 in0.0 mm 0.00 in0.0 mm
12:21 AM 42.4°F5.8°C 37.0°F2.8°C 81% Calm Calm -- 30.38 in1028.8 mb 0.00 in0.0 mm 0.00 in0.0 mm 0.00 in0.0 mm
12:22 AM 42.3°F5.7°C 36.5°F2.5°C 80% Calm Calm -- 30.38 in1028.8 mb 0.00 in0.0 mm 0.00 in0.0 mm 0.00 in0.0 mm
12:23 AM 42.3°F5.7°C 36.2°F2.3°C 79% Calm Calm -- 30.38 in1028.8 mb 0.00 in0.0 mm 0.00 in0.0 mm 0.00 in0.0 mm
12:24 AM 42.3°F5.7°C 36.2°F2.3°C 79% Calm Calm -- 30.38 in1028.8 mb 0.00 in0.0 mm 0.00 in0.0 mm 0.00 in0.0 mm
12:25 AM 42.3°F5.7°C 36.2°F2.3°C 79% Calm Calm -- 30.38 in1028.8 mb 0.00 in0.0 mm 0.00 in0.0 mm 0.00 in0.0 mm
12:26 AM 42.3°F5.7°C 36.2°F2.3°C 79% Calm Calm -- 30.38 in1028.8 mb 0.00 in0.0 mm 0.00 in0.0 mm 0.00 in0.0 mm
12:27 AM 42.3°F5.7°C 36.2°F2.3°C 79% Calm Calm -- 30.38 in1028.8 mb 0.00 in0.0 mm 0.00 in0.0 mm 0.00 in0.0 mm
12:28 AM 42.3°F5.7°C 36.5°F2.5°C 80% Calm Calm -- 30.38 in1028.8 mb 0.00 in0.0 mm 0.00 in0.0 mm 0.00 in0.0 mm
12:29 AM 42.3°F5.7°C 36.5°F2.5°C 80% Calm Calm -- 30.38 in1028.8 mb 0.00 in0.0 mm 0.00 in0.0 mm 0.00 in0.0 mm
12:30 AM 42.3°F5.7°C 36.5°F2.5°C 80% Calm Calm -- 30.38 in1028.8 mb 0.00 in0.0 mm 0.00 in0.0 mm 0.00 in0.0 mm
12:31 AM 42.3°F5.7°C 36.5°F2.5°C 80% Calm Calm -- 30.38 in1028.8 mb 0.00 in0.0 mm 0.00 in0.0 mm 0.00 in0.0 mm
12:32 AM 42.1°F5.6°C 36.4°F2.4°C 80% Calm Calm -- 30.38 in1028.8 mb 0.00 in0.0 mm 0.00 in0.0 mm 0.00 in0.0 mm
12:33 AM 42.1°F5.6°C 36.0°F2.2°C 79% Calm Calm -- 30.38 in1028.8 mb 0.00 in0.0 mm 0.00 in0.0 mm 0.00 in0.0 mm
12:34 AM 42.1°F5.6°C 36.0°F2.2°C 79% Calm Calm -- 30.38 in1028.8 mb 0.00 in0.0 mm 0.00 in0.0 mm 0.00 in0.0 mm
12:35 AM 42.1°F5.6°C 36.0°F2.2°C 79% Calm Calm -- 30.38 in1028.8 mb 0.00 in0.0 mm 0.00 in0.0 mm 0.00 in0.0 mm
12:36 AM 42.1°F5.6°C 36.0°F2.2°C 79% Calm Calm -- 30.38 in1028.8 mb 0.00 in0.0 mm 0.00 in0.0 mm 0.00 in0.0 mm
12:37 AM 42.1°F5.6°C 36.0°F2.2°C 79% Calm Calm -- 30.38 in1028.8 mb 0.00 in0.0 mm 0.00 in0.0 mm 0.00 in0.0 mm
12:38 AM 42.1°F5.6°C 36.0°F2.2°C 79% Calm Calm -- 30.38 in1028.8 mb 0.00 in0.0 mm 0.00 in0.0 mm 0.00 in0.0 mm
12:39 AM 42.1°F5.6°C 36.0°F2.2°C 79% Calm Calm -- 30.38 in1028.8 mb 0.00 in0.0 mm 0.00 in0.0 mm 0.00 in0.0 mm
12:40 AM 42.1°F5.6°C 36.0°F2.2°C 79% Calm Calm -- 30.38 in1028.8 mb 0.00 in0.0 mm 0.00 in0.0 mm 0.00 in0.0 mm
12:41 AM 42.1°F5.6°C 36.0°F2.2°C 79% Calm Calm -- 30.38 in1028.8 mb 0.00 in0.0 mm 0.00 in0.0 mm 0.00 in0.0 mm
12:42 AM 42.1°F5.6°C 36.0°F2.2°C 79% Calm Calm -- 30.38 in1028.8 mb 0.00 in0.0 mm 0.00 in0.0 mm 0.00 in0.0 mm
12:43 AM 42.1°F5.6°C 36.0°F2.2°C 79% Calm Calm -- 30.38 in1028.8 mb 0.00 in0.0 mm 0.00 in0.0 mm 0.00 in0.0 mm
12:44 AM 42.1°F5.6°C 36.0°F2.2°C 79% Calm Calm -- 30.38 in1028.8 mb 0.00 in0.0 mm 0.00 in0.0 mm 0.00 in0.0 mm
12:45 AM 42.1°F5.6°C 36.4°F2.4°C 80% Calm Calm -- 30.38 in1028.8 mb 0.00 in0.0 mm 0.00 in0.0 mm 0.00 in0.0 mm
12:46 AM 42.1°F5.6°C 36.4°F2.4°C 80% Calm Calm 1.1 mph1.8 kmh 30.38 in1028.8 mb 0.00 in0.0 mm 0.00 in0.0 mm 0.00 in0.0 mm
12:47 AM 42.1°F5.6°C 36.4°F2.4°C 80% Calm Calm 1.1 mph1.8 kmh 30.38 in1028.8 mb 0.00 in0.0 mm 0.00 in0.0 mm 0.00 in0.0 mm
12:48 AM 42.1°F5.6°C 36.4°F2.4°C 80% Calm Calm 1.1 mph1.8 kmh 30.38 in1028.8 mb 0.00 in0.0 mm 0.00 in0.0 mm 0.00 in0.0 mm
12:49 AM 42.1°F5.6°C 36.4°F2.4°C 80% Calm Calm 1.1 mph1.8 kmh 30.38 in1028.8 mb 0.00 in0.0 mm 0.00 in0.0 mm 0.00 in0.0 mm
12:50 AM 41.9°F5.5°C 36.2°F2.3°C 80% Calm Calm 1.1 mph1.8 kmh 30.38 in1028.8 mb 0.00 in0.0 mm 0.00 in0.0 mm 0.00 in0.0 mm
12:51 AM 41.9°F5.5°C 36.2°F2.3°C 80% Calm Calm 1.1 mph1.8 kmh 30.38 in1028.8 mb 0.00 in0.0 mm 0.00 in0.0 mm 0.00 in0.0 mm
12:52 AM 41.9°F5.5°C 36.2°F2.3°C 80% Calm Calm 1.1 mph1.8 kmh 30.38 in1028.8 mb 0.00 in0.0 mm 0.00 in0.0 mm 0.00 in0.0 mm
12:53 AM 41.9°F5.5°C 36.2°F2.3°C 80% Calm Calm 1.1 mph1.8 kmh 30.38 in1028.8 mb 0.00 in0.0 mm 0.00 in0.0 mm 0.00 in0.0 mm
12:54 AM 41.9°F5.5°C 36.2°F2.3°C 80% Calm Calm 1.1 mph1.8 kmh 30.38 in1028.8 mb 0.00 in0.0 mm 0.00 in0.0 mm 0.00 in0.0 mm
12:55 AM 41.9°F5.5°C 36.2°F2.3°C 80% Calm Calm 1.1 mph1.8 kmh 30.38 in1028.8 mb 0.00 in0.0 mm 0.00 in0.0 mm 0.00 in0.0 mm
12:56 AM 41.9°F5.5°C 36.2°F2.3°C 80% Calm Calm -- 30.38 in1028.8 mb 0.00 in0.0 mm 0.00 in0.0 mm 0.00 in0.0 mm
12:57 AM 41.9°F5.5°C 35.9°F2.2°C 79% Calm Calm -- 30.38 in1028.8 mb 0.00 in0.0 mm 0.00 in0.0 mm 0.00 in0.0 mm
12:58 AM 41.9°F5.5°C 35.9°F2.2°C 79% Calm Calm -- 30.38 in1028.8 mb 0.00 in0.0 mm 0.00 in0.0 mm 0.00 in0.0 mm
12:59 AM 41.9°F5.5°C 35.9°F2.2°C 79% Calm Calm -- 30.38 in1028.8 mb 0.00 in0.0 mm 0.00 in0.0 mm 0.00 in0.0 mm
01:00 AM 41.9°F5.5°C 35.9°F2.2°C 79% Calm Calm -- 30.38 in1028.8 mb 0.00 in0.0 mm 0.00 in0.0 mm 0.00 in0.0 mm
01:01 AM 42.1°F5.6°C 36.0°F2.2°C 79% Calm Calm -- 30.38 in1028.8 mb 0.00 in0.0 mm 0.00 in0.0 mm 0.00 in0.0 mm
01:02 AM 42.1°F5.6°C 36.0°F2.2°C 79% 1.1 mph E1.8 kmh E 1.7 mph2.7 kmh 30.38 in1028.8 mb 0.00 in0.0 mm 0.00 in0.0 mm 0.00 in0.0 mm
01:03 AM 42.1°F5.6°C 36.0°F2.2°C 79% Calm Calm 1.7 mph2.7 kmh 30.38 in1028.8 mb 0.00 in0.0 mm 0.00 in0.0 mm 0.00 in0.0 mm
01:04 AM 42.1°F5.6°C 36.0°F2.2°C 79% Calm Calm 1.7 mph2.7 kmh 30.38 in1028.8 mb 0.00 in0.0 mm 0.00 in0.0 mm 0.00 in0.0 mm
01:05 AM 41.9°F5.5°C 35.9°F2.2°C 79% Calm Calm 1.7 mph2.7 kmh 30.38 in1028.8 mb 0.00 in0.0 mm 0.00 in0.0 mm 0.00 in0.0 mm
01:06 AM 41.9°F5.5°C 35.9°F2.2°C 79% Calm Calm 1.7 mph2.7 kmh 30.38 in1028.8 mb 0.00 in0.0 mm 0.00 in0.0 mm 0.00 in0.0 mm
01:07 AM 41.9°F5.5°C 35.9°F2.2°C 79% Calm Calm 1.7 mph2.7 kmh 30.38 in1028.8 mb 0.00 in0.0 mm 0.00 in0.0 mm 0.00 in0.0 mm
01:08 AM 41.9°F5.5°C 35.9°F2.2°C 79% 1.1 mph E1.8 kmh E 1.7 mph2.7 kmh 30.38 in1028.8 mb 0.00 in0.0 mm 0.00 in0.0 mm 0.00 in0.0 mm
01:09 AM 41.9°F5.5°C 35.9°F2.2°C 79% Calm Calm 1.7 mph2.7 kmh 30.38 in1028.8 mb 0.00 in0.0 mm 0.00 in0.0 mm 0.00 in0.0 mm
01:10 AM 41.9°F5.5°C 35.9°F2.2°C 79% Calm Calm 1.7 mph2.7 kmh 30.38 in1028.8 mb 0.00 in0.0 mm 0.00 in0.0 mm 0.00 in0.0 mm
01:11 AM 41.9°F5.5°C 35.9°F2.2°C 79% 1.1 mph ESE1.8 kmh ESE 1.7 mph2.7 kmh 30.38 in1028.8 mb 0.00 in0.0 mm 0.00 in0.0 mm 0.00 in0.0 mm
01:12 AM 41.9°F5.5°C 35.9°F2.2°C 79% Calm Calm 1.1 mph1.8 kmh 30.38 in1028.8 mb 0.00 in0.0 mm 0.00 in0.0 mm 0.00 in0.0 mm
01:13 AM 41.9°F5.5°C 35.9°F2.2°C 79% 1.1 mph E1.8 kmh E 1.1 mph1.8 kmh 30.38 in1028.8 mb 0.00 in0.0 mm 0.00 in0.0 mm 0.00 in0.0 mm
01:14 AM 41.9°F5.5°C 35.9°F2.2°C 79% 1.7 mph E2.7 kmh E 1.7 mph2.7 kmh 30.38 in1028.8 mb 0.00 in0.0 mm 0.00 in0.0 mm 0.00 in0.0 mm
01:15 AM 41.9°F5.5°C 35.9°F2.2°C 79% Calm Calm 1.7 mph2.7 kmh 30.38 in1028.8 mb 0.00 in0.0 mm 0.00 in0.0 mm 0.00 in0.0 mm
01:16 AM 41.9°F5.5°C 35.9°F2.2°C 79% Calm Calm 1.7 mph2.7 kmh 30.38 in1028.8 mb 0.00 in0.0 mm 0.00 in0.0 mm 0.00 in0.0 mm
01:17 AM 41.9°F5.5°C 35.9°F2.2°C 79% Calm Calm 1.7 mph2.7 kmh 30.38 in1028.8 mb 0.00 in0.0 mm 0.00 in0.0 mm 0.00 in0.0 mm
01:18 AM 41.9°F5.5°C 36.2°F2.3°C 80% Calm Calm 1.7 mph2.7 kmh 30.38 in1028.8 mb 0.00 in0.0 mm 0.00 in0.0 mm 0.00 in0.0 mm
01:19 AM 41.9°F5.5°C 36.2°F2.3°C 80% 1.1 mph ENE1.8 kmh ENE 1.7 mph2.7 kmh 30.38 in1028.8 mb 0.00 in0.0 mm 0.00 in0.0 mm 0.00 in0.0 mm
01:20 AM 41.9°F5.5°C 36.2°F2.3°C 80% 1.1 mph ESE1.8 kmh ESE 1.7 mph2.7 kmh 30.38 in1028.8 mb 0.00 in0.0 mm 0.00 in0.0 mm 0.00 in0.0 mm
01:21 AM 41.9°F5.5°C 36.2°F2.3°C 80% Calm Calm 1.7 mph2.7 kmh 30.38 in1028.8 mb 0.00 in0.0 mm 0.00 in0.0 mm 0.00 in0.0 mm
01:22 AM 41.9°F5.5°C 36.2°F2.3°C 80% Calm Calm 1.7 mph2.7 kmh 30.38 in1028.8 mb 0.00 in0.0 mm 0.00 in0.0 mm 0.00 in0.0 mm
01:23 AM 41.9°F5.5°C 36.2°F2.3°C 80% Calm Calm 1.7 mph2.7 kmh 30.38 in1028.8 mb 0.00 in0.0 mm 0.00 in0.0 mm 0.00 in0.0 mm
01:24 AM 41.9°F5.5°C 36.2°F2.3°C 80% Calm Calm 1.1 mph1.8 kmh 30.38 in1028.8 mb 0.00 in0.0 mm 0.00 in0.0 mm 0.00 in0.0 mm
01:25 AM 41.9°F5.5°C 36.2°F2.3°C 80% Calm Calm 1.1 mph1.8 kmh 30.38 in1028.8 mb 0.00 in0.0 mm 0.00 in0.0 mm 0.00 in0.0 mm
01:26 AM 41.7°F5.4°C 36.0°F2.2°C 80% Calm Calm 1.1 mph1.8 kmh 30.38 in1028.8 mb 0.00 in0.0 mm 0.00 in0.0 mm 0.00 in0.0 mm
01:27 AM 41.7°F5.4°C 36.3°F2.4°C 81% Calm Calm 1.1 mph1.8 kmh 30.38 in1028.8 mb 0.00 in0.0 mm 0.00 in0.0 mm 0.00 in0.0 mm
01:28 AM 41.7°F5.4°C 36.3°F2.4°C 81% Calm Calm 1.1 mph1.8 kmh 30.38 in1028.8 mb 0.00 in0.0 mm 0.00 in0.0 mm 0.00 in0.0 mm
01:29 AM 41.5°F5.3°C 36.2°F2.3°C 81% Calm Calm 1.1 mph1.8 kmh 30.38 in1028.8 mb 0.00 in0.0 mm 0.00 in0.0 mm 0.00 in0.0 mm
01:30 AM 41.5°F5.3°C 36.2°F2.3°C 81% Calm Calm 1.1 mph1.8 kmh 30.37 in1028.4 mb 0.00 in0.0 mm 0.00 in0.0 mm 0.00 in0.0 mm
01:31 AM 41.5°F5.3°C 36.2°F2.3°C 81% Calm Calm -- 30.37 in1028.4 mb 0.00 in0.0 mm 0.00 in0.0 mm 0.00 in0.0 mm
01:32 AM 41.5°F5.3°C 36.2°F2.3°C 81% Calm Calm -- 30.37 in1028.4 mb 0.00 in0.0 mm 0.00 in0.0 mm 0.00 in0.0 mm
01:33 AM 41.4°F5.2°C 36.0°F2.2°C 81% Calm Calm -- 30.37 in1028.4 mb 0.00 in0.0 mm 0.00 in0.0 mm 0.00 in0.0 mm
01:34 AM 41.4°F5.2°C 36.0°F2.2°C 81% Calm Calm -- 30.37 in1028.4 mb 0.00 in0.0 mm 0.00 in0.0 mm 0.00 in0.0 mm
01:35 AM 41.4°F5.2°C 36.0°F2.2°C 81% Calm Calm -- 30.37 in1028.4 mb 0.00 in0.0 mm 0.00 in0.0 mm 0.00 in0.0 mm
01:36 AM 41.4°F5.2°C 36.0°F2.2°C 81% Calm Calm -- 30.37 in1028.4 mb 0.00 in0.0 mm 0.00 in0.0 mm 0.00 in0.0 mm
01:37 AM 41.2°F5.1°C 36.1°F2.3°C 82% 1.7 mph ESE2.7 kmh ESE 1.7 mph2.7 kmh 30.37 in1028.4 mb 0.00 in0.0 mm 0.00 in0.0 mm 0.00 in0.0 mm
01:38 AM 41.0°F5.0°C 35.9°F2.2°C 82% 1.1 mph ESE1.8 kmh ESE 1.7 mph2.7 kmh 30.37 in1028.4 mb 0.00 in0.0 mm 0.00 in0.0 mm 0.00 in0.0 mm
01:39 AM 41.0°F5.0°C 35.9°F2.2°C 82% 1.7 mph ESE2.7 kmh ESE 1.7 mph2.7 kmh 30.37 in1028.4 mb 0.00 in0.0 mm 0.00 in0.0 mm 0.00 in0.0 mm
01:40 AM 41.0°F5.0°C 35.9°F2.2°C 82% 1.1 mph ESE1.8 kmh ESE 1.7 mph2.7 kmh 30.37 in1028.4 mb 0.00 in0.0 mm 0.00 in0.0 mm 0.00 in0.0 mm
01:41 AM 41.0°F5.0°C 35.9°F2.2°C 82% 1.1 mph ENE1.8 kmh ENE 1.7 mph2.7 kmh 30.37 in1028.4 mb 0.00 in0.0 mm 0.00 in0.0 mm 0.00 in0.0 mm
01:42 AM 41.0°F5.0°C 35.9°F2.2°C 82% Calm Calm 1.7 mph2.7 kmh 30.37 in1028.4 mb 0.00 in0.0 mm 0.00 in0.0 mm 0.00 in0.0 mm
01:43 AM 41.0°F5.0°C 35.9°F2.2°C 82% Calm Calm 1.7 mph2.7 kmh 30.37 in1028.4 mb 0.00 in0.0 mm 0.00 in0.0 mm 0.00 in0.0 mm
01:44 AM 41.0°F5.0°C 35.9°F2.2°C 82% Calm Calm 1.7 mph2.7 kmh 30.37 in1028.4 mb 0.00 in0.0 mm 0.00 in0.0 mm 0.00 in0.0 mm
01:45 AM 41.0°F5.0°C 35.9°F2.2°C 82% Calm Calm 1.7 mph2.7 kmh 30.37 in1028.4 mb 0.00 in0.0 mm 0.00 in0.0 mm 0.00 in0.0 mm
01:46 AM 41.0°F5.0°C 35.9°F2.2°C 82% Calm Calm 1.7 mph2.7 kmh 30.37 in1028.4 mb 0.00 in0.0 mm 0.00 in0.0 mm 0.00 in0.0 mm
01:47 AM 41.0°F5.0°C 35.9°F2.2°C 82% Calm Calm 1.7 mph2.7 kmh 30.37 in1028.4 mb 0.00 in0.0 mm 0.00 in0.0 mm 0.00 in0.0 mm
01:48 AM 41.0°F5.0°C 35.9°F2.2°C 82% Calm Calm 1.7 mph2.7 kmh 30.37 in1028.4 mb 0.00 in0.0 mm 0.00 in0.0 mm 0.00 in0.0 mm
01:49 AM 41.0°F5.0°C 35.9°F2.2°C 82% Calm Calm 1.7 mph2.7 kmh 30.37 in1028.4 mb 0.00 in0.0 mm 0.00 in0.0 mm 0.00 in0.0 mm
01:50 AM 41.0°F5.0°C 35.9°F2.2°C 82% Calm Calm 1.1 mph1.8 kmh 30.37 in1028.4 mb 0.00 in0.0 mm 0.00 in0.0 mm 0.00 in0.0 mm
01:51 AM 41.0°F5.0°C 35.9°F2.2°C 82% Calm Calm 1.1 mph1.8 kmh 30.37 in1028.4 mb 0.00 in0.0 mm 0.00 in0.0 mm 0.00 in0.0 mm
01:52 AM 40.8°F4.9°C 36.1°F2.3°C 83% Calm Calm 1.1 mph1.8 kmh 30.37 in1028.4 mb 0.00 in0.0 mm 0.00 in0.0 mm 0.00 in0.0 mm
01:53 AM 40.8°F4.9°C 36.1°F2.3°C 83% Calm Calm 1.1 mph1.8 kmh 30.37 in1028.4 mb 0.00 in0.0 mm 0.00 in0.0 mm 0.00 in0.0 mm
01:54 AM 40.8°F4.9°C 36.1°F2.3°C 83% Calm Calm 1.1 mph1.8 kmh 30.37 in1028.4 mb 0.00 in0.0 mm 0.00 in0.0 mm 0.00 in0.0 mm
01:55 AM 40.6°F4.8°C 35.9°F2.2°C 83% Calm Calm 1.1 mph1.8 kmh 30.37 in1028.4 mb 0.00 in0.0 mm 0.00 in0.0 mm 0.00 in0.0 mm
01:56 AM 40.6°F4.8°C 35.6°F2.0°C 82% Calm Calm 1.1 mph1.8 kmh 30.37 in1028.4 mb 0.00 in0.0 mm 0.00 in0.0 mm 0.00 in0.0 mm
01:57 AM 40.6°F4.8°C 35.6°F2.0°C 82% Calm Calm 1.1 mph1.8 kmh 30.37 in1028.4 mb 0.00 in0.0 mm 0.00 in0.0 mm 0.00 in0.0 mm
01:58 AM 40.6°F4.8°C 35.6°F2.0°C 82% Calm Calm 1.1 mph1.8 kmh 30.37 in1028.4 mb 0.00 in0.0 mm 0.00 in0.0 mm 0.00 in0.0 mm
01:59 AM 40.6°F4.8°C 35.3°F1.8°C 81% Calm Calm 1.1 mph1.8 kmh 30.37 in1028.4 mb 0.00 in0.0 mm 0.00 in0.0 mm 0.00 in0.0 mm
02:00 AM 40.6°F4.8°C 35.3°F1.8°C 81% Calm Calm 1.1 mph1.8 kmh 30.37 in1028.4 mb 0.00 in0.0 mm 0.00 in0.0 mm 0.00 in0.0 mm
02:01 AM 40.6°F4.8°C 35.3°F1.8°C 81% Calm Calm 1.1 mph1.8 kmh 30.37 in1028.4 mb 0.00 in0.0 mm 0.00 in0.0 mm 0.00 in0.0 mm
02:02 AM 40.6°F4.8°C 35.3°F1.8°C 81% Calm Calm 1.1 mph1.8 kmh 30.37 in1028.4 mb 0.00 in0.0 mm 0.00 in0.0 mm 0.00 in0.0 mm
02:03 AM 40.8°F4.9°C 35.4°F1.9°C 81% Calm Calm 1.1 mph1.8 kmh 30.37 in1028.4 mb 0.00 in0.0 mm 0.00 in0.0 mm 0.00 in0.0 mm
02:04 AM 40.8°F4.9°C 35.4°F1.9°C 81% Calm Calm 1.1 mph1.8 kmh 30.37 in1028.4 mb 0.00 in0.0 mm 0.00 in0.0 mm 0.00 in0.0 mm
02:05 AM 40.8°F4.9°C 35.4°F1.9°C 81% Calm Calm 1.1 mph1.8 kmh 30.37 in1028.4 mb 0.00 in0.0 mm 0.00 in0.0 mm 0.00 in0.0 mm
02:06 AM 40.8°F4.9°C 35.4°F1.9°C 81% Calm Calm 1.1 mph1.8 kmh 30.38 in1028.8 mb 0.00 in0.0 mm 0.00 in0.0 mm 0.00 in0.0 mm
02:07 AM 40.8°F4.9°C 35.4°F1.9°C 81% Calm Calm 1.1 mph1.8 kmh 30.38 in1028.8 mb 0.00 in0.0 mm 0.00 in0.0 mm 0.00 in0.0 mm
02:08 AM 41.0°F5.0°C 35.6°F2.0°C 81% Calm Calm 1.1 mph1.8 kmh 30.38 in1028.8 mb 0.00 in0.0 mm 0.00 in0.0 mm 0.00 in0.0 mm
02:09 AM 41.0°F5.0°C 35.6°F2.0°C 81% 1.1 mph ENE1.8 kmh ENE 1.1 mph1.8 kmh 30.38 in1028.8 mb 0.00 in0.0 mm 0.00 in0.0 mm 0.00 in0.0 mm
02:10 AM 41.0°F5.0°C 35.3°F1.8°C 80% Calm Calm 1.1 mph1.8 kmh 30.38 in1028.8 mb 0.00 in0.0 mm 0.00 in0.0 mm 0.00 in0.0 mm
02:11 AM 41.0°F5.0°C 35.3°F1.8°C 80% Calm Calm 1.1 mph1.8 kmh 30.38 in1028.8 mb 0.00 in0.0 mm 0.00 in0.0 mm 0.00 in0.0 mm
02:12 AM 41.2°F5.1°C 35.5°F1.9°C 80% 1.1 mph ENE1.8 kmh ENE 1.1 mph1.8 kmh 30.38 in1028.8 mb 0.00 in0.0 mm 0.00 in0.0 mm 0.00 in0.0 mm
02:13 AM 41.2°F5.1°C 35.5°F1.9°C 80% 1.1 mph E1.8 kmh E 1.1 mph1.8 kmh 30.38 in1028.8 mb 0.00 in0.0 mm 0.00 in0.0 mm 0.00 in0.0 mm
02:14 AM 41.2°F5.1°C 35.5°F1.9°C 80% 1.1 mph E1.8 kmh E 1.1 mph1.8 kmh 30.38 in1028.8 mb 0.00 in0.0 mm 0.00 in0.0 mm 0.00 in0.0 mm
02:15 AM 41.2°F5.1°C 35.5°F1.9°C 80% Calm Calm 1.1 mph1.8 kmh 30.38 in1028.8 mb 0.00 in0.0 mm 0.00 in0.0 mm 0.00 in0.0 mm
02:16 AM 41.2°F5.1°C 35.5°F1.9°C 80% 1.1 mph NE1.8 kmh NE 1.1 mph1.8 kmh 30.38 in1028.8 mb 0.00 in0.0 mm 0.00 in0.0 mm 0.00 in0.0 mm
02:17 AM 41.2°F5.1°C 35.5°F1.9°C 80% 1.1 mph NE1.8 kmh NE 1.7 mph2.7 kmh 30.38 in1028.8 mb 0.00 in0.0 mm 0.00 in0.0 mm 0.00 in0.0 mm
02:18 AM 41.4°F5.2°C 35.7°F2.1°C 80% 1.1 mph ENE1.8 kmh ENE 1.7 mph2.7 kmh 30.37 in1028.4 mb 0.00 in0.0 mm 0.00 in0.0 mm 0.00 in0.0 mm
02:19 AM 41.4°F5.2°C 35.7°F2.1°C 80% 1.7 mph ESE2.7 kmh ESE 1.7 mph2.7 kmh 30.37 in1028.4 mb 0.00 in0.0 mm 0.00 in0.0 mm 0.00 in0.0 mm
02:20 AM 41.5°F5.3°C 35.5°F1.9°C 79% Calm Calm 1.7 mph2.7 kmh 30.37 in1028.4 mb 0.00 in0.0 mm 0.00 in0.0 mm 0.00 in0.0 mm
02:21 AM 41.5°F5.3°C 35.5°F1.9°C 79% Calm Calm 1.7 mph2.7 kmh 30.37 in1028.4 mb 0.00 in0.0 mm 0.00 in0.0 mm 0.00 in0.0 mm
02:22 AM 41.5°F5.3°C 35.5°F1.9°C 79% 1.1 mph E1.8 kmh E 1.7 mph2.7 kmh 30.37 in1028.4 mb 0.00 in0.0 mm 0.00 in0.0 mm 0.00 in0.0 mm
02:23 AM 41.5°F5.3°C 35.5°F1.9°C 79% Calm Calm 1.7 mph2.7 kmh 30.37 in1028.4 mb 0.00 in0.0 mm 0.00 in0.0 mm 0.00 in0.0 mm
02:24 AM 41.5°F5.3°C 35.5°F1.9°C 79% 1.1 mph ESE1.8 kmh ESE 1.7 mph2.7 kmh 30.37 in1028.4 mb 0.00 in0.0 mm 0.00 in0.0 mm 0.00 in0.0 mm
02:25 AM 41.5°F5.3°C 35.5°F1.9°C 79% 1.1 mph ESE1.8 kmh ESE 1.7 mph2.7 kmh 30.37 in1028.4 mb 0.00 in0.0 mm 0.00 in0.0 mm 0.00 in0.0 mm
02:26 AM 41.5°F5.3°C 35.5°F1.9°C 79% 1.1 mph ESE1.8 kmh ESE 1.7 mph2.7 kmh 30.37 in1028.4 mb 0.00 in0.0 mm 0.00 in0.0 mm 0.00 in0.0 mm
02:27 AM 41.5°F5.3°C 35.5°F1.9°C 79% Calm Calm 1.7 mph2.7 kmh 30.37 in1028.4 mb 0.00 in0.0 mm 0.00 in0.0 mm 0.00 in0.0 mm
02:28 AM 41.5°F5.3°C 35.5°F1.9°C 79% Calm Calm 1.7 mph2.7 kmh 30.37 in1028.4 mb 0.00 in0.0 mm 0.00 in0.0 mm 0.00 in0.0 mm
02:29 AM 41.5°F5.3°C 35.5°F1.9°C 79% 1.1 mph E1.8 kmh E 1.7 mph2.7 kmh 30.37 in1028.4 mb 0.00 in0.0 mm 0.00 in0.0 mm 0.00 in0.0 mm
02:30 AM 41.5°F5.3°C 35.5°F1.9°C 79% 1.1 mph E1.8 kmh E 1.7 mph2.7 kmh 30.37 in1028.4 mb 0.00 in0.0 mm 0.00 in0.0 mm 0.00 in0.0 mm
02:31 AM 41.5°F5.3°C 35.5°F1.9°C 79% Calm Calm 1.7 mph2.7 kmh 30.38 in1028.8 mb 0.00 in0.0 mm 0.00 in0.0 mm 0.00 in0.0 mm
02:32 AM 41.5°F5.3°C 35.5°F1.9°C 79% 1.1 mph ESE1.8 kmh ESE 1.7 mph2.7 kmh 30.38 in1028.8 mb 0.00 in0.0 mm 0.00 in0.0 mm 0.00 in0.0 mm
02:33 AM 41.5°F5.3°C 35.8°F2.1°C 80% Calm Calm 1.7 mph2.7 kmh 30.38 in1028.8 mb 0.00 in0.0 mm 0.00 in0.0 mm 0.00 in0.0 mm
02:34 AM 41.5°F5.3°C 35.8°F2.1°C 80% 1.1 mph ESE1.8 kmh ESE 1.7 mph2.7 kmh 30.38 in1028.8 mb 0.00 in0.0 mm 0.00 in0.0 mm 0.00 in0.0 mm
02:35 AM 41.5°F5.3°C 35.8°F2.1°C 80% Calm Calm 1.7 mph2.7 kmh 30.38 in1028.8 mb 0.00 in0.0 mm 0.00 in0.0 mm 0.00 in0.0 mm
02:36 AM 41.5°F5.3°C 36.2°F2.3°C 81% Calm Calm 1.7 mph2.7 kmh 30.38 in1028.8 mb 0.00 in0.0 mm 0.00 in0.0 mm 0.00 in0.0 mm
02:37 AM 41.5°F5.3°C 36.2°F2.3°C 81% Calm Calm 1.7 mph2.7 kmh 30.38 in1028.8 mb 0.00 in0.0 mm 0.00 in0.0 mm 0.00 in0.0 mm
02:38 AM 41.4°F5.2°C 36.0°F2.2°C 81% Calm Calm 1.7 mph2.7 kmh 30.38 in1028.8 mb 0.00 in0.0 mm 0.00 in0.0 mm 0.00 in0.0 mm
02:39 AM 41.4°F5.2°C 36.0°F2.2°C 81% 1.1 mph ESE1.8 kmh ESE 1.7 mph2.7 kmh 30.38 in1028.8 mb 0.00 in0.0 mm 0.00 in0.0 mm 0.00 in0.0 mm
02:40 AM 41.4°F5.2°C 36.0°F2.2°C 81% Calm Calm 1.7 mph2.7 kmh 30.38 in1028.8 mb 0.00 in0.0 mm 0.00 in0.0 mm 0.00 in0.0 mm
02:41 AM 41.2°F5.1°C 36.1°F2.3°C 82% Calm Calm 1.7 mph2.7 kmh 30.38 in1028.8 mb 0.00 in0.0 mm 0.00 in0.0 mm 0.00 in0.0 mm
02:42 AM 41.2°F5.1°C 36.1°F2.3°C 82% 1.7 mph ESE2.7 kmh ESE 1.7 mph2.7 kmh 30.37 in1028.4 mb 0.00 in0.0 mm 0.00 in0.0 mm 0.00 in0.0 mm
02:43 AM 41.0°F5.0°C 35.9°F2.2°C 82% 1.7 mph ESE2.7 kmh ESE 1.7 mph2.7 kmh 30.37 in1028.4 mb 0.00 in0.0 mm 0.00 in0.0 mm 0.00 in0.0 mm
02:44 AM 41.0°F5.0°C 35.9°F2.2°C 82% 1.1 mph ESE1.8 kmh ESE 1.7 mph2.7 kmh 30.37 in1028.4 mb 0.00 in0.0 mm 0.00 in0.0 mm 0.00 in0.0 mm
02:45 AM 40.8°F4.9°C 35.8°F2.1°C 82% 1.1 mph ESE1.8 kmh ESE 1.7 mph2.7 kmh 30.37 in1028.4 mb 0.00 in0.0 mm 0.00 in0.0 mm 0.00 in0.0 mm
02:46 AM 40.8°F4.9°C 36.1°F2.3°C 83% 1.7 mph ESE2.7 kmh ESE 1.7 mph2.7 kmh 30.37 in1028.4 mb 0.00 in0.0 mm 0.00 in0.0 mm 0.00 in0.0 mm
02:47 AM 40.8°F4.9°C 36.1°F2.3°C 83% 1.1 mph E1.8 kmh E 1.7 mph2.7 kmh 30.37 in1028.4 mb 0.00 in0.0 mm 0.00 in0.0 mm 0.00 in0.0 mm
02:48 AM 40.8°F4.9°C 36.1°F2.3°C 83% 1.1 mph ESE1.8 kmh ESE 1.7 mph2.7 kmh 30.37 in1028.4 mb 0.00 in0.0 mm 0.00 in0.0 mm 0.00 in0.0 mm
02:49 AM 40.8°F4.9°C 36.4°F2.4°C 84% 1.1 mph NE1.8 kmh NE 1.7 mph2.7 kmh 30.37 in1028.4 mb 0.00 in0.0 mm 0.00 in0.0 mm 0.00 in0.0 mm
02:50 AM 40.8°F4.9°C 36.4°F2.4°C 84% 1.7 mph E2.7 kmh E 1.7 mph2.7 kmh 30.37 in1028.4 mb 0.00 in0.0 mm 0.00 in0.0 mm 0.00 in0.0 mm
02:51 AM 40.6°F4.8°C 36.2°F2.3°C 84% 1.1 mph ESE1.8 kmh ESE 1.7 mph2.7 kmh 30.37 in1028.4 mb 0.00 in0.0 mm 0.00 in0.0 mm 0.00 in0.0 mm
02:52 AM 40.6°F4.8°C 36.2°F2.3°C 84% Calm Calm 1.7 mph2.7 kmh 30.37 in1028.4 mb 0.00 in0.0 mm 0.00 in0.0 mm 0.00 in0.0 mm
02:53 AM 40.6°F4.8°C 36.2°F2.3°C 84% Calm Calm 1.7 mph2.7 kmh 30.37 in1028.4 mb 0.00 in0.0 mm 0.00 in0.0 mm 0.00 in0.0 mm
02:54 AM 40.6°F4.8°C 36.2°F2.3°C 84% Calm Calm 1.7 mph2.7 kmh 30.37 in1028.4 mb 0.00 in0.0 mm 0.00 in0.0 mm 0.00 in0.0 mm
02:55 AM 40.6°F4.8°C 36.2°F2.3°C 84% Calm Calm 1.7 mph2.7 kmh 30.37 in1028.4 mb 0.00 in0.0 mm 0.00 in0.0 mm 0.00 in0.0 mm
02:56 AM 40.5°F4.7°C 36.0°F2.2°C 84% Calm Calm 1.7 mph2.7 kmh 30.37 in1028.4 mb 0.00 in0.0 mm 0.00 in0.0 mm 0.00 in0.0 mm
02:57 AM 40.5°F4.7°C 36.0°F2.2°C 84% Calm Calm 1.7 mph2.7 kmh 30.37 in1028.4 mb 0.00 in0.0 mm 0.00 in0.0 mm 0.00 in0.0 mm
02:58 AM 40.5°F4.7°C 36.0°F2.2°C 84% Calm Calm 1.7 mph2.7 kmh 30.37 in1028.4 mb 0.00 in0.0 mm 0.00 in0.0 mm 0.00 in0.0 mm
02:59 AM 40.5°F4.7°C 35.7°F2.1°C 83% Calm Calm 1.7 mph2.7 kmh 30.37 in1028.4 mb 0.00 in0.0 mm 0.00 in0.0 mm 0.00 in0.0 mm
03:00 AM 40.5°F4.7°C 35.7°F2.1°C 83% Calm Calm 1.1 mph1.8 kmh 30.37 in1028.4 mb 0.00 in0.0 mm 0.00 in0.0 mm 0.00 in0.0 mm
03:01 AM 40.5°F4.7°C 35.7°F2.1°C 83% Calm Calm 1.1 mph1.8 kmh 30.37 in1028.4 mb 0.00 in0.0 mm 0.00 in0.0 mm 0.00 in0.0 mm
03:02 AM 40.3°F4.6°C 35.5°F1.9°C 83% 1.1 mph ESE1.8 kmh ESE 1.1 mph1.8 kmh 30.37 in1028.4 mb 0.00 in0.0 mm 0.00 in0.0 mm 0.00 in0.0 mm
03:03 AM 40.3°F4.6°C 35.5°F1.9°C 83% Calm Calm 1.1 mph1.8 kmh 30.37 in1028.4 mb 0.00 in0.0 mm 0.00 in0.0 mm 0.00 in0.0 mm
03:04 AM 40.3°F4.6°C 35.5°F1.9°C 83% Calm Calm 1.1 mph1.8 kmh 30.37 in1028.4 mb 0.00 in0.0 mm 0.00 in0.0 mm 0.00 in0.0 mm
03:05 AM 40.3°F4.6°C 35.5°F1.9°C 83% 1.1 mph NNE1.8 kmh NNE 1.7 mph2.7 kmh 30.37 in1028.4 mb 0.00 in0.0 mm 0.00 in0.0 mm 0.00 in0.0 mm
03:06 AM 40.3°F4.6°C 35.2°F1.8°C 82% 1.1 mph NNE1.8 kmh NNE 1.7 mph2.7 kmh 30.37 in1028.4 mb 0.00 in0.0 mm 0.00 in0.0 mm 0.00 in0.0 mm
03:07 AM 40.3°F4.6°C 35.2°F1.8°C 82% 1.1 mph ESE1.8 kmh ESE 1.7 mph2.7 kmh 30.38 in1028.8 mb 0.00 in0.0 mm 0.00 in0.0 mm 0.00 in0.0 mm
03:08 AM 40.5°F4.7°C 35.4°F1.9°C 82% 1.7 mph SSE2.7 kmh SSE 1.7 mph2.7 kmh 30.38 in1028.8 mb 0.00 in0.0 mm 0.00 in0.0 mm 0.00 in0.0 mm
03:09 AM 40.5°F4.7°C 35.4°F1.9°C 82% 1.1 mph E1.8 kmh E 1.7 mph2.7 kmh 30.38 in1028.8 mb 0.00 in0.0 mm 0.00 in0.0 mm 0.00 in0.0 mm
03:10 AM 40.5°F4.7°C 35.4°F1.9°C 82% 1.7 mph NNE2.7 kmh NNE 1.7 mph2.7 kmh 30.38 in1028.8 mb 0.00 in0.0 mm 0.00 in0.0 mm 0.00 in0.0 mm
03:11 AM 40.5°F4.7°C 35.4°F1.9°C 82% 1.7 mph NE2.7 kmh NE 2.2 mph3.5 kmh 30.38 in1028.8 mb 0.00 in0.0 mm 0.00 in0.0 mm 0.00 in0.0 mm
03:12 AM 40.6°F4.8°C 35.6°F2.0°C 82% Calm Calm 2.2 mph3.5 kmh 30.38 in1028.8 mb 0.00 in0.0 mm 0.00 in0.0 mm 0.00 in0.0 mm
03:13 AM 40.6°F4.8°C 35.6°F2.0°C 82% Calm Calm 2.2 mph3.5 kmh 30.38 in1028.8 mb 0.00 in0.0 mm 0.00 in0.0 mm 0.00 in0.0 mm
03:14 AM 40.6°F4.8°C 35.6°F2.0°C 82% Calm Calm 2.2 mph3.5 kmh 30.38 in1028.8 mb 0.00 in0.0 mm 0.00 in0.0 mm 0.00 in0.0 mm
03:15 AM 40.6°F4.8°C 35.6°F2.0°C 82% Calm Calm 2.2 mph3.5 kmh 30.38 in1028.8 mb 0.00 in0.0 mm 0.00 in0.0 mm 0.00 in0.0 mm
03:16 AM 40.6°F4.8°C 35.6°F2.0°C 82% Calm Calm 2.2 mph3.5 kmh 30.38 in1028.8 mb 0.00 in0.0 mm 0.00 in0.0 mm 0.00 in0.0 mm
03:17 AM 40.6°F4.8°C 35.6°F2.0°C 82% Calm Calm 2.2 mph3.5 kmh 30.38 in1028.8 mb 0.00 in0.0 mm 0.00 in0.0 mm 0.00 in0.0 mm
03:18 AM 40.6°F4.8°C 35.6°F2.0°C 82% Calm Calm 2.2 mph3.5 kmh 30.38 in1028.8 mb 0.00 in0.0 mm 0.00 in0.0 mm 0.00 in0.0 mm
03:19 AM 40.6°F4.8°C 35.6°F2.0°C 82% Calm Calm 2.2 mph3.5 kmh 30.37 in1028.4 mb 0.00 in0.0 mm 0.00 in0.0 mm 0.00 in0.0 mm
03:20 AM 40.6°F4.8°C 35.6°F2.0°C 82% 1.1 mph E1.8 kmh E 2.2 mph3.5 kmh 30.37 in1028.4 mb 0.00 in0.0 mm 0.00 in0.0 mm 0.00 in0.0 mm
03:21 AM 40.6°F4.8°C 35.6°F2.0°C 82% Calm Calm 1.7 mph2.7 kmh 30.37 in1028.4 mb 0.00 in0.0 mm 0.00 in0.0 mm 0.00 in0.0 mm
03:22 AM 40.6°F4.8°C 35.6°F2.0°C 82% Calm Calm 1.7 mph2.7 kmh 30.37 in1028.4 mb 0.00 in0.0 mm 0.00 in0.0 mm 0.00 in0.0 mm
03:23 AM 40.6°F4.8°C 35.6°F2.0°C 82% Calm Calm 1.7 mph2.7 kmh 30.37 in1028.4 mb 0.00 in0.0 mm 0.00 in0.0 mm 0.00 in0.0 mm
03:24 AM 40.6°F4.8°C 35.6°F2.0°C 82% Calm Calm 1.7 mph2.7 kmh 30.37 in1028.4 mb 0.00 in0.0 mm 0.00 in0.0 mm 0.00 in0.0 mm
03:25 AM 40.6°F4.8°C 35.6°F2.0°C 82% Calm Calm 1.7 mph2.7 kmh 30.37 in1028.4 mb 0.00 in0.0 mm 0.00 in0.0 mm 0.00 in0.0 mm
03:26 AM 40.5°F4.7°C 35.4°F1.9°C 82% Calm Calm 1.7 mph2.7 kmh 30.37 in1028.4 mb 0.00 in0.0 mm 0.00 in0.0 mm 0.00 in0.0 mm
03:27 AM 40.5°F4.7°C 35.4°F1.9°C 82% Calm Calm 1.7 mph2.7 kmh 30.37 in1028.4 mb 0.00 in0.0 mm 0.00 in0.0 mm 0.00 in0.0 mm
03:28 AM 40.5°F4.7°C 35.4°F1.9°C 82% Calm Calm 1.7 mph2.7 kmh 30.37 in1028.4 mb 0.00 in0.0 mm 0.00 in0.0 mm 0.00 in0.0 mm
03:29 AM 40.5°F4.7°C 35.4°F1.9°C 82% Calm Calm 1.1 mph1.8 kmh 30.37 in1028.4 mb 0.00 in0.0 mm 0.00 in0.0 mm 0.00 in0.0 mm
03:30 AM 40.5°F4.7°C 35.4°F1.9°C 82% 1.1 mph ESE1.8 kmh ESE 1.7 mph2.7 kmh 30.37 in1028.4 mb 0.00 in0.0 mm 0.00 in0.0 mm 0.00 in0.0 mm
03:31 AM 40.5°F4.7°C 35.4°F1.9°C 82% Calm Calm 1.7 mph2.7 kmh 30.37 in1028.4 mb 0.00 in0.0 mm 0.00 in0.0 mm 0.00 in0.0 mm
03:32 AM 40.5°F4.7°C 35.4°F1.9°C 82% 1.1 mph ESE1.8 kmh ESE 1.7 mph2.7 kmh 30.37 in1028.4 mb 0.00 in0.0 mm 0.00 in0.0 mm 0.00 in0.0 mm
03:33 AM 40.5°F4.7°C 35.4°F1.9°C 82% Calm Calm 1.7 mph2.7 kmh 30.37 in1028.4 mb 0.00 in0.0 mm 0.00 in0.0 mm 0.00 in0.0 mm
03:34 AM 40.5°F4.7°C 35.4°F1.9°C 82% Calm Calm 1.7 mph2.7 kmh 30.37 in1028.4 mb 0.00 in0.0 mm 0.00 in0.0 mm 0.00 in0.0 mm
03:35 AM 40.5°F4.7°C 35.4°F1.9°C 82% Calm Calm 1.7 mph2.7 kmh 30.37 in1028.4 mb 0.00 in0.0 mm 0.00 in0.0 mm 0.00 in0.0 mm
03:36 AM 40.5°F4.7°C 35.4°F1.9°C 82% Calm Calm 1.7 mph2.7 kmh 30.37 in1028.4 mb 0.00 in0.0 mm 0.00 in0.0 mm 0.00 in0.0 mm
03:37 AM 40.5°F4.7°C 35.4°F1.9°C 82% Calm Calm 1.7 mph2.7 kmh 30.37 in1028.4 mb 0.00 in0.0 mm 0.00 in0.0 mm 0.00 in0.0 mm
03:38 AM 40.5°F4.7°C 35.4°F1.9°C 82% Calm Calm 1.7 mph2.7 kmh 30.37 in1028.4 mb 0.00 in0.0 mm 0.00 in0.0 mm 0.00 in0.0 mm
03:39 AM 40.5°F4.7°C 35.4°F1.9°C 82% Calm Calm 1.7 mph2.7 kmh 30.37 in1028.4 mb 0.00 in0.0 mm 0.00 in0.0 mm 0.00 in0.0 mm
03:40 AM 40.3°F4.6°C 35.2°F1.8°C 82% Calm Calm 1.1 mph1.8 kmh 30.37 in1028.4 mb 0.00 in0.0 mm 0.00 in0.0 mm 0.00 in0.0 mm
03:41 AM 40.3°F4.6°C 35.5°F1.9°C 83% Calm Calm 1.1 mph1.8 kmh 30.37 in1028.4 mb 0.00 in0.0 mm 0.00 in0.0 mm 0.00 in0.0 mm
03:42 AM 40.3°F4.6°C 35.5°F1.9°C 83% Calm Calm 1.1 mph1.8 kmh 30.37 in1028.4 mb 0.00 in0.0 mm 0.00 in0.0 mm 0.00 in0.0 mm
03:43 AM 40.3°F4.6°C 35.5°F1.9°C 83% Calm Calm 1.1 mph1.8 kmh 30.37 in1028.4 mb 0.00 in0.0 mm 0.00 in0.0 mm 0.00 in0.0 mm
03:44 AM 40.1°F4.5°C 35.4°F1.9°C 83% 1.1 mph ESE1.8 kmh ESE 1.1 mph1.8 kmh 30.37 in1028.4 mb 0.00 in0.0 mm 0.00 in0.0 mm 0.00 in0.0 mm
03:45 AM 39.9°F4.4°C 35.2°F1.8°C 83% Calm Calm 1.1 mph1.8 kmh 30.37 in1028.4 mb 0.00 in0.0 mm 0.00 in0.0 mm 0.00 in0.0 mm
03:46 AM 39.9°F4.4°C 35.2°F1.8°C 83% Calm Calm 1.1 mph1.8 kmh 30.37 in1028.4 mb 0.00 in0.0 mm 0.00 in0.0 mm 0.00 in0.0 mm
03:47 AM 39.9°F4.4°C 35.2°F1.8°C 83% Calm Calm 1.1 mph1.8 kmh 30.37 in1028.4 mb 0.00 in0.0 mm 0.00 in0.0 mm 0.00 in0.0 mm
03:48 AM 39.7°F4.3°C 35.0°F1.7°C 83% Calm Calm 1.1 mph1.8 kmh 30.37 in1028.4 mb 0.00 in0.0 mm 0.00 in0.0 mm 0.00 in0.0 mm
03:49 AM 39.7°F4.3°C 35.0°F1.7°C 83% Calm Calm 1.1 mph1.8 kmh 30.37 in1028.4 mb 0.00 in0.0 mm 0.00 in0.0 mm 0.00 in0.0 mm
03:50 AM 39.7°F4.3°C 35.3°F1.8°C 84% 1.1 mph ESE1.8 kmh ESE 1.1 mph1.8 kmh 30.37 in1028.4 mb 0.00 in0.0 mm 0.00 in0.0 mm 0.00 in0.0 mm
03:51 AM 39.7°F4.3°C 35.3°F1.8°C 84% 1.1 mph E1.8 kmh E 1.1 mph1.8 kmh 30.37 in1028.4 mb 0.00 in0.0 mm 0.00 in0.0 mm 0.00 in0.0 mm
03:52 AM 39.7°F4.3°C 35.3°F1.8°C 84% 1.1 mph ESE1.8 kmh ESE 1.1 mph1.8 kmh 30.37 in1028.4 mb 0.00 in0.0 mm 0.00 in0.0 mm 0.00 in0.0 mm
03:53 AM 39.7°F4.3°C 35.3°F1.8°C 84% Calm Calm 1.1 mph1.8 kmh 30.37 in1028.4 mb 0.00 in0.0 mm 0.00 in0.0 mm 0.00 in0.0 mm
03:54 AM 39.7°F4.3°C 35.3°F1.8°C 84% Calm Calm 1.1 mph1.8 kmh 30.37 in1028.4 mb 0.00 in0.0 mm 0.00 in0.0 mm 0.00 in0.0 mm
03:55 AM 39.7°F4.3°C 35.3°F1.8°C 84% Calm Calm 1.1 mph1.8 kmh 30.36 in1028.1 mb 0.00 in0.0 mm 0.00 in0.0 mm 0.00 in0.0 mm
03:56 AM 39.6°F4.2°C 35.1°F1.7°C 84% Calm Calm 1.1 mph1.8 kmh 30.36 in1028.1 mb 0.00 in0.0 mm 0.00 in0.0 mm 0.00 in0.0 mm
03:57 AM 39.6°F4.2°C 35.1°F1.7°C 84% Calm Calm 1.1 mph1.8 kmh 30.36 in1028.1 mb 0.00 in0.0 mm 0.00 in0.0 mm 0.00 in0.0 mm
03:58 AM 39.6°F4.2°C 35.1°F1.7°C 84% Calm Calm 1.1 mph1.8 kmh 30.36 in1028.1 mb 0.00 in0.0 mm 0.00 in0.0 mm 0.00 in0.0 mm
03:59 AM 39.6°F4.2°C 35.4°F1.9°C 85% Calm Calm 1.1 mph1.8 kmh 30.36 in1028.1 mb 0.00 in0.0 mm 0.00 in0.0 mm 0.00 in0.0 mm
04:00 AM 39.6°F4.2°C 35.4°F1.9°C 85% Calm Calm 1.1 mph1.8 kmh 30.36 in1028.1 mb 0.00 in0.0 mm 0.00 in0.0 mm 0.00 in0.0 mm
04:01 AM 39.4°F4.1°C 35.3°F1.8°C 85% Calm Calm 1.1 mph1.8 kmh 30.36 in1028.1 mb 0.00 in0.0 mm 0.00 in0.0 mm 0.00 in0.0 mm
04:02 AM 39.4°F4.1°C 35.3°F1.8°C 85% Calm Calm 1.1 mph1.8 kmh 30.36 in1028.1 mb 0.00 in0.0 mm 0.00 in0.0 mm 0.00 in0.0 mm
04:03 AM 39.4°F4.1°C 35.3°F1.8°C 85% Calm Calm 1.1 mph1.8 kmh 30.36 in1028.1 mb 0.00 in0.0 mm 0.00 in0.0 mm 0.00 in0.0 mm
04:04 AM 39.4°F4.1°C 35.3°F1.8°C 85% 1.1 mph NNE1.8 kmh NNE 1.7 mph2.7 kmh 30.36 in1028.1 mb 0.00 in0.0 mm 0.00 in0.0 mm 0.00 in0.0 mm
04:05 AM 39.4°F4.1°C 35.3°F1.8°C 85% 1.1 mph ESE1.8 kmh ESE 1.7 mph2.7 kmh 30.36 in1028.1 mb 0.00 in0.0 mm 0.00 in0.0 mm 0.00 in0.0 mm
04:06 AM 39.4°F4.1°C 35.3°F1.8°C 85% Calm Calm 1.7 mph2.7 kmh 30.36 in1028.1 mb 0.00 in0.0 mm 0.00 in0.0 mm 0.00 in0.0 mm
04:07 AM 39.4°F4.1°C 35.3°F1.8°C 85% Calm Calm 1.7 mph2.7 kmh 30.36 in1028.1 mb 0.00 in0.0 mm 0.00 in0.0 mm 0.00 in0.0 mm
04:08 AM 39.4°F4.1°C 35.3°F1.8°C 85% Calm Calm 1.7 mph2.7 kmh 30.36 in1028.1 mb 0.00 in0.0 mm 0.00 in0.0 mm 0.00 in0.0 mm
04:09 AM 39.4°F4.1°C 35.3°F1.8°C 85% Calm Calm 1.7 mph2.7 kmh 30.36 in1028.1 mb 0.00 in0.0 mm 0.00 in0.0 mm 0.00 in0.0 mm
04:10 AM 39.4°F4.1°C 35.3°F1.8°C 85% Calm Calm 1.7 mph2.7 kmh 30.36 in1028.1 mb 0.00 in0.0 mm 0.00 in0.0 mm 0.00 in0.0 mm
04:11 AM 39.4°F4.1°C 35.3°F1.8°C 85% Calm Calm 1.7 mph2.7 kmh 30.36 in1028.1 mb 0.00 in0.0 mm 0.00 in0.0 mm 0.00 in0.0 mm
04:12 AM 39.4°F4.1°C 35.3°F1.8°C 85% Calm Calm 1.7 mph2.7 kmh 30.36 in1028.1 mb 0.00 in0.0 mm 0.00 in0.0 mm 0.00 in0.0 mm
04:13 AM 39.4°F4.1°C 35.3°F1.8°C 85% Calm Calm 1.7 mph2.7 kmh 30.36 in1028.1 mb 0.00 in0.0 mm 0.00 in0.0 mm 0.00 in0.0 mm
04:14 AM 39.4°F4.1°C 35.3°F1.8°C 85% Calm Calm 1.1 mph1.8 kmh 30.36 in1028.1 mb 0.00 in0.0 mm 0.00 in0.0 mm 0.00 in0.0 mm
04:15 AM 39.4°F4.1°C 35.3°F1.8°C 85% Calm Calm 1.1 mph1.8 kmh 30.36 in1028.1 mb 0.00 in0.0 mm 0.00 in0.0 mm 0.00 in0.0 mm
04:16 AM 39.4°F4.1°C 35.3°F1.8°C 85% Calm Calm -- 30.36 in1028.1 mb 0.00 in0.0 mm 0.00 in0.0 mm 0.00 in0.0 mm
04:17 AM 39.4°F4.1°C 35.3°F1.8°C 85% Calm Calm -- 30.36 in1028.1 mb 0.00 in0.0 mm 0.00 in0.0 mm 0.00 in0.0 mm
04:18 AM 39.4°F4.1°C 35.3°F1.8°C 85% Calm Calm -- 30.36 in1028.1 mb 0.00 in0.0 mm 0.00 in0.0 mm 0.00 in0.0 mm
04:19 AM 39.4°F4.1°C 35.3°F1.8°C 85% Calm Calm -- 30.37 in1028.4 mb 0.00 in0.0 mm 0.00 in0.0 mm 0.00 in0.0 mm
04:20 AM 39.6°F4.2°C 35.4°F1.9°C 85% Calm Calm -- 30.37 in1028.4 mb 0.00 in0.0 mm 0.00 in0.0 mm 0.00 in0.0 mm
04:21 AM 39.6°F4.2°C 35.4°F1.9°C 85% Calm Calm -- 30.37 in1028.4 mb 0.00 in0.0 mm 0.00 in0.0 mm 0.00 in0.0 mm
04:22 AM 39.6°F4.2°C 35.4°F1.9°C 85% Calm Calm -- 30.37 in1028.4 mb 0.00 in0.0 mm 0.00 in0.0 mm 0.00 in0.0 mm
04:23 AM 39.6°F4.2°C 35.4°F1.9°C 85% Calm Calm -- 30.37 in1028.4 mb 0.00 in0.0 mm 0.00 in0.0 mm 0.00 in0.0 mm
04:24 AM 39.6°F4.2°C 35.4°F1.9°C 85% Calm Calm -- 30.37 in1028.4 mb 0.00 in0.0 mm 0.00 in0.0 mm 0.00 in0.0 mm
04:25 AM 39.6°F4.2°C 35.4°F1.9°C 85% Calm Calm -- 30.37 in1028.4 mb 0.00 in0.0 mm 0.00 in0.0 mm 0.00 in0.0 mm
04:26 AM 39.6°F4.2°C 35.4°F1.9°C 85% Calm Calm -- 30.37 in1028.4 mb 0.00 in0.0 mm 0.00 in0.0 mm 0.00 in0.0 mm
04:27 AM 39.6°F4.2°C 35.4°F1.9°C 85% Calm Calm -- 30.37 in1028.4 mb 0.00 in0.0 mm 0.00 in0.0 mm 0.00 in0.0 mm
04:28 AM 39.6°F4.2°C 35.4°F1.9°C 85% Calm Calm -- 30.37 in1028.4 mb 0.00 in0.0 mm 0.00 in0.0 mm 0.00 in0.0 mm
04:29 AM 39.6°F4.2°C 35.4°F1.9°C 85% Calm Calm -- 30.37 in1028.4 mb 0.00 in0.0 mm 0.00 in0.0 mm 0.00 in0.0 mm
04:30 AM 39.6°F4.2°C 35.4°F1.9°C 85% Calm Calm 1.7 mph2.7 kmh 30.37 in1028.4 mb 0.00 in0.0 mm 0.00 in0.0 mm 0.00 in0.0 mm
04:31 AM 39.6°F4.2°C 35.4°F1.9°C 85% Calm Calm 1.7 mph2.7 kmh 30.37 in1028.4 mb 0.00 in0.0 mm 0.00 in0.0 mm 0.00 in0.0 mm
04:32 AM 39.6°F4.2°C 35.4°F1.9°C 85% Calm Calm 1.7 mph2.7 kmh 30.37 in1028.4 mb 0.00 in0.0 mm 0.00 in0.0 mm 0.00 in0.0 mm
04:33 AM 39.6°F4.2°C 35.4°F1.9°C 85% Calm Calm 1.7 mph2.7 kmh 30.37 in1028.4 mb 0.00 in0.0 mm 0.00 in0.0 mm 0.00 in0.0 mm
04:34 AM 39.6°F4.2°C 35.4°F1.9°C 85% Calm Calm 1.7 mph2.7 kmh 30.37 in1028.4 mb 0.00 in0.0 mm 0.00 in0.0 mm 0.00 in0.0 mm
04:35 AM 39.6°F4.2°C 35.4°F1.9°C 85% Calm Calm 1.7 mph2.7 kmh 30.37 in1028.4 mb 0.00 in0.0 mm 0.00 in0.0 mm 0.00 in0.0 mm
04:36 AM 39.6°F4.2°C 35.4°F1.9°C 85% Calm Calm 1.7 mph2.7 kmh 30.37 in1028.4 mb 0.00 in0.0 mm 0.00 in0.0 mm 0.00 in0.0 mm
04:37 AM 39.6°F4.2°C 35.4°F1.9°C 85% Calm Calm 1.7 mph2.7 kmh 30.37 in1028.4 mb 0.00 in0.0 mm 0.00 in0.0 mm 0.00 in0.0 mm
04:38 AM 39.6°F4.2°C 35.4°F1.9°C 85% Calm Calm 1.7 mph2.7 kmh 30.37 in1028.4 mb 0.00 in0.0 mm 0.00 in0.0 mm 0.00 in0.0 mm
04:39 AM 39.6°F4.2°C 35.4°F1.9°C 85% Calm Calm 1.7 mph2.7 kmh 30.37 in1028.4 mb 0.00 in0.0 mm 0.00 in0.0 mm 0.00 in0.0 mm
04:40 AM 39.6°F4.2°C 35.4°F1.9°C 85% Calm Calm -- 30.37 in1028.4 mb 0.00 in0.0 mm 0.00 in0.0 mm 0.00 in0.0 mm
04:41 AM 39.4°F4.1°C 35.3°F1.8°C 85% Calm Calm -- 30.37 in1028.4 mb 0.00 in0.0 mm 0.00 in0.0 mm 0.00 in0.0 mm
04:42 AM 39.4°F4.1°C 35.3°F1.8°C 85% Calm Calm -- 30.37 in1028.4 mb 0.00 in0.0 mm 0.00 in0.0 mm 0.00 in0.0 mm
04:43 AM 39.4°F4.1°C 35.3°F1.8°C 85% Calm Calm -- 30.38 in1028.8 mb 0.00 in0.0 mm 0.00 in0.0 mm 0.00 in0.0 mm
04:44 AM 39.4°F4.1°C 35.3°F1.8°C 85% Calm Calm -- 30.38 in1028.8 mb 0.00 in0.0 mm 0.00 in0.0 mm 0.00 in0.0 mm
04:45 AM 39.4°F4.1°C 35.3°F1.8°C 85% Calm Calm -- 30.38 in1028.8 mb 0.00 in0.0 mm 0.00 in0.0 mm 0.00 in0.0 mm
04:46 AM 39.4°F4.1°C 35.5°F1.9°C 86% Calm Calm -- 30.38 in1028.8 mb 0.00 in0.0 mm 0.00 in0.0 mm 0.00 in0.0 mm
04:47 AM 39.4°F4.1°C 35.5°F1.9°C 86% Calm Calm -- 30.38 in1028.8 mb 0.00 in0.0 mm 0.00 in0.0 mm 0.00 in0.0 mm
04:48 AM 39.4°F4.1°C 35.5°F1.9°C 86% Calm Calm -- 30.38 in1028.8 mb 0.00 in0.0 mm 0.00 in0.0 mm 0.00 in0.0 mm
04:49 AM 39.2°F4.0°C 35.4°F1.9°C 86% Calm Calm -- 30.38 in1028.8 mb 0.00 in0.0 mm 0.00 in0.0 mm 0.00 in0.0 mm
04:50 AM 39.2°F4.0°C 35.4°F1.9°C 86% Calm Calm -- 30.38 in1028.8 mb 0.00 in0.0 mm 0.00 in0.0 mm 0.00 in0.0 mm
04:51 AM 39.2°F4.0°C 35.4°F1.9°C 86% Calm Calm -- 30.38 in1028.8 mb 0.00 in0.0 mm 0.00 in0.0 mm 0.00 in0.0 mm
04:52 AM 39.0°F3.9°C 35.2°F1.8°C 86% Calm Calm -- 30.38 in1028.8 mb 0.00 in0.0 mm 0.00 in0.0 mm 0.00 in0.0 mm
04:53 AM 39.0°F3.9°C 35.2°F1.8°C 86% Calm Calm -- 30.38 in1028.8 mb 0.00 in0.0 mm 0.00 in0.0 mm 0.00 in0.0 mm
04:54 AM 39.0°F3.9°C 35.2°F1.8°C 86% Calm Calm -- 30.38 in1028.8 mb 0.00 in0.0 mm 0.00 in0.0 mm 0.00 in0.0 mm
04:55 AM 39.0°F3.9°C 35.2°F1.8°C 86% Calm Calm -- 30.38 in1028.8 mb 0.00 in0.0 mm 0.00 in0.0 mm 0.00 in0.0 mm
04:56 AM 39.0°F3.9°C 35.2°F1.8°C 86% Calm Calm -- 30.38 in1028.8 mb 0.00 in0.0 mm 0.00 in0.0 mm 0.00 in0.0 mm
04:57 AM 39.0°F3.9°C 35.2°F1.8°C 86% Calm Calm -- 30.38 in1028.8 mb 0.00 in0.0 mm 0.00 in0.0 mm 0.00 in0.0 mm
04:58 AM 38.8°F3.8°C 35.0°F1.7°C 86% Calm Calm -- 30.38 in1028.8 mb 0.00 in0.0 mm 0.00 in0.0 mm 0.00 in0.0 mm
04:59 AM 38.8°F3.8°C 35.0°F1.7°C 86% Calm Calm -- 30.38 in1028.8 mb 0.00 in0.0 mm 0.00 in0.0 mm 0.00 in0.0 mm
05:00 AM 38.8°F3.8°C 35.0°F1.7°C 86% Calm Calm -- 30.38 in1028.8 mb 0.00 in0.0 mm 0.00 in0.0 mm 0.00 in0.0 mm
05:01 AM 38.8°F3.8°C 35.0°F1.7°C 86% Calm Calm -- 30.38 in1028.8 mb 0.00 in0.0 mm 0.00 in0.0 mm 0.00 in0.0 mm
05:02 AM 38.8°F3.8°C 35.3°F1.8°C 87% Calm Calm -- 30.38 in1028.8 mb 0.00 in0.0 mm 0.00 in0.0 mm 0.00 in0.0 mm
05:03 AM 38.8°F3.8°C 35.3°F1.8°C 87% Calm Calm -- 30.38 in1028.8 mb 0.00 in0.0 mm 0.00 in0.0 mm 0.00 in0.0 mm
05:04 AM 38.7°F3.7°C 35.1°F1.7°C 87% Calm Calm -- 30.38 in1028.8 mb 0.00 in0.0 mm 0.00 in0.0 mm 0.00 in0.0 mm
05:05 AM 38.7°F3.7°C 35.1°F1.7°C 87% Calm Calm -- 30.38 in1028.8 mb 0.00 in0.0 mm 0.00 in0.0 mm 0.00 in0.0 mm
05:06 AM 38.7°F3.7°C 35.1°F1.7°C 87% Calm Calm -- 30.38 in1028.8 mb 0.00 in0.0 mm 0.00 in0.0 mm 0.00 in0.0 mm
05:07 AM 38.7°F3.7°C 35.1°F1.7°C 87% Calm Calm -- 30.38 in1028.8 mb 0.00 in0.0 mm 0.00 in0.0 mm 0.00 in0.0 mm
05:08 AM 38.7°F3.7°C 35.1°F1.7°C 87% Calm Calm -- 30.38 in1028.8 mb 0.00 in0.0 mm 0.00 in0.0 mm 0.00 in0.0 mm
05:09 AM 38.7°F3.7°C 35.1°F1.7°C 87% Calm Calm -- 30.38 in1028.8 mb 0.00 in0.0 mm 0.00 in0.0 mm 0.00 in0.0 mm
05:10 AM 38.7°F3.7°C 35.1°F1.7°C 87% Calm Calm -- 30.38 in1028.8 mb 0.00 in0.0 mm 0.00 in0.0 mm 0.00 in0.0 mm
05:11 AM 38.7°F3.7°C 35.1°F1.7°C 87% Calm Calm -- 30.38 in1028.8 mb 0.00 in0.0 mm 0.00 in0.0 mm 0.00 in0.0 mm
05:12 AM 38.7°F3.7°C 35.1°F1.7°C 87% Calm Calm -- 30.38 in1028.8 mb 0.00 in0.0 mm 0.00 in0.0 mm 0.00 in0.0 mm
05:13 AM 38.5°F3.6°C 35.0°F1.7°C 87% Calm Calm -- 30.38 in1028.8 mb 0.00 in0.0 mm 0.00 in0.0 mm 0.00 in0.0 mm
05:14 AM 38.5°F3.6°C 35.0°F1.7°C 87% Calm Calm -- 30.38 in1028.8 mb 0.00 in0.0 mm 0.00 in0.0 mm 0.00 in0.0 mm
05:15 AM 38.3°F3.5°C 34.8°F1.6°C 87% Calm Calm -- 30.38 in1028.8 mb 0.00 in0.0 mm 0.00 in0.0 mm 0.00 in0.0 mm
05:16 AM 38.3°F3.5°C 34.8°F1.6°C 87% Calm Calm -- 30.38 in1028.8 mb 0.00 in0.0 mm 0.00 in0.0 mm 0.00 in0.0 mm
05:17 AM 38.3°F3.5°C 34.8°F1.6°C 87% Calm Calm -- 30.38 in1028.8 mb 0.00 in0.0 mm 0.00 in0.0 mm 0.00 in0.0 mm
05:18 AM 38.3°F3.5°C 34.8°F1.6°C 87% Calm Calm -- 30.38 in1028.8 mb 0.00 in0.0 mm 0.00 in0.0 mm 0.00 in0.0 mm
05:19 AM 38.3°F3.5°C 34.8°F1.6°C 87% Calm Calm -- 30.38 in1028.8 mb 0.00 in0.0 mm 0.00 in0.0 mm 0.00 in0.0 mm
05:20 AM 38.3°F3.5°C 34.8°F1.6°C 87% Calm Calm -- 30.38 in1028.8 mb 0.00 in0.0 mm 0.00 in0.0 mm 0.00 in0.0 mm
05:21 AM 38.5°F3.6°C 35.2°F1.8°C 88% Calm Calm -- 30.38 in1028.8 mb 0.00 in0.0 mm 0.00 in0.0 mm 0.00 in0.0 mm
05:22 AM 38.5°F3.6°C 35.2°F1.8°C 88% Calm Calm -- 30.38 in1028.8 mb 0.00 in0.0 mm 0.00 in0.0 mm 0.00 in0.0 mm
05:23 AM 38.5°F3.6°C 35.2°F1.8°C 88% Calm Calm -- 30.38 in1028.8 mb 0.00 in0.0 mm 0.00 in0.0 mm 0.00 in0.0 mm
05:24 AM 38.5°F3.6°C 35.2°F1.8°C 88% Calm Calm -- 30.38 in1028.8 mb 0.00 in0.0 mm 0.00 in0.0 mm 0.00 in0.0 mm
05:25 AM 38.5°F3.6°C 35.2°F1.8°C 88% Calm Calm -- 30.38 in1028.8 mb 0.00 in0.0 mm 0.00 in0.0 mm 0.00 in0.0 mm
05:26 AM 38.3°F3.5°C 35.1°F1.7°C 88% Calm Calm -- 30.38 in1028.8 mb 0.00 in0.0 mm 0.00 in0.0 mm 0.00 in0.0 mm
05:27 AM 38.3°F3.5°C 35.1°F1.7°C 88% Calm Calm -- 30.38 in1028.8 mb 0.00 in0.0 mm 0.00 in0.0 mm 0.00 in0.0 mm
05:28 AM 38.3°F3.5°C 35.1°F1.7°C 88% Calm Calm -- 30.38 in1028.8 mb 0.00 in0.0 mm 0.00 in0.0 mm 0.00 in0.0 mm
05:29 AM 38.3°F3.5°C 35.1°F1.7°C 88% Calm Calm -- 30.38 in1028.8 mb 0.00 in0.0 mm 0.00 in0.0 mm 0.00 in0.0 mm
05:30 AM 38.3°F3.5°C 35.1°F1.7°C 88% Calm Calm -- 30.39 in1029.1 mb 0.00 in0.0 mm 0.00 in0.0 mm 0.00 in0.0 mm
05:31 AM 38.3°F3.5°C 35.1°F1.7°C 88% Calm Calm -- 30.39 in1029.1 mb 0.00 in0.0 mm 0.00 in0.0 mm 0.00 in0.0 mm
05:32 AM 38.3°F3.5°C 35.1°F1.7°C 88% Calm Calm -- 30.39 in1029.1 mb 0.00 in0.0 mm 0.00 in0.0 mm 0.00 in0.0 mm
05:33 AM 38.3°F3.5°C 35.1°F1.7°C 88% Calm Calm -- 30.39 in1029.1 mb 0.00 in0.0 mm 0.00 in0.0 mm 0.00 in0.0 mm
05:34 AM 38.3°F3.5°C 35.1°F1.7°C 88% Calm Calm -- 30.39 in1029.1 mb 0.00 in0.0 mm 0.00 in0.0 mm 0.00 in0.0 mm
05:35 AM 38.3°F3.5°C 35.1°F1.7°C 88% Calm Calm -- 30.39 in1029.1 mb 0.00 in0.0 mm 0.00 in0.0 mm 0.00 in0.0 mm
05:36 AM 38.3°F3.5°C 35.1°F1.7°C 88% Calm Calm -- 30.39 in1029.1 mb 0.00 in0.0 mm 0.00 in0.0 mm 0.00 in0.0 mm
05:37 AM 38.3°F3.5°C 35.1°F1.7°C 88% Calm Calm -- 30.39 in1029.1 mb 0.00 in0.0 mm 0.00 in0.0 mm 0.00 in0.0 mm
05:38 AM 38.5°F3.6°C 35.2°F1.8°C 88% Calm Calm -- 30.39 in1029.1 mb 0.00 in0.0 mm 0.00 in0.0 mm 0.00 in0.0 mm
05:39 AM 38.5°F3.6°C 35.2°F1.8°C 88% Calm Calm -- 30.39 in1029.1 mb 0.00 in0.0 mm 0.00 in0.0 mm 0.00 in0.0 mm
05:40 AM 38.5°F3.6°C 35.2°F1.8°C 88% Calm Calm -- 30.39 in1029.1 mb 0.00 in0.0 mm 0.00 in0.0 mm 0.00 in0.0 mm
05:41 AM 38.5°F3.6°C 35.2°F1.8°C 88% Calm Calm -- 30.39 in1029.1 mb 0.00 in0.0 mm 0.00 in0.0 mm 0.00 in0.0 mm
05:42 AM 38.5°F3.6°C 35.2°F1.8°C 88% Calm Calm -- 30.39 in1029.1 mb 0.00 in0.0 mm 0.00 in0.0 mm 0.00 in0.0 mm
05:43 AM 38.5°F3.6°C 35.2°F1.8°C 88% Calm Calm -- 30.39 in1029.1 mb 0.00 in0.0 mm 0.00 in0.0 mm 0.00 in0.0 mm
05:44 AM 38.5°F3.6°C 35.2°F1.8°C 88% Calm Calm -- 30.39 in1029.1 mb 0.00 in0.0 mm 0.00 in0.0 mm 0.00 in0.0 mm
05:45 AM 38.5°F3.6°C 35.2°F1.8°C 88% Calm Calm -- 30.39 in1029.1 mb 0.00 in0.0 mm 0.00 in0.0 mm 0.00 in0.0 mm
05:46 AM 38.5°F3.6°C 35.2°F1.8°C 88% Calm Calm -- 30.39 in1029.1 mb 0.00 in0.0 mm 0.00 in0.0 mm 0.00 in0.0 mm
05:47 AM 38.5°F3.6°C 35.2°F1.8°C 88% Calm Calm -- 30.39 in1029.1 mb 0.00 in0.0 mm 0.00 in0.0 mm 0.00 in0.0 mm
05:48 AM 38.5°F3.6°C 35.2°F1.8°C 88% Calm Calm 1.1 mph1.8 kmh 30.39 in1029.1 mb 0.00 in0.0 mm 0.00 in0.0 mm 0.00 in0.0 mm
05:49 AM 38.7°F3.7°C 35.4°F1.9°C 88% Calm Calm 1.1 mph1.8 kmh 30.39 in1029.1 mb 0.00 in0.0 mm 0.00 in0.0 mm 0.00 in0.0 mm
05:50 AM 38.7°F3.7°C 35.4°F1.9°C 88% Calm Calm 1.1 mph1.8 kmh 30.39 in1029.1 mb 0.00 in0.0 mm 0.00 in0.0 mm 0.00 in0.0 mm
05:51 AM 38.5°F3.6°C 35.2°F1.8°C 88% Calm Calm 1.1 mph1.8 kmh 30.39 in1029.1 mb 0.00 in0.0 mm 0.00 in0.0 mm 0.00 in0.0 mm
05:52 AM 38.5°F3.6°C 35.2°F1.8°C 88% Calm Calm 1.1 mph1.8 kmh 30.39 in1029.1 mb 0.00 in0.0 mm 0.00 in0.0 mm 0.00 in0.0 mm
05:53 AM 38.7°F3.7°C 35.4°F1.9°C 88% 1.7 mph NE2.7 kmh NE 1.7 mph2.7 kmh 30.39 in1029.1 mb 0.00 in0.0 mm 0.00 in0.0 mm 0.00 in0.0 mm
05:54 AM 38.7°F3.7°C 35.4°F1.9°C 88% Calm Calm 1.7 mph2.7 kmh 30.39 in1029.1 mb 0.00 in0.0 mm 0.00 in0.0 mm 0.00 in0.0 mm
05:55 AM 38.7°F3.7°C 35.4°F1.9°C 88% Calm Calm 1.7 mph2.7 kmh 30.40 in1029.5 mb 0.00 in0.0 mm 0.00 in0.0 mm 0.00 in0.0 mm
05:56 AM 38.7°F3.7°C 35.4°F1.9°C 88% Calm Calm 1.7 mph2.7 kmh 30.40 in1029.5 mb 0.00 in0.0 mm 0.00 in0.0 mm 0.00 in0.0 mm
05:57 AM 38.8°F3.8°C 35.6°F2.0°C 88% Calm Calm 1.7 mph2.7 kmh 30.40 in1029.5 mb 0.00 in0.0 mm 0.00 in0.0 mm 0.00 in0.0 mm
05:58 AM 38.8°F3.8°C 35.6°F2.0°C 88% Calm Calm 1.7 mph2.7 kmh 30.40 in1029.5 mb 0.00 in0.0 mm 0.00 in0.0 mm 0.00 in0.0 mm
05:59 AM 38.8°F3.8°C 35.6°F2.0°C 88% Calm Calm 1.7 mph2.7 kmh 30.40 in1029.5 mb 0.00 in0.0 mm 0.00 in0.0 mm 0.00 in0.0 mm
06:00 AM 39.0°F3.9°C 35.8°F2.1°C 88% Calm Calm 1.7 mph2.7 kmh 30.40 in1029.5 mb 0.00 in0.0 mm 0.00 in0.0 mm 0.00 in0.0 mm
06:01 AM 39.0°F3.9°C 35.8°F2.1°C 88% Calm Calm 1.7 mph2.7 kmh 30.40 in1029.5 mb 0.00 in0.0 mm 0.00 in0.0 mm 0.00 in0.0 mm
06:02 AM 39.0°F3.9°C 35.8°F2.1°C 88% Calm Calm 1.7 mph2.7 kmh 30.40 in1029.5 mb 0.00 in0.0 mm 0.00 in0.0 mm 0.00 in0.0 mm
06:03 AM 39.0°F3.9°C 35.8°F2.1°C 88% Calm Calm 1.7 mph2.7 kmh 30.40 in1029.5 mb 0.00 in0.0 mm 0.00 in0.0 mm 0.00 in0.0 mm
06:04 AM 39.0°F3.9°C 35.8°F2.1°C 88% Calm Calm 1.1 mph1.8 kmh 30.40 in1029.5 mb 0.00 in0.0 mm 0.00 in0.0 mm 0.00 in0.0 mm
06:05 AM 39.0°F3.9°C 35.8°F2.1°C 88% Calm Calm 1.1 mph1.8 kmh 30.40 in1029.5 mb 0.00 in0.0 mm 0.00 in0.0 mm 0.00 in0.0 mm
06:06 AM 39.0°F3.9°C 35.8°F2.1°C 88% Calm Calm 1.1 mph1.8 kmh 30.40 in1029.5 mb 0.00 in0.0 mm 0.00 in0.0 mm 0.00 in0.0 mm
06:07 AM 39.0°F3.9°C 35.8°F2.1°C 88% 1.1 mph ESE1.8 kmh ESE 1.1 mph1.8 kmh 30.41 in1029.8 mb 0.00 in0.0 mm 0.00 in0.0 mm 0.00 in0.0 mm
06:08 AM 39.0°F3.9°C 35.8°F2.1°C 88% Calm Calm 1.1 mph1.8 kmh 30.41 in1029.8 mb 0.00 in0.0 mm 0.00 in0.0 mm 0.00 in0.0 mm
06:09 AM 39.0°F3.9°C 35.8°F2.1°C 88% Calm Calm 1.1 mph1.8 kmh 30.41 in1029.8 mb 0.00 in0.0 mm 0.00 in0.0 mm 0.00 in0.0 mm
06:10 AM 39.0°F3.9°C 35.8°F2.1°C 88% Calm Calm 1.1 mph1.8 kmh 30.41 in1029.8 mb 0.00 in0.0 mm 0.00 in0.0 mm 0.00 in0.0 mm
06:11 AM 39.0°F3.9°C 35.8°F2.1°C 88% Calm Calm 1.1 mph1.8 kmh 30.41 in1029.8 mb 0.00 in0.0 mm 0.00 in0.0 mm 0.00 in0.0 mm
06:12 AM 39.0°F3.9°C 35.8°F2.1°C 88% Calm Calm 1.1 mph1.8 kmh 30.41 in1029.8 mb 0.00 in0.0 mm 0.00 in0.0 mm 0.00 in0.0 mm
06:13 AM 39.0°F3.9°C 35.8°F2.1°C 88% Calm Calm 1.1 mph1.8 kmh 30.41 in1029.8 mb 0.00 in0.0 mm 0.00 in0.0 mm 0.00 in0.0 mm
06:14 AM 39.0°F3.9°C 35.8°F2.1°C 88% Calm Calm 1.1 mph1.8 kmh 30.41 in1029.8 mb 0.00 in0.0 mm 0.00 in0.0 mm 0.00 in0.0 mm
06:15 AM 39.0°F3.9°C 35.8°F2.1°C 88% Calm Calm 1.1 mph1.8 kmh 30.41 in1029.8 mb 0.00 in0.0 mm 0.00 in0.0 mm 0.00 in0.0 mm
06:16 AM 39.0°F3.9°C 35.8°F2.1°C 88% Calm Calm 1.1 mph1.8 kmh 30.41 in1029.8 mb 0.00 in0.0 mm 0.00 in0.0 mm 0.00 in0.0 mm
06:17 AM 39.0°F3.9°C 35.8°F2.1°C 88% Calm Calm 1.1 mph1.8 kmh 30.41 in1029.8 mb 0.00 in0.0 mm 0.00 in0.0 mm 0.00 in0.0 mm
06:18 AM 39.0°F3.9°C 35.8°F2.1°C 88% Calm Calm -- 30.41 in1029.8 mb 0.00 in0.0 mm 0.00 in0.0 mm 0.00 in0.0 mm
06:19 AM 39.0°F3.9°C 35.8°F2.1°C 88% Calm Calm -- 30.41 in1029.8 mb 0.00 in0.0 mm 0.00 in0.0 mm 0.00 in0.0 mm
06:20 AM 39.0°F3.9°C 35.8°F2.1°C 88% Calm Calm 1.1 mph1.8 kmh 30.41 in1029.8 mb 0.00 in0.0 mm 0.00 in0.0 mm 0.00 in0.0 mm
06:21 AM 39.0°F3.9°C 35.8°F2.1°C 88% 1.1 mph ESE1.8 kmh ESE 1.7 mph2.7 kmh 30.41 in1029.8 mb 0.00 in0.0 mm 0.00 in0.0 mm 0.00 in0.0 mm
06:22 AM 39.0°F3.9°C 35.8°F2.1°C 88% 1.7 mph NE2.7 kmh NE 1.7 mph2.7 kmh 30.41 in1029.8 mb 0.00 in0.0 mm 0.00 in0.0 mm 0.00 in0.0 mm
06:23 AM 39.0°F3.9°C 35.8°F2.1°C 88% Calm Calm 1.7 mph2.7 kmh 30.41 in1029.8 mb 0.00 in0.0 mm 0.00 in0.0 mm 0.00 in0.0 mm
06:24 AM 39.0°F3.9°C 35.8°F2.1°C 88% Calm Calm 1.7 mph2.7 kmh 30.41 in1029.8 mb 0.00 in0.0 mm 0.00 in0.0 mm 0.00 in0.0 mm
06:25 AM 39.0°F3.9°C 35.8°F2.1°C 88% Calm Calm 1.7 mph2.7 kmh 30.41 in1029.8 mb 0.00 in0.0 mm 0.00 in0.0 mm 0.00 in0.0 mm
06:26 AM 39.0°F3.9°C 35.8°F2.1°C 88% Calm Calm 1.7 mph2.7 kmh 30.41 in1029.8 mb 0.00 in0.0 mm 0.00 in0.0 mm 0.00 in0.0 mm
06:27 AM 39.0°F3.9°C 35.8°F2.1°C 88% Calm Calm 1.7 mph2.7 kmh 30.41 in1029.8 mb 0.00 in0.0 mm 0.00 in0.0 mm 0.00 in0.0 mm
06:28 AM 39.0°F3.9°C 35.8°F2.1°C 88% Calm Calm 1.7 mph2.7 kmh 30.41 in1029.8 mb 0.00 in0.0 mm 0.00 in0.0 mm 0.00 in0.0 mm
06:29 AM 39.0°F3.9°C 35.8°F2.1°C 88% Calm Calm 1.7 mph2.7 kmh 30.41 in1029.8 mb 0.00 in0.0 mm 0.00 in0.0 mm 0.00 in0.0 mm
06:30 AM 39.0°F3.9°C 35.8°F2.1°C 88% Calm Calm 1.7 mph2.7 kmh 30.41 in1029.8 mb 0.00 in0.0 mm 0.00 in0.0 mm 0.00 in0.0 mm
06:31 AM 39.0°F3.9°C 35.8°F2.1°C 88% Calm Calm 1.7 mph2.7 kmh 30.41 in1029.8 mb 0.00 in0.0 mm 0.00 in0.0 mm 0.00 in0.0 mm
06:32 AM 39.0°F3.9°C 35.8°F2.1°C 88% Calm Calm 1.7 mph2.7 kmh 30.41 in1029.8 mb 0.00 in0.0 mm 0.00 in0.0 mm 0.00 in0.0 mm
06:33 AM 39.0°F3.9°C 35.8°F2.1°C 88% Calm Calm -- 30.41 in1029.8 mb 0.00 in0.0 mm 0.00 in0.0 mm 0.00 in0.0 mm
06:34 AM 39.0°F3.9°C 35.8°F2.1°C 88% Calm Calm -- 30.41 in1029.8 mb 0.00 in0.0 mm 0.00 in0.0 mm 0.00 in0.0 mm
06:35 AM 39.0°F3.9°C 35.8°F2.1°C 88% Calm Calm -- 30.41 in1029.8 mb 0.00 in0.0 mm 0.00 in0.0 mm 0.00 in0.0 mm
06:36 AM 39.0°F3.9°C 35.8°F2.1°C 88% Calm Calm -- 30.41 in1029.8 mb 0.00 in0.0 mm 0.00 in0.0 mm 0.00 in0.0 mm
06:37 AM 39.0°F3.9°C 35.8°F2.1°C 88% 1.1 mph ESE1.8 kmh ESE 1.1 mph1.8 kmh 30.41 in1029.8 mb 0.00 in0.0 mm 0.00 in0.0 mm 0.00 in0.0 mm
06:38 AM 39.0°F3.9°C 35.8°F2.1°C 88% Calm Calm 1.1 mph1.8 kmh 30.41 in1029.8 mb 0.00 in0.0 mm 0.00 in0.0 mm 0.00 in0.0 mm
06:39 AM 39.0°F3.9°C 35.8°F2.1°C 88% Calm Calm 1.1 mph1.8 kmh 30.41 in1029.8 mb 0.00 in0.0 mm 0.00 in0.0 mm 0.00 in0.0 mm
06:40 AM 39.0°F3.9°C 35.8°F2.1°C 88% Calm Calm 1.1 mph1.8 kmh 30.41 in1029.8 mb 0.00 in0.0 mm 0.00 in0.0 mm 0.00 in0.0 mm
06:41 AM 39.0°F3.9°C 35.8°F2.1°C 88% Calm Calm 1.1 mph1.8 kmh 30.41 in1029.8 mb 0.00 in0.0 mm 0.00 in0.0 mm 0.00 in0.0 mm
06:42 AM 39.0°F3.9°C 35.8°F2.1°C 88% Calm Calm 1.1 mph1.8 kmh 30.41 in1029.8 mb 0.00 in0.0 mm 0.00 in0.0 mm 0.00 in0.0 mm
06:43 AM 39.0°F3.9°C 35.8°F2.1°C 88% Calm Calm 1.1 mph1.8 kmh 30.42 in1030.1 mb 0.00 in0.0 mm 0.00 in0.0 mm 0.00 in0.0 mm
06:44 AM 39.0°F3.9°C 35.8°F2.1°C 88% Calm Calm 1.1 mph1.8 kmh 30.42 in1030.1 mb 0.00 in0.0 mm 0.00 in0.0 mm 0.00 in0.0 mm
06:45 AM 39.0°F3.9°C 35.8°F2.1°C 88% 1.1 mph ESE1.8 kmh ESE 1.1 mph1.8 kmh 30.42 in1030.1 mb 0.00 in0.0 mm 0.00 in0.0 mm 0.00 in0.0 mm
06:46 AM 39.0°F3.9°C 35.8°F2.1°C 88% 1.1 mph ESE1.8 kmh ESE 1.1 mph1.8 kmh 30.42 in1030.1 mb 0.00 in0.0 mm 0.00 in0.0 mm 0.00 in0.0 mm
06:47 AM 39.0°F3.9°C 35.8°F2.1°C 88% Calm Calm 1.1 mph1.8 kmh 30.42 in1030.1 mb 0.00 in0.0 mm 0.00 in0.0 mm 0.00 in0.0 mm
06:48 AM 39.4°F4.1°C 36.1°F2.3°C 88% Calm Calm 1.1 mph1.8 kmh 30.42 in1030.1 mb 0.00 in0.0 mm 0.00 in0.0 mm 0.00 in0.0 mm
06:49 AM 39.6°F4.2°C 36.3°F2.4°C 88% Calm Calm 1.1 mph1.8 kmh 30.42 in1030.1 mb 0.00 in0.0 mm 0.00 in0.0 mm 0.00 in0.0 mm
06:50 AM 39.6°F4.2°C 36.3°F2.4°C 88% Calm Calm 1.1 mph1.8 kmh 30.42 in1030.1 mb 0.00 in0.0 mm 0.00 in0.0 mm 0.00 in0.0 mm
06:51 AM 39.4°F4.1°C 36.1°F2.3°C 88% Calm Calm 1.1 mph1.8 kmh 30.42 in1030.1 mb 0.00 in0.0 mm 0.00 in0.0 mm 0.00 in0.0 mm
06:52 AM 39.4°F4.1°C 36.1°F2.3°C 88% 1.1 mph NE1.8 kmh NE 1.1 mph1.8 kmh 30.42 in1030.1 mb 0.00 in0.0 mm 0.00 in0.0 mm 0.00 in0.0 mm
06:53 AM 39.4°F4.1°C 36.1°F2.3°C 88% 1.1 mph NNE1.8 kmh NNE 1.1 mph1.8 kmh 30.42 in1030.1 mb 0.00 in0.0 mm 0.00 in0.0 mm 0.00 in0.0 mm
06:54 AM 39.4°F4.1°C 36.1°F2.3°C 88% 1.7 mph ENE2.7 kmh ENE 1.7 mph2.7 kmh 30.42 in1030.1 mb 0.00 in0.0 mm 0.00 in0.0 mm 0.00 in0.0 mm
06:55 AM 39.4°F4.1°C 36.1°F2.3°C 88% 1.1 mph ESE1.8 kmh ESE 1.7 mph2.7 kmh 30.42 in1030.1 mb 0.00 in0.0 mm 0.00 in0.0 mm 0.00 in0.0 mm
06:56 AM 39.6°F4.2°C 36.3°F2.4°C 88% 1.1 mph NNE1.8 kmh NNE 1.7 mph2.7 kmh 30.42 in1030.1 mb 0.00 in0.0 mm 0.00 in0.0 mm 0.00 in0.0 mm
06:57 AM 39.6°F4.2°C 36.3°F2.4°C 88% Calm Calm 1.7 mph2.7 kmh 30.42 in1030.1 mb 0.00 in0.0 mm 0.00 in0.0 mm 0.00 in0.0 mm
06:58 AM 39.7°F4.3°C 36.5°F2.5°C 88% 1.7 mph ESE2.7 kmh ESE 1.7 mph2.7 kmh 30.42 in1030.1 mb 0.00 in0.0 mm 0.00 in0.0 mm 0.00 in0.0 mm
06:59 AM 40.1°F4.5°C 36.8°F2.7°C 88% 1.1 mph SSW1.8 kmh SSW 1.7 mph2.7 kmh 30.42 in1030.1 mb 0.00 in0.0 mm 0.00 in0.0 mm 0.00 in0.0 mm
07:00 AM 40.1°F4.5°C 36.8°F2.7°C 88% Calm Calm 1.7 mph2.7 kmh 30.42 in1030.1 mb 0.00 in0.0 mm 0.00 in0.0 mm 0.00 in0.0 mm
07:01 AM 40.1°F4.5°C 36.8°F2.7°C 88% 1.1 mph E1.8 kmh E 1.7 mph2.7 kmh 30.42 in1030.1 mb 0.00 in0.0 mm 0.00 in0.0 mm 0.00 in0.0 mm
07:02 AM 40.3°F4.6°C 37.0°F2.8°C 88% Calm Calm 1.7 mph2.7 kmh 30.42 in1030.1 mb 0.00 in0.0 mm 0.00 in0.0 mm 0.00 in0.0 mm
07:03 AM 40.3°F4.6°C 36.7°F2.6°C 87% 1.1 mph ESE1.8 kmh ESE 2.2 mph3.5 kmh 30.42 in1030.1 mb 0.00 in0.0 mm 0.00 in0.0 mm 0.00 in0.0 mm
07:04 AM 40.5°F4.7°C 36.9°F2.7°C 87% 1.1 mph ESE1.8 kmh ESE 2.2 mph3.5 kmh 30.42 in1030.1 mb 0.00 in0.0 mm 0.00 in0.0 mm 0.00 in0.0 mm
07:05 AM 40.6°F4.8°C 37.1°F2.8°C 87% 1.7 mph ESE2.7 kmh ESE 2.2 mph3.5 kmh 30.42 in1030.1 mb 0.00 in0.0 mm 0.00 in0.0 mm 0.00 in0.0 mm
07:06 AM 40.6°F4.8°C 37.1°F2.8°C 87% Calm Calm 2.2 mph3.5 kmh 30.42 in1030.1 mb 0.00 in0.0 mm 0.00 in0.0 mm 0.00 in0.0 mm
07:07 AM 40.8°F4.9°C 37.3°F2.9°C 87% 1.1 mph E1.8 kmh E 2.2 mph3.5 kmh 30.42 in1030.1 mb 0.00 in0.0 mm 0.00 in0.0 mm 0.00 in0.0 mm
07:08 AM 41.0°F5.0°C 37.1°F2.8°C 86% 1.1 mph NNE1.8 kmh NNE 2.2 mph3.5 kmh 30.42 in1030.1 mb 0.00 in0.0 mm 0.00 in0.0 mm 0.00 in0.0 mm
07:09 AM 41.2°F5.1°C 37.3°F2.9°C 86% 1.7 mph ESE2.7 kmh ESE 2.2 mph3.5 kmh 30.42 in1030.1 mb 0.00 in0.0 mm 0.00 in0.0 mm 0.00 in0.0 mm
07:10 AM 41.2°F5.1°C 37.3°F2.9°C 86% 1.1 mph ESE1.8 kmh ESE 2.2 mph3.5 kmh 30.42 in1030.1 mb 0.00 in0.0 mm 0.00 in0.0 mm 0.00 in0.0 mm
07:11 AM 41.4°F5.2°C 37.5°F3.1°C 86% 1.7 mph ESE2.7 kmh ESE 2.2 mph3.5 kmh 30.42 in1030.1 mb 0.00 in0.0 mm 0.00 in0.0 mm 0.00 in0.0 mm
07:12 AM 41.5°F5.3°C 37.7°F3.2°C 86% 1.1 mph ESE1.8 kmh ESE 2.2 mph3.5 kmh 30.42 in1030.1 mb 0.00 in0.0 mm 0.00 in0.0 mm 0.00 in0.0 mm
07:13 AM 41.7°F5.4°C 37.8°F3.2°C 86% 1.7 mph ESE2.7 kmh ESE 2.2 mph3.5 kmh 30.42 in1030.1 mb 0.00 in0.0 mm 0.00 in0.0 mm 0.00 in0.0 mm
07:14 AM 41.9°F5.5°C 37.7°F3.2°C 85% 1.1 mph NNE1.8 kmh NNE 2.2 mph3.5 kmh 30.42 in1030.1 mb 0.00 in0.0 mm 0.00 in0.0 mm 0.00 in0.0 mm
07:15 AM 41.9°F5.5°C 37.7°F3.2°C 85% 1.1 mph E1.8 kmh E 2.2 mph3.5 kmh 30.42 in1030.1 mb 0.00 in0.0 mm 0.00 in0.0 mm 0.00 in0.0 mm
07:16 AM 42.1°F5.6°C 37.9°F3.3°C 85% 1.7 mph E2.7 kmh E 2.2 mph3.5 kmh 30.42 in1030.1 mb 0.00 in0.0 mm 0.00 in0.0 mm 0.00 in0.0 mm
07:17 AM 42.1°F5.6°C 37.9°F3.3°C 85% 2.2 mph E3.5 kmh E 2.2 mph3.5 kmh 30.42 in1030.1 mb 0.00 in0.0 mm 0.00 in0.0 mm 0.00 in0.0 mm
07:18 AM 42.3°F5.7°C 38.1°F3.4°C 85% 1.7 mph ESE2.7 kmh ESE 2.2 mph3.5 kmh 30.42 in1030.1 mb 0.00 in0.0 mm 0.00 in0.0 mm 0.00 in0.0 mm
07:19 AM 42.4°F5.8°C 38.0°F3.3°C 84% Calm Calm 2.2 mph3.5 kmh 30.42 in1030.1 mb 0.00 in0.0 mm 0.00 in0.0 mm 0.00 in0.0 mm
07:20 AM 42.6°F5.9°C 38.1°F3.4°C 84% 2.2 mph ESE3.5 kmh ESE 2.2 mph3.5 kmh 30.42 in1030.1 mb 0.00 in0.0 mm 0.00 in0.0 mm 0.00 in0.0 mm
07:21 AM 42.8°F6.0°C 38.3°F3.5°C 84% 1.7 mph ESE2.7 kmh ESE 2.2 mph3.5 kmh 30.42 in1030.1 mb 0.00 in0.0 mm 0.00 in0.0 mm 0.00 in0.0 mm
07:22 AM 43.0°F6.1°C 38.5°F3.6°C 84% Calm Calm 2.2 mph3.5 kmh 30.42 in1030.1 mb 0.00 in0.0 mm 0.00 in0.0 mm 0.00 in0.0 mm
07:23 AM 43.2°F6.2°C 38.7°F3.7°C 84% 1.7 mph ESE2.7 kmh ESE 2.2 mph3.5 kmh 30.42 in1030.1 mb 0.00 in0.0 mm 0.00 in0.0 mm 0.00 in0.0 mm
07:24 AM 43.5°F6.4°C 39.0°F3.9°C 84% 1.7 mph ESE2.7 kmh ESE 2.2 mph3.5 kmh 30.42 in1030.1 mb 0.00 in0.0 mm 0.00 in0.0 mm 0.00 in0.0 mm
07:25 AM 43.7°F6.5°C 39.2°F4.0°C 84% 1.7 mph ENE2.7 kmh ENE 2.2 mph3.5 kmh 30.42 in1030.1 mb 0.00 in0.0 mm 0.00 in0.0 mm 0.00 in0.0 mm
07:26 AM 43.9°F6.6°C 39.1°F3.9°C 83% 1.1 mph NNE1.8 kmh NNE 2.7 mph4.3 kmh 30.42 in1030.1 mb 0.00 in0.0 mm 0.00 in0.0 mm 0.00 in0.0 mm
07:27 AM 44.1°F6.7°C 39.2°F4.0°C 83% Calm Calm 2.7 mph4.3 kmh 30.42 in1030.1 mb 0.00 in0.0 mm 0.00 in0.0 mm 0.00 in0.0 mm
07:28 AM 44.4°F6.9°C 39.3°F4.1°C 82% 2.2 mph NNE3.5 kmh NNE 2.7 mph4.3 kmh 30.42 in1030.1 mb 0.00 in0.0 mm 0.00 in0.0 mm 0.00 in0.0 mm
07:29 AM 44.8°F7.1°C 39.3°F4.1°C 81% 2.7 mph ESE4.3 kmh ESE 2.7 mph4.3 kmh 30.42 in1030.1 mb 0.00 in0.0 mm 0.00 in0.0 mm 0.00 in0.0 mm
07:30 AM 45.0°F7.2°C 39.5°F4.2°C 81% 3.2 mph E5.1 kmh E 3.2 mph5.1 kmh 30.42 in1030.1 mb 0.00 in0.0 mm 0.00 in0.0 mm 0.00 in0.0 mm
07:31 AM 45.3°F7.4°C 39.8°F4.3°C 81% 1.1 mph ESE1.8 kmh ESE 3.2 mph5.1 kmh 30.42 in1030.1 mb 0.00 in0.0 mm 0.00 in0.0 mm 0.00 in0.0 mm
07:32 AM 45.5°F7.5°C 39.7°F4.3°C 80% 2.7 mph ESE4.3 kmh ESE 3.2 mph5.1 kmh 30.42 in1030.1 mb 0.00 in0.0 mm 0.00 in0.0 mm 0.00 in0.0 mm
07:33 AM 45.9°F7.7°C 40.0°F4.4°C 80% 1.1 mph ESE1.8 kmh ESE 3.2 mph5.1 kmh 30.42 in1030.1 mb 0.00 in0.0 mm 0.00 in0.0 mm 0.00 in0.0 mm
07:34 AM 46.0°F7.8°C 40.2°F4.6°C 80% 1.1 mph NNE1.8 kmh NNE 3.2 mph5.1 kmh 30.42 in1030.1 mb 0.00 in0.0 mm 0.00 in0.0 mm 0.00 in0.0 mm
07:35 AM 46.0°F7.8°C 40.2°F4.6°C 80% 1.7 mph ESE2.7 kmh ESE 3.2 mph5.1 kmh 30.42 in1030.1 mb 0.00 in0.0 mm 0.00 in0.0 mm 0.00 in0.0 mm
07:36 AM 46.2°F7.9°C 40.1°F4.5°C 79% 2.7 mph ESE4.3 kmh ESE 3.2 mph5.1 kmh 30.42 in1030.1 mb 0.00 in0.0 mm 0.00 in0.0 mm 0.00 in0.0 mm
07:37 AM 46.2°F7.9°C 40.1°F4.5°C 79% 1.1 mph ENE1.8 kmh ENE 3.2 mph5.1 kmh 30.42 in1030.1 mb 0.00 in0.0 mm 0.00 in0.0 mm 0.00 in0.0 mm
07:38 AM 46.2°F7.9°C 40.1°F4.5°C 79% 2.7 mph ESE4.3 kmh ESE 3.2 mph5.1 kmh 30.42 in1030.1 mb 0.00 in0.0 mm 0.00 in0.0 mm 0.00 in0.0 mm
07:39 AM 46.6°F8.1°C 40.4°F4.7°C 79% 2.7 mph ESE4.3 kmh ESE 3.2 mph5.1 kmh 30.42 in1030.1 mb 0.00 in0.0 mm 0.00 in0.0 mm 0.00 in0.0 mm
07:40 AM 46.8°F8.2°C 40.6°F4.8°C 79% 2.2 mph NNE3.5 kmh NNE 3.2 mph5.1 kmh 30.42 in1030.1 mb 0.00 in0.0 mm 0.00 in0.0 mm 0.00 in0.0 mm
07:41 AM 46.9°F8.3°C 40.4°F4.7°C 78% 1.7 mph ESE2.7 kmh ESE 3.2 mph5.1 kmh 30.42 in1030.1 mb 0.00 in0.0 mm 0.00 in0.0 mm 0.00 in0.0 mm
07:42 AM 46.9°F8.3°C 40.4°F4.7°C 78% 1.7 mph NE2.7 kmh NE 3.2 mph5.1 kmh 30.42 in1030.1 mb 0.00 in0.0 mm 0.00 in0.0 mm 0.00 in0.0 mm
07:43 AM 47.1°F8.4°C 40.3°F4.6°C 77% Calm Calm 3.2 mph5.1 kmh 30.42 in1030.1 mb 0.00 in0.0 mm 0.00 in0.0 mm 0.00 in0.0 mm
07:44 AM 47.1°F8.4°C 40.0°F4.4°C 76% 1.7 mph N2.7 kmh N 2.7 mph4.3 kmh 30.42 in1030.1 mb 0.00 in0.0 mm 0.00 in0.0 mm 0.00 in0.0 mm
07:45 AM 47.1°F8.4°C 40.0°F4.4°C 76% 1.7 mph ESE2.7 kmh ESE 2.7 mph4.3 kmh 30.42 in1030.1 mb 0.00 in0.0 mm 0.00 in0.0 mm 0.00 in0.0 mm
07:46 AM 47.1°F8.4°C 40.0°F4.4°C 76% 1.7 mph ESE2.7 kmh ESE 3.2 mph5.1 kmh 30.42 in1030.1 mb 0.00 in0.0 mm 0.00 in0.0 mm 0.00 in0.0 mm
07:47 AM 47.1°F8.4°C 40.0°F4.4°C 76% 2.7 mph ENE4.3 kmh ENE 3.2 mph5.1 kmh 30.42 in1030.1 mb 0.00 in0.0 mm 0.00 in0.0 mm 0.00 in0.0 mm
07:48 AM 47.1°F8.4°C 40.0°F4.4°C 76% 2.2 mph ESE3.5 kmh ESE 3.2 mph5.1 kmh 30.42 in1030.1 mb 0.00 in0.0 mm 0.00 in0.0 mm 0.00 in0.0 mm
07:49 AM 47.1°F8.4°C 40.0°F4.4°C 76% 2.2 mph ESE3.5 kmh ESE 3.2 mph5.1 kmh 30.42 in1030.1 mb 0.00 in0.0 mm 0.00 in0.0 mm 0.00 in0.0 mm
07:50 AM 47.5°F8.6°C 40.3°F4.6°C 76% 1.7 mph ENE2.7 kmh ENE 3.2 mph5.1 kmh 30.42 in1030.1 mb 0.00 in0.0 mm 0.00 in0.0 mm 0.00 in0.0 mm
07:51 AM 47.3°F8.5°C 39.8°F4.3°C 75% 1.7 mph NNE2.7 kmh NNE 3.2 mph5.1 kmh 30.42 in1030.1 mb 0.00 in0.0 mm 0.00 in0.0 mm 0.00 in0.0 mm
07:52 AM 47.3°F8.5°C 39.8°F4.3°C 75% 1.1 mph E1.8 kmh E 3.2 mph5.1 kmh 30.42 in1030.1 mb 0.00 in0.0 mm 0.00 in0.0 mm 0.00 in0.0 mm
07:53 AM 47.5°F8.6°C 40.0°F4.4°C 75% Calm Calm 3.2 mph5.1 kmh 30.42 in1030.1 mb 0.00 in0.0 mm 0.00 in0.0 mm 0.00 in0.0 mm
07:54 AM 47.5°F8.6°C 40.0°F4.4°C 75% 2.2 mph ENE3.5 kmh ENE 3.2 mph5.1 kmh 30.42 in1030.1 mb 0.00 in0.0 mm 0.00 in0.0 mm 0.00 in0.0 mm
07:55 AM 47.5°F8.6°C 40.0°F4.4°C 75% 1.1 mph N1.8 kmh N 3.2 mph5.1 kmh 30.42 in1030.1 mb 0.00 in0.0 mm 0.00 in0.0 mm 0.00 in0.0 mm
07:56 AM 47.7°F8.7°C 40.1°F4.5°C 75% 1.7 mph ESE2.7 kmh ESE 3.2 mph5.1 kmh 30.42 in1030.1 mb 0.00 in0.0 mm 0.00 in0.0 mm 0.00 in0.0 mm
07:57 AM 47.8°F8.8°C 40.3°F4.6°C 75% 5.8 mph ENE9.3 kmh ENE 5.8 mph9.3 kmh 30.42 in1030.1 mb 0.00 in0.0 mm 0.00 in0.0 mm 0.00 in0.0 mm
07:58 AM 48.0°F8.9°C 40.1°F4.5°C 74% 2.2 mph NE3.5 kmh NE 5.8 mph9.3 kmh 30.42 in1030.1 mb 0.00 in0.0 mm 0.00 in0.0 mm 0.00 in0.0 mm
07:59 AM 48.4°F9.1°C 40.1°F4.5°C 73% 1.7 mph E2.7 kmh E 5.8 mph9.3 kmh 30.42 in1030.1 mb 0.00 in0.0 mm 0.00 in0.0 mm 0.00 in0.0 mm
08:00 AM 48.6°F9.2°C 40.3°F4.6°C 73% 3.7 mph ESE6.0 kmh ESE 5.8 mph9.3 kmh 30.42 in1030.1 mb 0.00 in0.0 mm 0.00 in0.0 mm 0.00 in0.0 mm
08:01 AM 48.6°F9.2°C 39.6°F4.2°C 71% 3.2 mph ESE5.1 kmh ESE 5.8 mph9.3 kmh 30.42 in1030.1 mb 0.00 in0.0 mm 0.00 in0.0 mm 0.00 in0.0 mm
08:02 AM 48.7°F9.3°C 39.8°F4.3°C 71% 1.7 mph NE2.7 kmh NE 5.8 mph9.3 kmh 30.42 in1030.1 mb 0.00 in0.0 mm 0.00 in0.0 mm 0.00 in0.0 mm
08:03 AM 49.1°F9.5°C 40.1°F4.5°C 71% 1.7 mph E2.7 kmh E 5.8 mph9.3 kmh 30.42 in1030.1 mb 0.00 in0.0 mm 0.00 in0.0 mm 0.00 in0.0 mm
08:04 AM 49.3°F9.6°C 40.3°F4.6°C 71% 2.2 mph ESE3.5 kmh ESE 5.8 mph9.3 kmh 30.42 in1030.1 mb 0.00 in0.0 mm 0.00 in0.0 mm 0.00 in0.0 mm
08:05 AM 49.6°F9.8°C 40.3°F4.6°C 70% 2.2 mph ESE3.5 kmh ESE 5.8 mph9.3 kmh 30.42 in1030.1 mb 0.00 in0.0 mm 0.00 in0.0 mm 0.00 in0.0 mm
08:06 AM 49.3°F9.6°C 39.9°F4.4°C 70% 4.2 mph ESE6.8 kmh ESE 5.8 mph9.3 kmh 30.42 in1030.1 mb 0.00 in0.0 mm 0.00 in0.0 mm 0.00 in0.0 mm
08:07 AM 49.3°F9.6°C 39.9°F4.4°C 70% 2.7 mph NE4.3 kmh NE 5.8 mph9.3 kmh 30.42 in1030.1 mb 0.00 in0.0 mm 0.00 in0.0 mm 0.00 in0.0 mm
08:08 AM 49.3°F9.6°C 40.3°F4.6°C 71% 2.2 mph ESE3.5 kmh ESE 4.2 mph6.8 kmh 30.42 in1030.1 mb 0.00 in0.0 mm 0.00 in0.0 mm 0.00 in0.0 mm
08:09 AM 49.3°F9.6°C 40.3°F4.6°C 71% 2.2 mph ESE3.5 kmh ESE 4.2 mph6.8 kmh 30.42 in1030.1 mb 0.00 in0.0 mm 0.00 in0.0 mm 0.00 in0.0 mm
08:10 AM 49.3°F9.6°C 40.3°F4.6°C 71% 2.7 mph E4.3 kmh E 4.2 mph6.8 kmh 30.42 in1030.1 mb 0.00 in0.0 mm 0.00 in0.0 mm 0.00 in0.0 mm
08:11 AM 49.3°F9.6°C 40.3°F4.6°C 71% 2.2 mph NNE3.5 kmh NNE 4.2 mph6.8 kmh 30.42 in1030.1 mb 0.00 in0.0 mm 0.00 in0.0 mm 0.00 in0.0 mm
08:12 AM 49.3°F9.6°C 40.3°F4.6°C 71% 2.2 mph ESE3.5 kmh ESE 4.2 mph6.8 kmh 30.42 in1030.1 mb 0.00 in0.0 mm 0.00 in0.0 mm 0.00 in0.0 mm
08:13 AM 49.1°F9.5°C 39.7°F4.3°C 70% 3.2 mph ESE5.1 kmh ESE 4.2 mph6.8 kmh 30.42 in1030.1 mb 0.00 in0.0 mm 0.00 in0.0 mm 0.00 in0.0 mm
08:14 AM 49.1°F9.5°C 39.7°F4.3°C 70% 3.2 mph ESE5.1 kmh ESE 4.2 mph6.8 kmh 30.42 in1030.1 mb 0.00 in0.0 mm 0.00 in0.0 mm 0.00 in0.0 mm
08:15 AM 49.3°F9.6°C 40.3°F4.6°C 71% 3.2 mph N5.1 kmh N 4.2 mph6.8 kmh 30.42 in1030.1 mb 0.00 in0.0 mm 0.00 in0.0 mm 0.00 in0.0 mm
08:16 AM 49.3°F9.6°C 39.9°F4.4°C 70% 2.2 mph ESE3.5 kmh ESE 4.7 mph7.6 kmh 30.42 in1030.1 mb 0.00 in0.0 mm 0.00 in0.0 mm 0.00 in0.0 mm
08:17 AM 49.3°F9.6°C 39.9°F4.4°C 70% 1.7 mph N2.7 kmh N 4.7 mph7.6 kmh 30.42 in1030.1 mb 0.00 in0.0 mm 0.00 in0.0 mm 0.00 in0.0 mm
08:18 AM 49.3°F9.6°C 39.9°F4.4°C 70% 2.2 mph ESE3.5 kmh ESE 4.7 mph7.6 kmh 30.42 in1030.1 mb 0.00 in0.0 mm 0.00 in0.0 mm 0.00 in0.0 mm
08:19 AM 49.5°F9.7°C 39.7°F4.3°C 69% 2.2 mph E3.5 kmh E 4.7 mph7.6 kmh 30.42 in1030.1 mb 0.00 in0.0 mm 0.00 in0.0 mm 0.00 in0.0 mm
08:20 AM 49.8°F9.9°C 40.1°F4.5°C 69% 2.7 mph ESE4.3 kmh ESE 4.7 mph7.6 kmh 30.42 in1030.1 mb 0.00 in0.0 mm 0.00 in0.0 mm 0.00 in0.0 mm
08:21 AM 49.8°F9.9°C 39.7°F4.3°C 68% 2.2 mph ESE3.5 kmh ESE 4.7 mph7.6 kmh 30.42 in1030.1 mb 0.00 in0.0 mm 0.00 in0.0 mm 0.00 in0.0 mm
08:22 AM 49.8°F9.9°C 39.7°F4.3°C 68% 1.1 mph ESE1.8 kmh ESE 4.7 mph7.6 kmh 30.42 in1030.1 mb 0.00 in0.0 mm 0.00 in0.0 mm 0.00 in0.0 mm
08:23 AM 49.8°F9.9°C 39.7°F4.3°C 68% 2.7 mph E4.3 kmh E 4.7 mph7.6 kmh 30.42 in1030.1 mb 0.00 in0.0 mm 0.00 in0.0 mm 0.00 in0.0 mm
08:24 AM 49.8°F9.9°C 39.7°F4.3°C 68% Calm Calm 4.7 mph7.6 kmh 30.42 in1030.1 mb 0.00 in0.0 mm 0.00 in0.0 mm 0.00 in0.0 mm
08:25 AM 49.8°F9.9°C 39.3°F4.1°C 67% 1.7 mph NNE2.7 kmh NNE 4.7 mph7.6 kmh 30.42 in1030.1 mb 0.00 in0.0 mm 0.00 in0.0 mm 0.00 in0.0 mm
08:26 AM 49.8°F9.9°C 39.3°F4.1°C 67% 3.7 mph SSW6.0 kmh SSW 3.7 mph6.0 kmh 30.42 in1030.1 mb 0.00 in0.0 mm 0.00 in0.0 mm 0.00 in0.0 mm
08:27 AM 50.0°F10.0°C 39.5°F4.2°C 67% 2.2 mph ESE3.5 kmh ESE 3.7 mph6.0 kmh 30.42 in1030.1 mb 0.00 in0.0 mm 0.00 in0.0 mm 0.00 in0.0 mm
08:28 AM 50.2°F10.1°C 39.7°F4.3°C 67% 2.7 mph ESE4.3 kmh ESE 3.7 mph6.0 kmh 30.42 in1030.1 mb 0.00 in0.0 mm 0.00 in0.0 mm 0.00 in0.0 mm
08:29 AM 50.4°F10.2°C 40.2°F4.6°C 68% 1.7 mph ESE2.7 kmh ESE 3.7 mph6.0 kmh 30.42 in1030.1 mb 0.00 in0.0 mm 0.00 in0.0 mm 0.00 in0.0 mm
08:30 AM 50.4°F10.2°C 40.2°F4.6°C 68% 2.7 mph ESE4.3 kmh ESE 3.7 mph6.0 kmh 30.42 in1030.1 mb 0.00 in0.0 mm 0.00 in0.0 mm 0.00 in0.0 mm
08:31 AM 50.7°F10.4°C 40.2°F4.6°C 67% 3.7 mph ESE6.0 kmh ESE 3.7 mph6.0 kmh 30.42 in1030.1 mb 0.00 in0.0 mm 0.00 in0.0 mm 0.00 in0.0 mm
08:32 AM 50.5°F10.3°C 40.0°F4.4°C 67% 2.2 mph ESE3.5 kmh ESE 4.2 mph6.8 kmh 30.42 in1030.1 mb 0.00 in0.0 mm 0.00 in0.0 mm 0.00 in0.0 mm
08:33 AM 50.7°F10.4°C 40.2°F4.6°C 67% 3.2 mph ESE5.1 kmh ESE 4.2 mph6.8 kmh 30.42 in1030.1 mb 0.00 in0.0 mm 0.00 in0.0 mm 0.00 in0.0 mm
08:34 AM 50.9°F10.5°C 40.0°F4.4°C 66% 2.7 mph SE4.3 kmh SE 4.2 mph6.8 kmh 30.42 in1030.1 mb 0.00 in0.0 mm 0.00 in0.0 mm 0.00 in0.0 mm
08:35 AM 51.1°F10.6°C 40.1°F4.5°C 66% 2.7 mph ESE4.3 kmh ESE 4.7 mph7.6 kmh 30.42 in1030.1 mb 0.00 in0.0 mm 0.00 in0.0 mm 0.00 in0.0 mm
08:36 AM 51.1°F10.6°C 39.7°F4.3°C 65% 3.7 mph ESE6.0 kmh ESE 4.7 mph7.6 kmh 30.42 in1030.1 mb 0.00 in0.0 mm 0.00 in0.0 mm 0.00 in0.0 mm
08:37 AM 51.3°F10.7°C 39.9°F4.4°C 65% 3.7 mph ESE6.0 kmh ESE 4.7 mph7.6 kmh 30.42 in1030.1 mb 0.00 in0.0 mm 0.00 in0.0 mm 0.00 in0.0 mm
08:38 AM 51.4°F10.8°C 40.1°F4.5°C 65% 2.2 mph ESE3.5 kmh ESE 4.7 mph7.6 kmh 30.42 in1030.1 mb 0.00 in0.0 mm 0.00 in0.0 mm 0.00 in0.0 mm
08:39 AM 51.6°F10.9°C 40.2°F4.6°C 65% 1.7 mph ESE2.7 kmh ESE 4.7 mph7.6 kmh 30.42 in1030.1 mb 0.00 in0.0 mm 0.00 in0.0 mm 0.00 in0.0 mm
08:40 AM 51.4°F10.8°C 39.7°F4.3°C 64% 2.2 mph E3.5 kmh E 4.7 mph7.6 kmh 30.42 in1030.1 mb 0.00 in0.0 mm 0.00 in0.0 mm 0.00 in0.0 mm
08:41 AM 51.3°F10.7°C 39.5°F4.2°C 64% 2.2 mph ESE3.5 kmh ESE 4.7 mph7.6 kmh 30.42 in1030.1 mb 0.00 in0.0 mm 0.00 in0.0 mm 0.00 in0.0 mm
08:42 AM 51.1°F10.6°C 39.7°F4.3°C 65% 3.2 mph ESE5.1 kmh ESE 4.7 mph7.6 kmh 30.43 in1030.5 mb 0.00 in0.0 mm 0.00 in0.0 mm 0.00 in0.0 mm
08:43 AM 51.1°F10.6°C 39.7°F4.3°C 65% 3.2 mph ESE5.1 kmh ESE 4.7 mph7.6 kmh 30.43 in1030.5 mb 0.00 in0.0 mm 0.00 in0.0 mm 0.00 in0.0 mm
08:44 AM 51.3°F10.7°C 39.9°F4.4°C 65% 1.7 mph ESE2.7 kmh ESE 4.7 mph7.6 kmh 30.43 in1030.5 mb 0.00 in0.0 mm 0.00 in0.0 mm 0.00 in0.0 mm
08:45 AM 51.8°F11.0°C 40.4°F4.7°C 65% 3.2 mph ESE5.1 kmh ESE 4.2 mph6.8 kmh 30.43 in1030.5 mb 0.00 in0.0 mm 0.00 in0.0 mm 0.00 in0.0 mm
08:46 AM 51.6°F10.9°C 40.2°F4.6°C 65% 2.2 mph ESE3.5 kmh ESE 4.2 mph6.8 kmh 30.43 in1030.5 mb 0.00 in0.0 mm 0.00 in0.0 mm 0.00 in0.0 mm
08:47 AM 52.0°F11.1°C 40.6°F4.8°C 65% 2.2 mph ESE3.5 kmh ESE 4.2 mph6.8 kmh 30.43 in1030.5 mb 0.00 in0.0 mm 0.00 in0.0 mm 0.00 in0.0 mm
08:48 AM 52.0°F11.1°C 40.2°F4.6°C 64% 3.7 mph NE6.0 kmh NE 4.7 mph7.6 kmh 30.43 in1030.5 mb 0.00 in0.0 mm 0.00 in0.0 mm 0.00 in0.0 mm
08:49 AM 51.8°F11.0°C 40.0°F4.4°C 64% 2.2 mph ESE3.5 kmh ESE 4.7 mph7.6 kmh 30.43 in1030.5 mb 0.00 in0.0 mm 0.00 in0.0 mm 0.00 in0.0 mm
08:50 AM 52.0°F11.1°C 40.2°F4.6°C 64% 3.7 mph ESE6.0 kmh ESE 4.7 mph7.6 kmh 30.43 in1030.5 mb 0.00 in0.0 mm 0.00 in0.0 mm 0.00 in0.0 mm
08:51 AM 52.0°F11.1°C 40.2°F4.6°C 64% 2.2 mph N3.5 kmh N 4.7 mph7.6 kmh 30.43 in1030.5 mb 0.00 in0.0 mm 0.00 in0.0 mm 0.00 in0.0 mm
08:52 AM 52.5°F11.4°C 40.7°F4.8°C 64% 1.7 mph ESE2.7 kmh ESE 4.7 mph7.6 kmh 30.43 in1030.5 mb 0.00 in0.0 mm 0.00 in0.0 mm 0.00 in0.0 mm
08:53 AM 52.9°F11.6°C 41.0°F5.0°C 64% 1.7 mph ESE2.7 kmh ESE 4.7 mph7.6 kmh 30.43 in1030.5 mb 0.00 in0.0 mm 0.00 in0.0 mm 0.00 in0.0 mm
08:54 AM 53.2°F11.8°C 41.0°F5.0°C 63% 2.2 mph ESE3.5 kmh ESE 4.7 mph7.6 kmh 30.43 in1030.5 mb 0.00 in0.0 mm 0.00 in0.0 mm 0.00 in0.0 mm
08:55 AM 53.4°F11.9°C 40.7°F4.8°C 62% 2.7 mph ESE4.3 kmh ESE 4.7 mph7.6 kmh 30.43 in1030.5 mb 0.00 in0.0 mm 0.00 in0.0 mm 0.00 in0.0 mm
08:56 AM 53.2°F11.8°C 40.6°F4.8°C 62% 1.7 mph E2.7 kmh E 4.7 mph7.6 kmh 30.43 in1030.5 mb 0.00 in0.0 mm 0.00 in0.0 mm 0.00 in0.0 mm
08:57 AM 53.8°F12.1°C 41.5°F5.3°C 63% 2.7 mph ESE4.3 kmh ESE 4.7 mph7.6 kmh 30.43 in1030.5 mb 0.00 in0.0 mm 0.00 in0.0 mm 0.00 in0.0 mm
08:58 AM 54.1°F12.3°C 41.4°F5.2°C 62% 2.2 mph E3.5 kmh E 3.7 mph6.0 kmh 30.43 in1030.5 mb 0.00 in0.0 mm 0.00 in0.0 mm 0.00 in0.0 mm
08:59 AM 54.5°F12.5°C 42.2°F5.7°C 63% 4.2 mph E6.8 kmh E 4.2 mph6.8 kmh 30.43 in1030.5 mb 0.00 in0.0 mm 0.00 in0.0 mm 0.00 in0.0 mm
09:00 AM 54.1°F12.3°C 41.0°F5.0°C 61% 2.7 mph ESE4.3 kmh ESE 4.2 mph6.8 kmh 30.43 in1030.5 mb 0.00 in0.0 mm 0.00 in0.0 mm 0.00 in0.0 mm
09:01 AM 53.8°F12.1°C 41.1°F5.1°C 62% 2.2 mph ESE3.5 kmh ESE 4.2 mph6.8 kmh 30.43 in1030.5 mb 0.00 in0.0 mm 0.00 in0.0 mm 0.00 in0.0 mm
09:02 AM 53.6°F12.0°C 40.9°F4.9°C 62% 1.7 mph ESE2.7 kmh ESE 4.2 mph6.8 kmh 30.43 in1030.5 mb 0.00 in0.0 mm 0.00 in0.0 mm 0.00 in0.0 mm
09:03 AM 54.0°F12.2°C 40.8°F4.9°C 61% 4.2 mph ESE6.8 kmh ESE 4.7 mph7.6 kmh 30.43 in1030.5 mb 0.00 in0.0 mm 0.00 in0.0 mm 0.00 in0.0 mm
09:04 AM 54.0°F12.2°C 40.0°F4.4°C 59% 2.2 mph NE3.5 kmh NE 4.7 mph7.6 kmh 30.43 in1030.5 mb 0.00 in0.0 mm 0.00 in0.0 mm 0.00 in0.0 mm
09:05 AM 54.0°F12.2°C 40.4°F4.7°C 60% 4.2 mph ESE6.8 kmh ESE 4.7 mph7.6 kmh 30.43 in1030.5 mb 0.00 in0.0 mm 0.00 in0.0 mm 0.00 in0.0 mm
09:06 AM 54.0°F12.2°C 40.4°F4.7°C 60% 3.7 mph ESE6.0 kmh ESE 4.7 mph7.6 kmh 30.44 in1030.8 mb 0.00 in0.0 mm 0.00 in0.0 mm 0.00 in0.0 mm
09:07 AM 53.8°F12.1°C 40.2°F4.6°C 60% 2.7 mph E4.3 kmh E 4.7 mph7.6 kmh 30.44 in1030.8 mb 0.00 in0.0 mm 0.00 in0.0 mm 0.00 in0.0 mm
09:08 AM 53.8°F12.1°C 40.2°F4.6°C 60% 3.7 mph ESE6.0 kmh ESE 4.7 mph7.6 kmh 30.44 in1030.8 mb 0.00 in0.0 mm 0.00 in0.0 mm 0.00 in0.0 mm
09:09 AM 54.1°F12.3°C 40.6°F4.8°C 60% 4.2 mph ESE6.8 kmh ESE 4.7 mph7.6 kmh 30.44 in1030.8 mb 0.00 in0.0 mm 0.00 in0.0 mm 0.00 in0.0 mm
09:10 AM 54.0°F12.2°C 40.4°F4.7°C 60% 2.7 mph NNE4.3 kmh NNE 4.7 mph7.6 kmh 30.44 in1030.8 mb 0.00 in0.0 mm 0.00 in0.0 mm 0.00 in0.0 mm
09:11 AM 54.0°F12.2°C 40.4°F4.7°C 60% 3.7 mph E6.0 kmh E 4.7 mph7.6 kmh 30.44 in1030.8 mb 0.00 in0.0 mm 0.00 in0.0 mm 0.00 in0.0 mm
09:12 AM 54.0°F12.2°C 40.4°F4.7°C 60% 3.2 mph ESE5.1 kmh ESE 4.7 mph7.6 kmh 30.44 in1030.8 mb 0.00 in0.0 mm 0.00 in0.0 mm 0.00 in0.0 mm
09:13 AM 53.8°F12.1°C 40.2°F4.6°C 60% 1.7 mph ENE2.7 kmh ENE 4.7 mph7.6 kmh 30.44 in1030.8 mb 0.00 in0.0 mm 0.00 in0.0 mm 0.00 in0.0 mm
09:14 AM 53.8°F12.1°C 39.8°F4.3°C 59% 4.7 mph ENE7.6 kmh ENE 4.7 mph7.6 kmh 30.44 in1030.8 mb 0.00 in0.0 mm 0.00 in0.0 mm 0.00 in0.0 mm
09:15 AM 53.8°F12.1°C 39.8°F4.3°C 59% 2.7 mph ESE4.3 kmh ESE 4.7 mph7.6 kmh 30.44 in1030.8 mb 0.00 in0.0 mm 0.00 in0.0 mm 0.00 in0.0 mm
09:16 AM 53.8°F12.1°C 39.8°F4.3°C 59% 2.7 mph ESE4.3 kmh ESE 4.7 mph7.6 kmh 30.44 in1030.8 mb 0.00 in0.0 mm 0.00 in0.0 mm 0.00 in0.0 mm
09:17 AM 54.3°F12.4°C 40.7°F4.8°C 60% 1.1 mph E1.8 kmh E 4.7 mph7.6 kmh 30.44 in1030.8 mb 0.00 in0.0 mm 0.00 in0.0 mm 0.00 in0.0 mm
09:18 AM 54.5°F12.5°C 40.5°F4.7°C 59% 3.7 mph ESE6.0 kmh ESE 4.7 mph7.6 kmh 30.44 in1030.8 mb 0.00 in0.0 mm 0.00 in0.0 mm 0.00 in0.0 mm
09:19 AM 54.9°F12.7°C 41.2°F5.1°C 60% 2.2 mph ESE3.5 kmh ESE 4.7 mph7.6 kmh 30.44 in1030.8 mb 0.00 in0.0 mm 0.00 in0.0 mm 0.00 in0.0 mm
09:20 AM 54.9°F12.7°C 40.8°F4.9°C 59% 3.2 mph ENE5.1 kmh ENE 4.7 mph7.6 kmh 30.44 in1030.8 mb 0.00 in0.0 mm 0.00 in0.0 mm 0.00 in0.0 mm
09:21 AM 54.9°F12.7°C 40.8°F4.9°C 59% 1.7 mph ESE2.7 kmh ESE 4.7 mph7.6 kmh 30.44 in1030.8 mb 0.00 in0.0 mm 0.00 in0.0 mm 0.00 in0.0 mm
09:22 AM 55.0°F12.8°C 41.0°F5.0°C 59% 2.2 mph E3.5 kmh E 4.7 mph7.6 kmh 30.44 in1030.8 mb 0.00 in0.0 mm 0.00 in0.0 mm 0.00 in0.0 mm
09:23 AM 54.9°F12.7°C 40.8°F4.9°C 59% 2.7 mph ESE4.3 kmh ESE 4.7 mph7.6 kmh 30.44 in1030.8 mb 0.00 in0.0 mm 0.00 in0.0 mm 0.00 in0.0 mm
09:24 AM 55.4°F13.0°C 41.3°F5.2°C 59% 2.2 mph ESE3.5 kmh ESE 3.7 mph6.0 kmh 30.44 in1030.8 mb 0.00 in0.0 mm 0.00 in0.0 mm 0.00 in0.0 mm
09:25 AM 55.2°F12.9°C 41.1°F5.1°C 59% 2.7 mph ESE4.3 kmh ESE 3.7 mph6.0 kmh 30.44 in1030.8 mb 0.00 in0.0 mm 0.00 in0.0 mm 0.00 in0.0 mm
09:26 AM 55.0°F12.8°C 40.5°F4.7°C 58% 1.1 mph N1.8 kmh N 3.7 mph6.0 kmh 30.44 in1030.8 mb 0.00 in0.0 mm 0.00 in0.0 mm 0.00 in0.0 mm
09:27 AM 55.4°F13.0°C 41.3°F5.2°C 59% 4.2 mph ESE6.8 kmh ESE 4.2 mph6.8 kmh 30.44 in1030.8 mb 0.00 in0.0 mm 0.00 in0.0 mm 0.00 in0.0 mm
09:28 AM 55.6°F13.1°C 40.6°F4.8°C 57% 4.2 mph ESE6.8 kmh ESE 4.2 mph6.8 kmh 30.44 in1030.8 mb 0.00 in0.0 mm 0.00 in0.0 mm 0.00 in0.0 mm
09:29 AM 55.6°F13.1°C 40.6°F4.8°C 57% 1.7 mph ESE2.7 kmh ESE 4.2 mph6.8 kmh 30.44 in1030.8 mb 0.00 in0.0 mm 0.00 in0.0 mm 0.00 in0.0 mm
09:30 AM 55.6°F13.1°C 41.0°F5.0°C 58% 2.2 mph ESE3.5 kmh ESE 4.2 mph6.8 kmh 30.44 in1030.8 mb 0.00 in0.0 mm 0.00 in0.0 mm 0.00 in0.0 mm
09:31 AM 55.6°F13.1°C 40.6°F4.8°C 57% 2.7 mph E4.3 kmh E 4.2 mph6.8 kmh 30.44 in1030.8 mb 0.00 in0.0 mm 0.00 in0.0 mm 0.00 in0.0 mm
09:32 AM 55.6°F13.1°C 41.0°F5.0°C 58% 1.7 mph ESE2.7 kmh ESE 4.7 mph7.6 kmh 30.44 in1030.8 mb 0.00 in0.0 mm 0.00 in0.0 mm 0.00 in0.0 mm
09:33 AM 55.9°F13.3°C 41.8°F5.4°C 59% 4.7 mph ESE7.6 kmh ESE 4.7 mph7.6 kmh 30.44 in1030.8 mb 0.00 in0.0 mm 0.00 in0.0 mm 0.00 in0.0 mm
09:34 AM 55.9°F13.3°C 41.8°F5.4°C 59% 1.7 mph ESE2.7 kmh ESE 4.7 mph7.6 kmh 30.44 in1030.8 mb 0.00 in0.0 mm 0.00 in0.0 mm 0.00 in0.0 mm
09:35 AM 56.1°F13.4°C 41.5°F5.3°C 58% 3.2 mph ESE5.1 kmh ESE 4.7 mph7.6 kmh 30.44 in1030.8 mb 0.00 in0.0 mm 0.00 in0.0 mm 0.00 in0.0 mm
09:36 AM 56.1°F13.4°C 41.1°F5.1°C 57% 1.7 mph NNE2.7 kmh NNE 4.7 mph7.6 kmh 30.44 in1030.8 mb 0.00 in0.0 mm 0.00 in0.0 mm 0.00 in0.0 mm
09:37 AM 56.1°F13.4°C 41.5°F5.3°C 58% 2.7 mph ESE4.3 kmh ESE 4.7 mph7.6 kmh 30.44 in1030.8 mb 0.00 in0.0 mm 0.00 in0.0 mm 0.00 in0.0 mm
09:38 AM 56.1°F13.4°C 41.5°F5.3°C 58% 2.7 mph NNE4.3 kmh NNE 4.7 mph7.6 kmh 30.44 in1030.8 mb 0.00 in0.0 mm 0.00 in0.0 mm 0.00 in0.0 mm
09:39 AM 56.5°F13.6°C 41.9°F5.5°C 58% 2.2 mph NE3.5 kmh NE 4.7 mph7.6 kmh 30.44 in1030.8 mb 0.00 in0.0 mm 0.00 in0.0 mm 0.00 in0.0 mm
09:40 AM 56.3°F13.5°C 41.7°F5.4°C 58% 3.2 mph E5.1 kmh E 4.7 mph7.6 kmh 30.44 in1030.8 mb 0.00 in0.0 mm 0.00 in0.0 mm 0.00 in0.0 mm
09:41 AM 56.5°F13.6°C 41.9°F5.5°C 58% 2.2 mph ESE3.5 kmh ESE 4.7 mph7.6 kmh 30.44 in1030.8 mb 0.00 in0.0 mm 0.00 in0.0 mm 0.00 in0.0 mm
09:42 AM 57.0°F13.9°C 42.4°F5.8°C 58% 2.7 mph ESE4.3 kmh ESE 4.7 mph7.6 kmh 30.44 in1030.8 mb 0.00 in0.0 mm 0.00 in0.0 mm 0.00 in0.0 mm
09:43 AM 56.8°F13.8°C 41.8°F5.4°C 57% 2.7 mph NNW4.3 kmh NNW 4.2 mph6.8 kmh 30.44 in1030.8 mb 0.00 in0.0 mm 0.00 in0.0 mm 0.00 in0.0 mm
09:44 AM 56.8°F13.8°C 41.8°F5.4°C 57% 3.2 mph E5.1 kmh E 4.2 mph6.8 kmh 30.44 in1030.8 mb 0.00 in0.0 mm 0.00 in0.0 mm 0.00 in0.0 mm
09:45 AM 57.0°F13.9°C 42.4°F5.8°C 58% 1.1 mph ESE1.8 kmh ESE 4.2 mph6.8 kmh 30.44 in1030.8 mb 0.00 in0.0 mm 0.00 in0.0 mm 0.00 in0.0 mm
09:46 AM 57.2°F14.0°C 42.1°F5.6°C 57% 2.2 mph ESE3.5 kmh ESE 4.2 mph6.8 kmh 30.44 in1030.8 mb 0.00 in0.0 mm 0.00 in0.0 mm 0.00 in0.0 mm
09:47 AM 57.2°F14.0°C 42.1°F5.6°C 57% 1.7 mph E2.7 kmh E 4.2 mph6.8 kmh 30.44 in1030.8 mb 0.00 in0.0 mm 0.00 in0.0 mm 0.00 in0.0 mm
09:48 AM 57.4°F14.1°C 41.8°F5.4°C 56% 4.2 mph ESE6.8 kmh ESE 5.8 mph9.3 kmh 30.44 in1030.8 mb 0.00 in0.0 mm 0.00 in0.0 mm 0.00 in0.0 mm
09:49 AM 57.4°F14.1°C 42.7°F5.9°C 58% 1.7 mph ESE2.7 kmh ESE 5.8 mph9.3 kmh 30.44 in1030.8 mb 0.00 in0.0 mm 0.00 in0.0 mm 0.00 in0.0 mm
09:50 AM 57.4°F14.1°C 42.3°F5.7°C 57% 2.2 mph ESE3.5 kmh ESE 5.8 mph9.3 kmh 30.44 in1030.8 mb 0.00 in0.0 mm 0.00 in0.0 mm 0.00 in0.0 mm
09:51 AM 57.6°F14.2°C 42.4°F5.8°C 57% 2.2 mph ESE3.5 kmh ESE 5.8 mph9.3 kmh 30.44 in1030.8 mb 0.00 in0.0 mm 0.00 in0.0 mm 0.00 in0.0 mm
09:52 AM 57.7°F14.3°C 42.6°F5.9°C 57% 1.7 mph E2.7 kmh E 5.8 mph9.3 kmh 30.44 in1030.8 mb 0.00 in0.0 mm 0.00 in0.0 mm 0.00 in0.0 mm
09:53 AM 57.9°F14.4°C 42.3°F5.7°C 56% 2.2 mph ESE3.5 kmh ESE 5.8 mph9.3 kmh 30.44 in1030.8 mb 0.00 in0.0 mm 0.00 in0.0 mm 0.00 in0.0 mm
09:54 AM 58.1°F14.5°C 42.5°F5.8°C 56% 3.2 mph ESE5.1 kmh ESE 5.8 mph9.3 kmh 30.42 in1030.1 mb 0.00 in0.0 mm 0.00 in0.0 mm 0.00 in0.0 mm
09:55 AM 58.3°F14.6°C 42.7°F5.9°C 56% 2.7 mph ENE4.3 kmh ENE 5.8 mph9.3 kmh 30.42 in1030.1 mb 0.00 in0.0 mm 0.00 in0.0 mm 0.00 in0.0 mm
09:56 AM 58.3°F14.6°C 42.2°F5.7°C 55% 4.2 mph ESE6.8 kmh ESE 5.8 mph9.3 kmh 30.42 in1030.1 mb 0.00 in0.0 mm 0.00 in0.0 mm 0.00 in0.0 mm
09:57 AM 58.1°F14.5°C 41.5°F5.3°C 54% 3.7 mph ESE6.0 kmh ESE 5.8 mph9.3 kmh 30.42 in1030.1 mb 0.00 in0.0 mm 0.00 in0.0 mm 0.00 in0.0 mm
09:58 AM 57.9°F14.4°C 41.9°F5.5°C 55% 3.2 mph ESE5.1 kmh ESE 4.7 mph7.6 kmh 30.42 in1030.1 mb 0.00 in0.0 mm 0.00 in0.0 mm 0.00 in0.0 mm
09:59 AM 57.9°F14.4°C 41.9°F5.5°C 55% 3.7 mph ESE6.0 kmh ESE 4.7 mph7.6 kmh 30.42 in1030.1 mb 0.00 in0.0 mm 0.00 in0.0 mm 0.00 in0.0 mm
10:00 AM 58.3°F14.6°C 41.2°F5.1°C 53% 3.7 mph ESE6.0 kmh ESE 4.7 mph7.6 kmh 30.42 in1030.1 mb 0.00 in0.0 mm 0.00 in0.0 mm 0.00 in0.0 mm
10:01 AM 57.9°F14.4°C 41.4°F5.2°C 54% 2.2 mph ENE3.5 kmh ENE 4.7 mph7.6 kmh 30.42 in1030.1 mb 0.00 in0.0 mm 0.00 in0.0 mm 0.00 in0.0 mm
10:02 AM 57.7°F14.3°C 41.2°F5.1°C 54% 3.2 mph ESE5.1 kmh ESE 4.7 mph7.6 kmh 30.42 in1030.1 mb 0.00 in0.0 mm 0.00 in0.0 mm 0.00 in0.0 mm
10:03 AM 57.9°F14.4°C 41.4°F5.2°C 54% 3.2 mph SSE5.1 kmh SSE 4.7 mph7.6 kmh 30.42 in1030.1 mb 0.00 in0.0 mm 0.00 in0.0 mm 0.00 in0.0 mm
10:04 AM 58.6°F14.8°C 43.0°F6.1°C 56% 1.7 mph ESE2.7 kmh ESE 4.7 mph7.6 kmh 30.42 in1030.1 mb 0.00 in0.0 mm 0.00 in0.0 mm 0.00 in0.0 mm
10:05 AM 58.8°F14.9°C 42.7°F5.9°C 55% 3.2 mph ESE5.1 kmh ESE 4.7 mph7.6 kmh 30.42 in1030.1 mb 0.00 in0.0 mm 0.00 in0.0 mm 0.00 in0.0 mm
10:06 AM 59.0°F15.0°C 42.9°F6.1°C 55% 3.2 mph S5.1 kmh S 4.7 mph7.6 kmh 30.42 in1030.1 mb 0.00 in0.0 mm 0.00 in0.0 mm 0.00 in0.0 mm
10:07 AM 59.2°F15.1°C 42.5°F5.8°C 54% 3.2 mph NE5.1 kmh NE 4.7 mph7.6 kmh 30.42 in1030.1 mb 0.00 in0.0 mm 0.00 in0.0 mm 0.00 in0.0 mm
10:08 AM 58.6°F14.8°C 42.0°F5.6°C 54% 2.2 mph ESE3.5 kmh ESE 4.7 mph7.6 kmh 30.42 in1030.1 mb 0.00 in0.0 mm 0.00 in0.0 mm 0.00 in0.0 mm
10:09 AM 58.3°F14.6°C 42.2°F5.7°C 55% 2.2 mph ESE3.5 kmh ESE 4.7 mph7.6 kmh 30.42 in1030.1 mb 0.00 in0.0 mm 0.00 in0.0 mm 0.00 in0.0 mm
10:10 AM 58.3°F14.6°C 42.2°F5.7°C 55% 4.2 mph ESE6.8 kmh ESE 4.2 mph6.8 kmh 30.42 in1030.1 mb 0.00 in0.0 mm 0.00 in0.0 mm 0.00 in0.0 mm
10:11 AM 58.3°F14.6°C 41.7°F5.4°C 54% 2.7 mph SE4.3 kmh SE 4.2 mph6.8 kmh 30.42 in1030.1 mb 0.00 in0.0 mm 0.00 in0.0 mm 0.00 in0.0 mm
10:12 AM 58.3°F14.6°C 41.7°F5.4°C 54% 2.7 mph E4.3 kmh E 4.2 mph6.8 kmh 30.42 in1030.1 mb 0.00 in0.0 mm 0.00 in0.0 mm 0.00 in0.0 mm
10:13 AM 59.5°F15.3°C 42.4°F5.8°C 53% 3.7 mph ESE6.0 kmh ESE 5.3 mph8.5 kmh 30.42 in1030.1 mb 0.00 in0.0 mm 0.00 in0.0 mm 0.00 in0.0 mm
10:14 AM 59.2°F15.1°C 41.6°F5.3°C 52% 2.2 mph ESE3.5 kmh ESE 5.3 mph8.5 kmh 30.42 in1030.1 mb 0.00 in0.0 mm 0.00 in0.0 mm 0.00 in0.0 mm
10:15 AM 58.6°F14.8°C 40.6°F4.8°C 51% 2.2 mph E3.5 kmh E 5.3 mph8.5 kmh 30.42 in1030.1 mb 0.00 in0.0 mm 0.00 in0.0 mm 0.00 in0.0 mm
10:16 AM 58.6°F14.8°C 41.1°F5.1°C 52% 3.2 mph ESE5.1 kmh ESE 5.3 mph8.5 kmh 30.42 in1030.1 mb 0.00 in0.0 mm 0.00 in0.0 mm 0.00 in0.0 mm
10:17 AM 58.6°F14.8°C 41.1°F5.1°C 52% 1.7 mph E2.7 kmh E 5.3 mph8.5 kmh 30.42 in1030.1 mb 0.00 in0.0 mm 0.00 in0.0 mm 0.00 in0.0 mm
10:18 AM 58.6°F14.8°C 41.1°F5.1°C 52% 2.7 mph E4.3 kmh E 5.3 mph8.5 kmh 30.42 in1030.1 mb 0.00 in0.0 mm 0.00 in0.0 mm 0.00 in0.0 mm
10:19 AM 58.8°F14.9°C 40.7°F4.8°C 51% 3.2 mph ESE5.1 kmh ESE 5.3 mph8.5 kmh 30.42 in1030.1 mb 0.00 in0.0 mm 0.00 in0.0 mm 0.00 in0.0 mm
10:20 AM 58.6°F14.8°C 40.6°F4.8°C 51% 2.2 mph ESE3.5 kmh ESE 5.3 mph8.5 kmh 30.42 in1030.1 mb 0.00 in0.0 mm 0.00 in0.0 mm 0.00 in0.0 mm
10:21 AM 58.5°F14.7°C 40.4°F4.7°C 51% 1.7 mph N2.7 kmh N 5.3 mph8.5 kmh 30.42 in1030.1 mb 0.00 in0.0 mm 0.00 in0.0 mm 0.00 in0.0 mm
10:22 AM 58.6°F14.8°C 41.1°F5.1°C 52% 4.7 mph ESE7.6 kmh ESE 5.3 mph8.5 kmh 30.42 in1030.1 mb 0.00 in0.0 mm 0.00 in0.0 mm 0.00 in0.0 mm
10:23 AM 59.0°F15.0°C 41.4°F5.2°C 52% 2.7 mph ESE4.3 kmh ESE 4.7 mph7.6 kmh 30.42 in1030.1 mb 0.00 in0.0 mm 0.00 in0.0 mm 0.00 in0.0 mm
10:24 AM 58.8°F14.9°C 40.7°F4.8°C 51% 1.7 mph ENE2.7 kmh ENE 4.7 mph7.6 kmh 30.42 in1030.1 mb 0.00 in0.0 mm 0.00 in0.0 mm 0.00 in0.0 mm
10:25 AM 58.6°F14.8°C 40.6°F4.8°C 51% 1.1 mph NNE1.8 kmh NNE 4.7 mph7.6 kmh 30.42 in1030.1 mb 0.00 in0.0 mm 0.00 in0.0 mm 0.00 in0.0 mm
10:26 AM 58.8°F14.9°C 40.7°F4.8°C 51% 2.7 mph ESE4.3 kmh ESE 4.7 mph7.6 kmh 30.42 in1030.1 mb 0.00 in0.0 mm 0.00 in0.0 mm 0.00 in0.0 mm
10:27 AM 59.0°F15.0°C 40.9°F4.9°C 51% 3.2 mph ESE5.1 kmh ESE 4.7 mph7.6 kmh 30.42 in1030.1 mb 0.00 in0.0 mm 0.00 in0.0 mm 0.00 in0.0 mm
10:28 AM 59.4°F15.2°C 40.7°F4.8°C 50% 1.7 mph ESE2.7 kmh ESE 4.7 mph7.6 kmh 30.42 in1030.1 mb 0.00 in0.0 mm 0.00 in0.0 mm 0.00 in0.0 mm
10:29 AM 59.4°F15.2°C 40.7°F4.8°C 50% 2.7 mph ESE4.3 kmh ESE 4.7 mph7.6 kmh 30.42 in1030.1 mb 0.00 in0.0 mm 0.00 in0.0 mm 0.00 in0.0 mm
10:30 AM 59.5°F15.3°C 40.9°F4.9°C 50% 4.2 mph E6.8 kmh E 4.7 mph7.6 kmh 30.42 in1030.1 mb 0.00 in0.0 mm 0.00 in0.0 mm 0.00 in0.0 mm
10:31 AM 59.4°F15.2°C 40.2°F4.6°C 49% 1.7 mph ESE2.7 kmh ESE 4.7 mph7.6 kmh 30.41 in1029.8 mb 0.00 in0.0 mm 0.00 in0.0 mm 0.00 in0.0 mm
10:32 AM 59.2°F15.1°C 40.6°F4.8°C 50% 2.2 mph NE3.5 kmh NE 4.2 mph6.8 kmh 30.41 in1029.8 mb 0.00 in0.0 mm 0.00 in0.0 mm 0.00 in0.0 mm
10:33 AM 59.5°F15.3°C 40.4°F4.7°C 49% 1.7 mph E2.7 kmh E 4.2 mph6.8 kmh 30.41 in1029.8 mb 0.00 in0.0 mm 0.00 in0.0 mm 0.00 in0.0 mm
10:34 AM 59.7°F15.4°C 40.5°F4.7°C 49% 2.2 mph ENE3.5 kmh ENE 4.2 mph6.8 kmh 30.41 in1029.8 mb 0.00 in0.0 mm 0.00 in0.0 mm 0.00 in0.0 mm
10:35 AM 60.1°F15.6°C 40.9°F4.9°C 49% 2.2 mph ESE3.5 kmh ESE 4.2 mph6.8 kmh 30.41 in1029.8 mb 0.00 in0.0 mm 0.00 in0.0 mm 0.00 in0.0 mm
10:36 AM 60.4°F15.8°C 41.2°F5.1°C 49% 2.7 mph ESE4.3 kmh ESE 4.2 mph6.8 kmh 30.41 in1029.8 mb 0.00 in0.0 mm 0.00 in0.0 mm 0.00 in0.0 mm
10:37 AM 60.4°F15.8°C 41.2°F5.1°C 49% 2.2 mph E3.5 kmh E 4.2 mph6.8 kmh 30.41 in1029.8 mb 0.00 in0.0 mm 0.00 in0.0 mm 0.00 in0.0 mm
10:38 AM 59.9°F15.5°C 40.7°F4.8°C 49% 1.7 mph ESE2.7 kmh ESE 4.2 mph6.8 kmh 30.41 in1029.8 mb 0.00 in0.0 mm 0.00 in0.0 mm 0.00 in0.0 mm
10:39 AM 60.1°F15.6°C 40.9°F4.9°C 49% 3.7 mph SSE6.0 kmh SSE 4.2 mph6.8 kmh 30.41 in1029.8 mb 0.00 in0.0 mm 0.00 in0.0 mm 0.00 in0.0 mm
10:40 AM 60.1°F15.6°C 40.3°F4.6°C 48% 2.2 mph NNE3.5 kmh NNE 3.7 mph6.0 kmh 30.41 in1029.8 mb 0.00 in0.0 mm 0.00 in0.0 mm 0.00 in0.0 mm
10:41 AM 60.4°F15.8°C 40.7°F4.8°C 48% 3.2 mph ENE5.1 kmh ENE 3.7 mph6.0 kmh 30.41 in1029.8 mb 0.00 in0.0 mm 0.00 in0.0 mm 0.00 in0.0 mm
10:42 AM 60.6°F15.9°C 40.3°F4.6°C 47% 1.7 mph ESE2.7 kmh ESE 3.7 mph6.0 kmh 30.41 in1029.8 mb 0.00 in0.0 mm 0.00 in0.0 mm 0.00 in0.0 mm
10:43 AM 60.8°F16.0°C 41.0°F5.0°C 48% 2.7 mph ESE4.3 kmh ESE 3.7 mph6.0 kmh 30.40 in1029.5 mb 0.00 in0.0 mm 0.00 in0.0 mm 0.00 in0.0 mm
10:44 AM 60.6°F15.9°C 40.3°F4.6°C 47% 2.2 mph ESE3.5 kmh ESE 3.7 mph6.0 kmh 30.40 in1029.5 mb 0.00 in0.0 mm 0.00 in0.0 mm 0.00 in0.0 mm
10:45 AM 60.1°F15.6°C 39.8°F4.3°C 47% 2.2 mph NNE3.5 kmh NNE 3.7 mph6.0 kmh 30.40 in1029.5 mb 0.00 in0.0 mm 0.00 in0.0 mm 0.00 in0.0 mm
10:46 AM 60.3°F15.7°C 40.5°F4.7°C 48% 2.2 mph ESE3.5 kmh ESE 3.7 mph6.0 kmh 30.40 in1029.5 mb 0.00 in0.0 mm 0.00 in0.0 mm 0.00 in0.0 mm
10:47 AM 60.6°F15.9°C 40.8°F4.9°C 48% 2.2 mph ESE3.5 kmh ESE 3.7 mph6.0 kmh 30.40 in1029.5 mb 0.00 in0.0 mm 0.00 in0.0 mm 0.00 in0.0 mm
10:48 AM 60.3°F15.7°C 41.0°F5.0°C 49% 1.7 mph ESE2.7 kmh ESE 3.7 mph6.0 kmh 30.40 in1029.5 mb 0.00 in0.0 mm 0.00 in0.0 mm 0.00 in0.0 mm
10:49 AM 60.4°F15.8°C 40.7°F4.8°C 48% 3.2 mph ENE5.1 kmh ENE 4.7 mph7.6 kmh 30.40 in1029.5 mb 0.00 in0.0 mm 0.00 in0.0 mm 0.00 in0.0 mm
10:50 AM 59.9°F15.5°C 40.2°F4.6°C 48% 2.7 mph ESE4.3 kmh ESE 4.7 mph7.6 kmh 30.40 in1029.5 mb 0.00 in0.0 mm 0.00 in0.0 mm 0.00 in0.0 mm
10:51 AM 60.1°F15.6°C 40.3°F4.6°C 48% 1.7 mph ESE2.7 kmh ESE 4.7 mph7.6 kmh 30.40 in1029.5 mb 0.00 in0.0 mm 0.00 in0.0 mm 0.00 in0.0 mm
10:52 AM 60.3°F15.7°C 40.5°F4.7°C 48% 2.2 mph ENE3.5 kmh ENE 4.7 mph7.6 kmh 30.40 in1029.5 mb 0.00 in0.0 mm 0.00 in0.0 mm 0.00 in0.0 mm
10:53 AM 60.4°F15.8°C 40.7°F4.8°C 48% 2.7 mph S4.3 kmh S 4.7 mph7.6 kmh 30.40 in1029.5 mb 0.00 in0.0 mm 0.00 in0.0 mm 0.00 in0.0 mm
10:54 AM 60.3°F15.7°C 40.5°F4.7°C 48% 3.7 mph ESE6.0 kmh ESE 4.7 mph7.6 kmh 30.40 in1029.5 mb 0.00 in0.0 mm 0.00 in0.0 mm 0.00 in0.0 mm
10:55 AM 60.4°F15.8°C 40.7°F4.8°C 48% 4.2 mph ESE6.8 kmh ESE 4.7 mph7.6 kmh 30.40 in1029.5 mb 0.00 in0.0 mm 0.00 in0.0 mm 0.00 in0.0 mm
10:56 AM 60.4°F15.8°C 40.7°F4.8°C 48% 3.7 mph ESE6.0 kmh ESE 4.7 mph7.6 kmh 30.40 in1029.5 mb 0.00 in0.0 mm 0.00 in0.0 mm 0.00 in0.0 mm
10:57 AM 60.4°F15.8°C 40.7°F4.8°C 48% 2.2 mph NNW3.5 kmh NNW 4.7 mph7.6 kmh 30.40 in1029.5 mb 0.00 in0.0 mm 0.00 in0.0 mm 0.00 in0.0 mm
10:58 AM 60.4°F15.8°C 40.1°F4.5°C 47% 1.7 mph ESE2.7 kmh ESE 4.7 mph7.6 kmh 30.40 in1029.5 mb 0.00 in0.0 mm 0.00 in0.0 mm 0.00 in0.0 mm
10:59 AM 60.4°F15.8°C 40.1°F4.5°C 47% 2.7 mph ESE4.3 kmh ESE 4.7 mph7.6 kmh 30.40 in1029.5 mb 0.00 in0.0 mm 0.00 in0.0 mm 0.00 in0.0 mm
11:00 AM 60.3°F15.7°C 39.9°F4.4°C 47% 3.2 mph W5.1 kmh W 4.7 mph7.6 kmh 30.40 in1029.5 mb 0.00 in0.0 mm 0.00 in0.0 mm 0.00 in0.0 mm
11:01 AM 60.3°F15.7°C 39.9°F4.4°C 47% 2.7 mph N4.3 kmh N 4.7 mph7.6 kmh 30.40 in1029.5 mb 0.00 in0.0 mm 0.00 in0.0 mm 0.00 in0.0 mm
11:02 AM 60.4°F15.8°C 40.1°F4.5°C 47% 3.2 mph N5.1 kmh N 4.7 mph7.6 kmh 30.40 in1029.5 mb 0.00 in0.0 mm 0.00 in0.0 mm 0.00 in0.0 mm
11:03 AM 61.0°F16.1°C 41.2°F5.1°C 48% 2.2 mph E3.5 kmh E 4.7 mph7.6 kmh 30.40 in1029.5 mb 0.00 in0.0 mm 0.00 in0.0 mm 0.00 in0.0 mm
11:04 AM 61.2°F16.2°C 40.8°F4.9°C 47% Calm Calm 4.7 mph7.6 kmh 30.40 in1029.5 mb 0.00 in0.0 mm 0.00 in0.0 mm 0.00 in0.0 mm
11:05 AM 60.8°F16.0°C 40.4°F4.7°C 47% Calm Calm 4.7 mph7.6 kmh 30.40 in1029.5 mb 0.00 in0.0 mm 0.00 in0.0 mm 0.00 in0.0 mm
11:06 AM 61.2°F16.2°C 40.8°F4.9°C 47% 1.1 mph ESE1.8 kmh ESE 3.7 mph6.0 kmh 30.40 in1029.5 mb 0.00 in0.0 mm 0.00 in0.0 mm 0.00 in0.0 mm
11:07 AM 61.3°F16.3°C 40.4°F4.7°C 46% 2.7 mph NNW4.3 kmh NNW 3.7 mph6.0 kmh 30.39 in1029.1 mb 0.00 in0.0 mm 0.00 in0.0 mm 0.00 in0.0 mm
11:08 AM 61.3°F16.3°C 40.4°F4.7°C 46% 2.2 mph ESE3.5 kmh ESE 3.7 mph6.0 kmh 30.39 in1029.1 mb 0.00 in0.0 mm 0.00 in0.0 mm 0.00 in0.0 mm
11:09 AM 60.8°F16.0°C 39.9°F4.4°C 46% 1.7 mph ENE2.7 kmh ENE 3.7 mph6.0 kmh 30.39 in1029.1 mb 0.00 in0.0 mm 0.00 in0.0 mm 0.00 in0.0 mm
11:10 AM 60.8°F16.0°C 39.9°F4.4°C 46% 1.7 mph ESE2.7 kmh ESE 3.7 mph6.0 kmh 30.39 in1029.1 mb 0.00 in0.0 mm 0.00 in0.0 mm 0.00 in0.0 mm
11:11 AM 60.8°F16.0°C 39.9°F4.4°C 46% 2.2 mph NNE3.5 kmh NNE 3.7 mph6.0 kmh 30.39 in1029.1 mb 0.00 in0.0 mm 0.00 in0.0 mm 0.00 in0.0 mm
11:12 AM 61.0°F16.1°C 40.1°F4.5°C 46% 3.7 mph NE6.0 kmh NE 3.7 mph6.0 kmh 30.39 in1029.1 mb 0.00 in0.0 mm 0.00 in0.0 mm 0.00 in0.0 mm
11:13 AM 61.3°F16.3°C 40.4°F4.7°C 46% 2.2 mph ENE3.5 kmh ENE 3.7 mph6.0 kmh 30.39 in1029.1 mb 0.00 in0.0 mm 0.00 in0.0 mm 0.00 in0.0 mm
11:14 AM 61.3°F16.3°C 40.9°F4.9°C 47% 1.7 mph WSW2.7 kmh WSW 3.7 mph6.0 kmh 30.39 in1029.1 mb 0.00 in0.0 mm 0.00 in0.0 mm 0.00 in0.0 mm
11:15 AM 61.7°F16.5°C 40.7°F4.8°C 46% 3.7 mph ESE6.0 kmh ESE 3.7 mph6.0 kmh 30.39 in1029.1 mb 0.00 in0.0 mm 0.00 in0.0 mm 0.00 in0.0 mm
11:16 AM 61.3°F16.3°C 39.8°F4.3°C 45% 2.2 mph NNE3.5 kmh NNE 3.7 mph6.0 kmh 30.39 in1029.1 mb 0.00 in0.0 mm 0.00 in0.0 mm 0.00 in0.0 mm
11:17 AM 61.5°F16.4°C 40.0°F4.4°C 45% 2.2 mph ESE3.5 kmh ESE 3.7 mph6.0 kmh 30.39 in1029.1 mb 0.00 in0.0 mm 0.00 in0.0 mm 0.00 in0.0 mm
11:18 AM 61.5°F16.4°C 40.0°F4.4°C 45% 1.7 mph ESE2.7 kmh ESE 3.7 mph6.0 kmh 30.39 in1029.1 mb 0.00 in0.0 mm 0.00 in0.0 mm 0.00 in0.0 mm
11:19 AM 61.7°F16.5°C 40.7°F4.8°C 46% Calm Calm 3.7 mph6.0 kmh 30.39 in1029.1 mb 0.00 in0.0 mm 0.00 in0.0 mm 0.00 in0.0 mm
11:20 AM 61.7°F16.5°C 40.7°F4.8°C 46% Calm Calm 3.7 mph6.0 kmh 30.39 in1029.1 mb 0.00 in0.0 mm 0.00 in0.0 mm 0.00 in0.0 mm
11:21 AM 62.2°F16.8°C 40.1°F4.5°C 44% 2.2 mph NNE3.5 kmh NNE 3.7 mph6.0 kmh 30.39 in1029.1 mb 0.00 in0.0 mm 0.00 in0.0 mm 0.00 in0.0 mm
11:22 AM 62.4°F16.9°C 40.2°F4.6°C 44% 2.2 mph N3.5 kmh N 3.7 mph6.0 kmh 30.39 in1029.1 mb 0.00 in0.0 mm 0.00 in0.0 mm 0.00 in0.0 mm
11:23 AM 62.2°F16.8°C 40.1°F4.5°C 44% 2.7 mph ESE4.3 kmh ESE 3.7 mph6.0 kmh 30.39 in1029.1 mb 0.00 in0.0 mm 0.00 in0.0 mm 0.00 in0.0 mm
11:24 AM 62.6°F17.0°C 40.4°F4.7°C 44% 3.2 mph SSE5.1 kmh SSE 3.7 mph6.0 kmh 30.39 in1029.1 mb 0.00 in0.0 mm 0.00 in0.0 mm 0.00 in0.0 mm
11:25 AM 62.4°F16.9°C 39.6°F4.2°C 43% 3.2 mph SSE5.1 kmh SSE 3.7 mph6.0 kmh 30.39 in1029.1 mb 0.00 in0.0 mm 0.00 in0.0 mm 0.00 in0.0 mm
11:26 AM 61.9°F16.6°C 39.1°F3.9°C 43% 1.1 mph SSE1.8 kmh SSE 3.2 mph5.1 kmh 30.39 in1029.1 mb 0.00 in0.0 mm 0.00 in0.0 mm 0.00 in0.0 mm
11:27 AM 62.1°F16.7°C 39.9°F4.4°C 44% 2.2 mph ESE3.5 kmh ESE 3.2 mph5.1 kmh 30.39 in1029.1 mb 0.00 in0.0 mm 0.00 in0.0 mm 0.00 in0.0 mm
11:28 AM 61.7°F16.5°C 38.4°F3.6°C 42% Calm Calm 3.2 mph5.1 kmh 30.39 in1029.1 mb 0.00 in0.0 mm 0.00 in0.0 mm 0.00 in0.0 mm
11:29 AM 62.4°F16.9°C 39.0°F3.9°C 42% 1.7 mph NNE2.7 kmh NNE 3.2 mph5.1 kmh 30.39 in1029.1 mb 0.00 in0.0 mm 0.00 in0.0 mm 0.00 in0.0 mm
11:30 AM 62.8°F17.1°C 38.7°F3.7°C 41% 1.7 mph ESE2.7 kmh ESE 3.2 mph5.1 kmh 30.39 in1029.1 mb 0.00 in0.0 mm 0.00 in0.0 mm 0.00 in0.0 mm
11:31 AM 63.0°F17.2°C 39.5°F4.2°C 42% 1.1 mph ESE1.8 kmh ESE 3.2 mph5.1 kmh 30.39 in1029.1 mb 0.00 in0.0 mm 0.00 in0.0 mm 0.00 in0.0 mm
11:32 AM 63.3°F17.4°C 40.4°F4.7°C 43% 2.7 mph ENE4.3 kmh ENE 3.2 mph5.1 kmh 30.39 in1029.1 mb 0.00 in0.0 mm 0.00 in0.0 mm 0.00 in0.0 mm
11:33 AM 63.9°F17.7°C 40.3°F4.6°C 42% 2.2 mph ESE3.5 kmh ESE 3.2 mph5.1 kmh 30.39 in1029.1 mb 0.00 in0.0 mm 0.00 in0.0 mm 0.00 in0.0 mm
11:34 AM 63.9°F17.7°C 40.3°F4.6°C 42% 1.7 mph ESE2.7 kmh ESE 3.2 mph5.1 kmh 30.39 in1029.1 mb 0.00 in0.0 mm 0.00 in0.0 mm 0.00 in0.0 mm
11:35 AM 63.7°F17.6°C 40.2°F4.6°C 42% 1.7 mph NNE2.7 kmh NNE 3.2 mph5.1 kmh 30.39 in1029.1 mb 0.00 in0.0 mm 0.00 in0.0 mm 0.00 in0.0 mm
11:36 AM 63.1°F17.3°C 39.1°F3.9°C 41% 2.7 mph ESE4.3 kmh ESE 3.2 mph5.1 kmh 30.39 in1029.1 mb 0.00 in0.0 mm 0.00 in0.0 mm 0.00 in0.0 mm
11:37 AM 63.3°F17.4°C 39.8°F4.3°C 42% 1.7 mph ESE2.7 kmh ESE 3.2 mph5.1 kmh 30.39 in1029.1 mb 0.00 in0.0 mm 0.00 in0.0 mm 0.00 in0.0 mm
11:38 AM 63.3°F17.4°C 40.4°F4.7°C 43% 2.7 mph ESE4.3 kmh ESE 3.2 mph5.1 kmh 30.39 in1029.1 mb 0.00 in0.0 mm 0.00 in0.0 mm 0.00 in0.0 mm
11:39 AM 63.7°F17.6°C 40.2°F4.6°C 42% 2.7 mph ESE4.3 kmh ESE 3.2 mph5.1 kmh 30.39 in1029.1 mb 0.00 in0.0 mm 0.00 in0.0 mm 0.00 in0.0 mm
11:40 AM 63.7°F17.6°C 39.5°F4.2°C 41% 2.7 mph SE4.3 kmh SE 3.7 mph6.0 kmh 30.39 in1029.1 mb 0.00 in0.0 mm 0.00 in0.0 mm 0.00 in0.0 mm
11:41 AM 63.1°F17.3°C 39.1°F3.9°C 41% 2.2 mph ESE3.5 kmh ESE 3.7 mph6.0 kmh 30.39 in1029.1 mb 0.00 in0.0 mm 0.00 in0.0 mm 0.00 in0.0 mm
11:42 AM 62.8°F17.1°C 39.3°F4.1°C 42% 2.2 mph SSE3.5 kmh SSE 3.7 mph6.0 kmh 30.39 in1029.1 mb 0.00 in0.0 mm 0.00 in0.0 mm 0.00 in0.0 mm
11:43 AM 62.4°F16.9°C 39.0°F3.9°C 42% Calm Calm 3.7 mph6.0 kmh 30.37 in1028.4 mb 0.00 in0.0 mm 0.00 in0.0 mm 0.00 in0.0 mm
11:44 AM 63.0°F17.2°C 40.1°F4.5°C 43% 3.2 mph SE5.1 kmh SE 3.7 mph6.0 kmh 30.37 in1028.4 mb 0.00 in0.0 mm 0.00 in0.0 mm 0.00 in0.0 mm
11:45 AM 63.5°F17.5°C 40.6°F4.8°C 43% 3.2 mph ESE5.1 kmh ESE 3.7 mph6.0 kmh 30.37 in1028.4 mb 0.00 in0.0 mm 0.00 in0.0 mm 0.00 in0.0 mm
11:46 AM 63.3°F17.4°C 39.8°F4.3°C 42% 1.7 mph NW2.7 kmh NW 3.7 mph6.0 kmh 30.37 in1028.4 mb 0.00 in0.0 mm 0.00 in0.0 mm 0.00 in0.0 mm
11:47 AM 63.1°F17.3°C 39.1°F3.9°C 41% Calm Calm 3.7 mph6.0 kmh 30.37 in1028.4 mb 0.00 in0.0 mm 0.00 in0.0 mm 0.00 in0.0 mm
11:48 AM 63.5°F17.5°C 40.0°F4.4°C 42% 2.2 mph SE3.5 kmh SE 3.7 mph6.0 kmh 30.37 in1028.4 mb 0.00 in0.0 mm 0.00 in0.0 mm 0.00 in0.0 mm
11:49 AM 63.5°F17.5°C 40.6°F4.8°C 43% 1.1 mph SSE1.8 kmh SSE 3.7 mph6.0 kmh 30.37 in1028.4 mb 0.00 in0.0 mm 0.00 in0.0 mm 0.00 in0.0 mm
11:50 AM 64.0°F17.8°C 40.5°F4.7°C 42% 1.7 mph ESE2.7 kmh ESE 3.7 mph6.0 kmh 30.37 in1028.4 mb 0.00 in0.0 mm 0.00 in0.0 mm 0.00 in0.0 mm
11:51 AM 64.4°F18.0°C 40.2°F4.6°C 41% 4.2 mph SE6.8 kmh SE 4.2 mph6.8 kmh 30.37 in1028.4 mb 0.00 in0.0 mm 0.00 in0.0 mm 0.00 in0.0 mm
11:52 AM 64.0°F17.8°C 39.2°F4.0°C 40% 3.7 mph SE6.0 kmh SE 4.2 mph6.8 kmh 30.37 in1028.4 mb 0.00 in0.0 mm 0.00 in0.0 mm 0.00 in0.0 mm
11:53 AM 64.2°F17.9°C 39.4°F4.1°C 40% 3.2 mph ESE5.1 kmh ESE 5.3 mph8.5 kmh 30.37 in1028.4 mb 0.00 in0.0 mm 0.00 in0.0 mm 0.00 in0.0 mm
11:54 AM 64.0°F17.8°C 39.2°F4.0°C 40% 3.7 mph ESE6.0 kmh ESE 5.3 mph8.5 kmh 30.37 in1028.4 mb 0.00 in0.0 mm 0.00 in0.0 mm 0.00 in0.0 mm
11:55 AM 63.9°F17.7°C 39.7°F4.3°C 41% 3.2 mph ESE5.1 kmh ESE 5.3 mph8.5 kmh 30.36 in1028.1 mb 0.00 in0.0 mm 0.00 in0.0 mm 0.00 in0.0 mm
11:56 AM 63.9°F17.7°C 40.3°F4.6°C 42% 3.2 mph E5.1 kmh E 5.3 mph8.5 kmh 30.36 in1028.1 mb 0.00 in0.0 mm 0.00 in0.0 mm 0.00 in0.0 mm
11:57 AM 63.9°F17.7°C 40.3°F4.6°C 42% 3.2 mph NNE5.1 kmh NNE 5.3 mph8.5 kmh 30.36 in1028.1 mb 0.00 in0.0 mm 0.00 in0.0 mm 0.00 in0.0 mm
11:58 AM 64.0°F17.8°C 39.9°F4.4°C 41% 3.2 mph ESE5.1 kmh ESE 5.3 mph8.5 kmh 30.36 in1028.1 mb 0.00 in0.0 mm 0.00 in0.0 mm 0.00 in0.0 mm
11:59 AM 64.4°F18.0°C 39.6°F4.2°C 40% 2.7 mph ESE4.3 kmh ESE 5.3 mph8.5 kmh 30.36 in1028.1 mb 0.00 in0.0 mm 0.00 in0.0 mm 0.00 in0.0 mm
12:00 PM 64.2°F17.9°C 38.7°F3.7°C 39% 2.2 mph ESE3.5 kmh ESE 5.3 mph8.5 kmh 30.36 in1028.1 mb 0.00 in0.0 mm 0.00 in0.0 mm 0.00 in0.0 mm
12:01 PM 64.2°F17.9°C 39.4°F4.1°C 40% 2.2 mph ESE3.5 kmh ESE 5.3 mph8.5 kmh 30.36 in1028.1 mb 0.00 in0.0 mm 0.00 in0.0 mm 0.00 in0.0 mm
12:02 PM 64.4°F18.0°C 38.9°F3.8°C 39% 3.2 mph NNW5.1 kmh NNW 5.3 mph8.5 kmh 30.36 in1028.1 mb 0.00 in0.0 mm 0.00 in0.0 mm 0.00 in0.0 mm
12:03 PM 63.9°F17.7°C 37.8°F3.2°C 38% 2.7 mph W4.3 kmh W 4.2 mph6.8 kmh 30.36 in1028.1 mb 0.00 in0.0 mm 0.00 in0.0 mm 0.00 in0.0 mm
12:04 PM 63.7°F17.6°C 37.6°F3.1°C 38% 1.7 mph NNE2.7 kmh NNE 4.2 mph6.8 kmh 30.36 in1028.1 mb 0.00 in0.0 mm 0.00 in0.0 mm 0.00 in0.0 mm
12:05 PM 63.5°F17.5°C 37.4°F3.0°C 38% 2.7 mph NNW4.3 kmh NNW 3.7 mph6.0 kmh 30.36 in1028.1 mb 0.00 in0.0 mm 0.00 in0.0 mm 0.00 in0.0 mm
12:06 PM 63.7°F17.6°C 37.6°F3.1°C 38% 1.7 mph NNE2.7 kmh NNE 3.7 mph6.0 kmh 30.36 in1028.1 mb 0.00 in0.0 mm 0.00 in0.0 mm 0.00 in0.0 mm
12:07 PM 64.0°F17.8°C 38.6°F3.7°C 39% 1.7 mph E2.7 kmh E 3.7 mph6.0 kmh 30.36 in1028.1 mb 0.00 in0.0 mm 0.00 in0.0 mm 0.00 in0.0 mm
12:08 PM 64.4°F18.0°C 39.6°F4.2°C 40% 2.7 mph ESE4.3 kmh ESE 3.7 mph6.0 kmh 30.36 in1028.1 mb 0.00 in0.0 mm 0.00 in0.0 mm 0.00 in0.0 mm
12:09 PM 64.2°F17.9°C 38.7°F3.7°C 39% Calm Calm 3.7 mph6.0 kmh 30.36 in1028.1 mb 0.00 in0.0 mm 0.00 in0.0 mm 0.00 in0.0 mm
12:10 PM 63.9°F17.7°C 38.4°F3.6°C 39% 2.7 mph ESE4.3 kmh ESE 3.2 mph5.1 kmh 30.36 in1028.1 mb 0.00 in0.0 mm 0.00 in0.0 mm 0.00 in0.0 mm
12:11 PM 64.6°F18.1°C 39.1°F3.9°C 39% 1.7 mph ENE2.7 kmh ENE 3.7 mph6.0 kmh 30.36 in1028.1 mb 0.00 in0.0 mm 0.00 in0.0 mm 0.00 in0.0 mm
12:12 PM 64.8°F18.2°C 39.2°F4.0°C 39% 2.7 mph ESE4.3 kmh ESE 3.7 mph6.0 kmh 30.36 in1028.1 mb 0.00 in0.0 mm 0.00 in0.0 mm 0.00 in0.0 mm
12:13 PM 64.9°F18.3°C 40.0°F4.4°C 40% 3.7 mph ESE6.0 kmh ESE 3.7 mph6.0 kmh 30.36 in1028.1 mb 0.00 in0.0 mm 0.00 in0.0 mm 0.00 in0.0 mm
12:14 PM 65.1°F18.4°C 39.5°F4.2°C 39% 2.7 mph ESE4.3 kmh ESE 4.2 mph6.8 kmh 30.36 in1028.1 mb 0.00 in0.0 mm 0.00 in0.0 mm 0.00 in0.0 mm
12:15 PM 64.8°F18.2°C 39.2°F4.0°C 39% 2.2 mph ESE3.5 kmh ESE 4.2 mph6.8 kmh 30.36 in1028.1 mb 0.00 in0.0 mm 0.00 in0.0 mm 0.00 in0.0 mm
12:16 PM 64.0°F17.8°C 37.9°F3.3°C 38% 2.2 mph SE3.5 kmh SE 4.2 mph6.8 kmh 30.36 in1028.1 mb 0.00 in0.0 mm 0.00 in0.0 mm 0.00 in0.0 mm
12:17 PM 64.2°F17.9°C 38.1°F3.4°C 38% 1.1 mph NNE1.8 kmh NNE 4.2 mph6.8 kmh 30.36 in1028.1 mb 0.00 in0.0 mm 0.00 in0.0 mm 0.00 in0.0 mm
12:18 PM 64.4°F18.0°C 39.6°F4.2°C 40% Calm Calm 4.2 mph6.8 kmh 30.36 in1028.1 mb 0.00 in0.0 mm 0.00 in0.0 mm 0.00 in0.0 mm
12:19 PM 64.6°F18.1°C 39.1°F3.9°C 39% 1.7 mph ESE2.7 kmh ESE 4.2 mph6.8 kmh 30.36 in1028.1 mb 0.00 in0.0 mm 0.00 in0.0 mm 0.00 in0.0 mm
12:20 PM 65.1°F18.4°C 36.1°F2.3°C 34% 1.7 mph ESE2.7 kmh ESE 4.2 mph6.8 kmh 30.36 in1028.1 mb 0.00 in0.0 mm 0.00 in0.0 mm 0.00 in0.0 mm
12:21 PM 64.9°F18.3°C 35.1°F1.7°C 33% 2.2 mph NNE3.5 kmh NNE 4.2 mph6.8 kmh 30.36 in1028.1 mb 0.00 in0.0 mm 0.00 in0.0 mm 0.00 in0.0 mm
12:22 PM 64.9°F18.3°C 35.1°F1.7°C 33% Calm Calm 4.2 mph6.8 kmh 30.36 in1028.1 mb 0.00 in0.0 mm 0.00 in0.0 mm 0.00 in0.0 mm
12:23 PM 64.8°F18.2°C 35.7°F2.1°C 34% 1.7 mph N2.7 kmh N 4.2 mph6.8 kmh 30.36 in1028.1 mb 0.00 in0.0 mm 0.00 in0.0 mm 0.00 in0.0 mm
12:24 PM 64.8°F18.2°C 35.7°F2.1°C 34% 1.7 mph NNW2.7 kmh NNW 3.2 mph5.1 kmh 30.36 in1028.1 mb 0.00 in0.0 mm 0.00 in0.0 mm 0.00 in0.0 mm
12:25 PM 64.6°F18.1°C 36.3°F2.4°C 35% 2.2 mph ESE3.5 kmh ESE 3.2 mph5.1 kmh 30.36 in1028.1 mb 0.00 in0.0 mm 0.00 in0.0 mm 0.00 in0.0 mm
12:26 PM 64.9°F18.3°C 36.6°F2.6°C 35% 2.2 mph ENE3.5 kmh ENE 3.2 mph5.1 kmh 30.36 in1028.1 mb 0.00 in0.0 mm 0.00 in0.0 mm 0.00 in0.0 mm
12:27 PM 64.4°F18.0°C 36.2°F2.3°C 35% 1.1 mph ESE1.8 kmh ESE 3.2 mph5.1 kmh 30.36 in1028.1 mb 0.00 in0.0 mm 0.00 in0.0 mm 0.00 in0.0 mm
12:28 PM 64.8°F18.2°C 36.5°F2.5°C 35% 1.7 mph E2.7 kmh E 3.2 mph5.1 kmh 30.36 in1028.1 mb 0.00 in0.0 mm 0.00 in0.0 mm 0.00 in0.0 mm
12:29 PM 64.8°F18.2°C 36.5°F2.5°C 35% 1.7 mph ENE2.7 kmh ENE 3.2 mph5.1 kmh 30.36 in1028.1 mb 0.00 in0.0 mm 0.00 in0.0 mm 0.00 in0.0 mm
12:30 PM 64.8°F18.2°C 37.2°F2.9°C 36% 2.7 mph NE4.3 kmh NE 3.2 mph5.1 kmh 30.35 in1027.8 mb 0.00 in0.0 mm 0.00 in0.0 mm 0.00 in0.0 mm
12:31 PM 64.9°F18.3°C 35.9°F2.2°C 34% 1.7 mph SSE2.7 kmh SSE 3.2 mph5.1 kmh 30.35 in1027.8 mb 0.00 in0.0 mm 0.00 in0.0 mm 0.00 in0.0 mm
12:32 PM 64.9°F18.3°C 35.9°F2.2°C 34% 2.7 mph NNE4.3 kmh NNE 3.2 mph5.1 kmh 30.35 in1027.8 mb 0.00 in0.0 mm 0.00 in0.0 mm 0.00 in0.0 mm
12:33 PM 64.8°F18.2°C 35.0°F1.7°C 33% 3.7 mph ESE6.0 kmh ESE 3.7 mph6.0 kmh 30.35 in1027.8 mb 0.00 in0.0 mm 0.00 in0.0 mm 0.00 in0.0 mm
12:34 PM 64.8°F18.2°C 35.7°F2.1°C 34% 2.2 mph NNW3.5 kmh NNW 3.7 mph6.0 kmh 30.35 in1027.8 mb 0.00 in0.0 mm 0.00 in0.0 mm 0.00 in0.0 mm
12:35 PM 65.1°F18.4°C 36.8°F2.7°C 35% 3.2 mph ESE5.1 kmh ESE 3.7 mph6.0 kmh 30.35 in1027.8 mb 0.00 in0.0 mm 0.00 in0.0 mm 0.00 in0.0 mm
12:36 PM 65.8°F18.8°C 37.4°F3.0°C 35% 2.7 mph ESE4.3 kmh ESE 3.7 mph6.0 kmh 30.35 in1027.8 mb 0.00 in0.0 mm 0.00 in0.0 mm 0.00 in0.0 mm
12:37 PM 65.5°F18.6°C 37.1°F2.8°C 35% 1.7 mph N2.7 kmh N 3.7 mph6.0 kmh 30.35 in1027.8 mb 0.00 in0.0 mm 0.00 in0.0 mm 0.00 in0.0 mm
12:38 PM 64.9°F18.3°C 36.6°F2.6°C 35% 3.2 mph ESE5.1 kmh ESE 3.7 mph6.0 kmh 30.35 in1027.8 mb 0.00 in0.0 mm 0.00 in0.0 mm 0.00 in0.0 mm
12:39 PM 64.8°F18.2°C 36.5°F2.5°C 35% 1.7 mph N2.7 kmh N 3.7 mph6.0 kmh 30.35 in1027.8 mb 0.00 in0.0 mm 0.00 in0.0 mm 0.00 in0.0 mm
12:40 PM 64.4°F18.0°C 36.9°F2.7°C 36% 2.2 mph E3.5 kmh E 3.7 mph6.0 kmh 30.35 in1027.8 mb 0.00 in0.0 mm 0.00 in0.0 mm 0.00 in0.0 mm
12:41 PM 64.8°F18.2°C 37.2°F2.9°C 36% 3.2 mph ESE5.1 kmh ESE 3.7 mph6.0 kmh 30.35 in1027.8 mb 0.00 in0.0 mm 0.00 in0.0 mm 0.00 in0.0 mm
12:42 PM 64.8°F18.2°C 37.2°F2.9°C 36% 2.7 mph E4.3 kmh E 3.7 mph6.0 kmh 30.35 in1027.8 mb 0.00 in0.0 mm 0.00 in0.0 mm 0.00 in0.0 mm
12:43 PM 64.6°F18.1°C 36.3°F2.4°C 35% 3.2 mph ESE5.1 kmh ESE 3.7 mph6.0 kmh 30.35 in1027.8 mb 0.00 in0.0 mm 0.00 in0.0 mm 0.00 in0.0 mm
12:44 PM 64.4°F18.0°C 36.9°F2.7°C 36% 2.2 mph N3.5 kmh N 3.7 mph6.0 kmh 30.35 in1027.8 mb 0.00 in0.0 mm 0.00 in0.0 mm 0.00 in0.0 mm
12:45 PM 64.0°F17.8°C 37.2°F2.9°C 37% 2.7 mph E4.3 kmh E 3.7 mph6.0 kmh 30.35 in1027.8 mb 0.00 in0.0 mm 0.00 in0.0 mm 0.00 in0.0 mm
12:46 PM 63.9°F17.7°C 36.4°F2.4°C 36% Calm Calm 3.2 mph5.1 kmh 30.35 in1027.8 mb 0.00 in0.0 mm 0.00 in0.0 mm 0.00 in0.0 mm
12:47 PM 63.9°F17.7°C 36.4°F2.4°C 36% 3.2 mph ESE5.1 kmh ESE 3.2 mph5.1 kmh 30.35 in1027.8 mb 0.00 in0.0 mm 0.00 in0.0 mm 0.00 in0.0 mm
12:48 PM 64.0°F17.8°C 36.5°F2.5°C 36% 1.7 mph N2.7 kmh N 3.2 mph5.1 kmh 30.35 in1027.8 mb 0.00 in0.0 mm 0.00 in0.0 mm 0.00 in0.0 mm
12:49 PM 63.9°F17.7°C 36.4°F2.4°C 36% 1.7 mph ESE2.7 kmh ESE 3.2 mph5.1 kmh 30.35 in1027.8 mb 0.00 in0.0 mm 0.00 in0.0 mm 0.00 in0.0 mm
12:50 PM 64.2°F17.9°C 36.0°F2.2°C 35% 2.7 mph NE4.3 kmh NE 3.2 mph5.1 kmh 30.35 in1027.8 mb 0.00 in0.0 mm 0.00 in0.0 mm 0.00 in0.0 mm
12:51 PM 64.6°F18.1°C 34.8°F1.6°C 33% 2.7 mph ESE4.3 kmh ESE 3.7 mph6.0 kmh 30.35 in1027.8 mb 0.00 in0.0 mm 0.00 in0.0 mm 0.00 in0.0 mm
12:52 PM 64.6°F18.1°C 34.1°F1.2°C 32% 3.7 mph ESE6.0 kmh ESE 3.7 mph6.0 kmh 30.35 in1027.8 mb 0.00 in0.0 mm 0.00 in0.0 mm 0.00 in0.0 mm
12:53 PM 64.6°F18.1°C 33.3°F0.7°C 31% 2.7 mph ESE4.3 kmh ESE 3.7 mph6.0 kmh 30.35 in1027.8 mb 0.00 in0.0 mm 0.00 in0.0 mm 0.00 in0.0 mm
12:54 PM 64.4°F18.0°C 33.1°F0.6°C 31% 3.2 mph ESE5.1 kmh ESE 3.7 mph6.0 kmh 30.35 in1027.8 mb 0.00 in0.0 mm 0.00 in0.0 mm 0.00 in0.0 mm
12:55 PM 64.4°F18.0°C 34.7°F1.5°C 33% 2.2 mph NNE3.5 kmh NNE 3.7 mph6.0 kmh 30.34 in1027.4 mb 0.00 in0.0 mm 0.00 in0.0 mm 0.00 in0.0 mm
12:56 PM 64.4°F18.0°C 34.7°F1.5°C 33% 2.7 mph SE4.3 kmh SE 3.7 mph6.0 kmh 30.34 in1027.4 mb 0.00 in0.0 mm 0.00 in0.0 mm 0.00 in0.0 mm
12:57 PM 64.6°F18.1°C 35.6°F2.0°C 34% 2.7 mph NE4.3 kmh NE 3.7 mph6.0 kmh 30.34 in1027.4 mb 0.00 in0.0 mm 0.00 in0.0 mm 0.00 in0.0 mm
12:58 PM 64.8°F18.2°C 35.7°F2.1°C 34% Calm Calm 3.7 mph6.0 kmh 30.34 in1027.4 mb 0.00 in0.0 mm 0.00 in0.0 mm 0.00 in0.0 mm
12:59 PM 64.6°F18.1°C 35.6°F2.0°C 34% 2.2 mph ESE3.5 kmh ESE 3.7 mph6.0 kmh 30.34 in1027.4 mb 0.00 in0.0 mm 0.00 in0.0 mm 0.00 in0.0 mm
01:00 PM 63.9°F17.7°C 35.7°F2.1°C 35% Calm Calm 3.7 mph6.0 kmh 30.34 in1027.4 mb 0.00 in0.0 mm 0.00 in0.0 mm 0.00 in0.0 mm
01:01 PM 64.2°F17.9°C 36.0°F2.2°C 35% 1.1 mph N1.8 kmh N 3.7 mph6.0 kmh 30.34 in1027.4 mb 0.00 in0.0 mm 0.00 in0.0 mm 0.00 in0.0 mm
01:02 PM 64.2°F17.9°C 35.3°F1.8°C 34% 1.7 mph ESE2.7 kmh ESE 3.7 mph6.0 kmh 30.34 in1027.4 mb 0.00 in0.0 mm 0.00 in0.0 mm 0.00 in0.0 mm
01:03 PM 64.2°F17.9°C 36.0°F2.2°C 35% 1.7 mph ESE2.7 kmh ESE 3.7 mph6.0 kmh 30.34 in1027.4 mb 0.00 in0.0 mm 0.00 in0.0 mm 0.00 in0.0 mm
01:04 PM 64.2°F17.9°C 36.0°F2.2°C 35% 3.2 mph ESE5.1 kmh ESE 3.2 mph5.1 kmh 30.34 in1027.4 mb 0.00 in0.0 mm 0.00 in0.0 mm 0.00 in0.0 mm
01:05 PM 64.2°F17.9°C 36.7°F2.6°C 36% 1.7 mph ESE2.7 kmh ESE 3.2 mph5.1 kmh 30.34 in1027.4 mb 0.00 in0.0 mm 0.00 in0.0 mm 0.00 in0.0 mm
01:06 PM 64.6°F18.1°C 37.0°F2.8°C 36% 2.7 mph ESE4.3 kmh ESE 3.2 mph5.1 kmh 30.34 in1027.4 mb 0.00 in0.0 mm 0.00 in0.0 mm 0.00 in0.0 mm
01:07 PM 64.8°F18.2°C 36.5°F2.5°C 35% 2.2 mph ESE3.5 kmh ESE 3.2 mph5.1 kmh 30.34 in1027.4 mb 0.00 in0.0 mm 0.00 in0.0 mm 0.00 in0.0 mm
01:08 PM 64.2°F17.9°C 36.0°F2.2°C 35% Calm Calm 3.2 mph5.1 kmh 30.34 in1027.4 mb 0.00 in0.0 mm 0.00 in0.0 mm 0.00 in0.0 mm
01:09 PM 64.0°F17.8°C 35.8°F2.1°C 35% 1.1 mph N1.8 kmh N 3.2 mph5.1 kmh 30.34 in1027.4 mb 0.00 in0.0 mm 0.00 in0.0 mm 0.00 in0.0 mm
01:10 PM 63.7°F17.6°C 35.5°F1.9°C 35% Calm Calm 3.2 mph5.1 kmh 30.34 in1027.4 mb 0.00 in0.0 mm 0.00 in0.0 mm 0.00 in0.0 mm
01:11 PM 63.9°F17.7°C 36.4°F2.4°C 36% 1.7 mph N2.7 kmh N 3.2 mph5.1 kmh 30.34 in1027.4 mb 0.00 in0.0 mm 0.00 in0.0 mm 0.00 in0.0 mm
01:12 PM 63.9°F17.7°C 36.4°F2.4°C 36% 1.1 mph N1.8 kmh N 3.2 mph5.1 kmh 30.34 in1027.4 mb 0.00 in0.0 mm 0.00 in0.0 mm 0.00 in0.0 mm
01:13 PM 64.2°F17.9°C 36.0°F2.2°C 35% 1.1 mph E1.8 kmh E 3.2 mph5.1 kmh 30.34 in1027.4 mb 0.00 in0.0 mm 0.00 in0.0 mm 0.00 in0.0 mm
01:14 PM 64.4°F18.0°C 36.2°F2.3°C 35% Calm Calm 3.2 mph5.1 kmh 30.34 in1027.4 mb 0.00 in0.0 mm 0.00 in0.0 mm 0.00 in0.0 mm
01:15 PM 64.6°F18.1°C 37.0°F2.8°C 36% Calm Calm 3.2 mph5.1 kmh 30.34 in1027.4 mb 0.00 in0.0 mm 0.00 in0.0 mm 0.00 in0.0 mm
01:16 PM 65.3°F18.5°C 38.4°F3.6°C 37% 1.7 mph S2.7 kmh S 3.2 mph5.1 kmh 30.34 in1027.4 mb 0.00 in0.0 mm 0.00 in0.0 mm 0.00 in0.0 mm
01:17 PM 65.3°F18.5°C 37.7°F3.2°C 36% 1.7 mph WNW2.7 kmh WNW 1.7 mph2.7 kmh 30.34 in1027.4 mb 0.00 in0.0 mm 0.00 in0.0 mm 0.00 in0.0 mm
01:18 PM 64.9°F18.3°C 40.0°F4.4°C 40% 3.2 mph NNW5.1 kmh NNW 3.2 mph5.1 kmh 30.34 in1027.4 mb 0.00 in0.0 mm 0.00 in0.0 mm 0.00 in0.0 mm
01:19 PM 63.9°F17.7°C 41.5°F5.3°C 44% 1.1 mph NNW1.8 kmh NNW 3.2 mph5.1 kmh 30.34 in1027.4 mb 0.00 in0.0 mm 0.00 in0.0 mm 0.00 in0.0 mm
01:20 PM 63.5°F17.5°C 41.8°F5.4°C 45% Calm Calm 3.2 mph5.1 kmh 30.34 in1027.4 mb 0.00 in0.0 mm 0.00 in0.0 mm 0.00 in0.0 mm
01:21 PM 62.8°F17.1°C 43.3°F6.3°C 49% 2.2 mph W3.5 kmh W 3.2 mph5.1 kmh 30.34 in1027.4 mb 0.00 in0.0 mm 0.00 in0.0 mm 0.00 in0.0 mm
01:22 PM 62.6°F17.0°C 44.2°F6.8°C 51% 2.7 mph W4.3 kmh W 3.2 mph5.1 kmh 30.34 in1027.4 mb 0.00 in0.0 mm 0.00 in0.0 mm 0.00 in0.0 mm
01:23 PM 62.6°F17.0°C 44.7°F7.1°C 52% 2.2 mph WNW3.5 kmh WNW 3.2 mph5.1 kmh 30.34 in1027.4 mb 0.00 in0.0 mm 0.00 in0.0 mm 0.00 in0.0 mm
01:24 PM 62.6°F17.0°C 44.7°F7.1°C 52% 1.7 mph W2.7 kmh W 3.2 mph5.1 kmh 30.34 in1027.4 mb 0.00 in0.0 mm 0.00 in0.0 mm 0.00 in0.0 mm
01:25 PM 62.2°F16.8°C 44.9°F7.2°C 53% 1.7 mph W2.7 kmh W 3.2 mph5.1 kmh 30.34 in1027.4 mb 0.00 in0.0 mm 0.00 in0.0 mm 0.00 in0.0 mm
01:26 PM 62.4°F16.9°C 43.0°F6.1°C 49% Calm Calm 3.2 mph5.1 kmh 30.34 in1027.4 mb 0.00 in0.0 mm 0.00 in0.0 mm 0.00 in0.0 mm
01:27 PM 62.4°F16.9°C 41.9°F5.5°C 47% Calm Calm 3.2 mph5.1 kmh 30.34 in1027.4 mb 0.00 in0.0 mm 0.00 in0.0 mm 0.00 in0.0 mm
01:28 PM 62.6°F17.0°C 41.0°F5.0°C 45% 2.2 mph NW3.5 kmh NW 2.7 mph4.3 kmh 30.34 in1027.4 mb 0.00 in0.0 mm 0.00 in0.0 mm 0.00 in0.0 mm
01:29 PM 62.6°F17.0°C 42.1°F5.6°C 47% 1.7 mph NW2.7 kmh NW 2.7 mph4.3 kmh 30.34 in1027.4 mb 0.00 in0.0 mm 0.00 in0.0 mm 0.00 in0.0 mm
01:30 PM 62.1°F16.7°C 42.1°F5.6°C 48% 1.1 mph W1.8 kmh W 2.7 mph4.3 kmh 30.34 in1027.4 mb 0.00 in0.0 mm 0.00 in0.0 mm 0.00 in0.0 mm
01:31 PM 61.9°F16.6°C 43.6°F6.4°C 51% 2.2 mph W3.5 kmh W 2.7 mph4.3 kmh 30.34 in1027.4 mb 0.00 in0.0 mm 0.00 in0.0 mm 0.00 in0.0 mm
01:32 PM 61.9°F16.6°C 44.1°F6.7°C 52% 2.7 mph WNW4.3 kmh WNW 2.7 mph4.3 kmh 30.34 in1027.4 mb 0.00 in0.0 mm 0.00 in0.0 mm 0.00 in0.0 mm
01:33 PM 61.9°F16.6°C 43.0°F6.1°C 50% 1.7 mph WNW2.7 kmh WNW 2.7 mph4.3 kmh 30.34 in1027.4 mb 0.00 in0.0 mm 0.00 in0.0 mm 0.00 in0.0 mm
01:34 PM 61.9°F16.6°C 44.6°F7.0°C 53% 1.7 mph W2.7 kmh W 2.7 mph4.3 kmh 30.34 in1027.4 mb 0.00 in0.0 mm 0.00 in0.0 mm 0.00 in0.0 mm
01:35 PM 62.1°F16.7°C 43.2°F6.2°C 50% 1.1 mph NW1.8 kmh NW 2.7 mph4.3 kmh 30.34 in1027.4 mb 0.00 in0.0 mm 0.00 in0.0 mm 0.00 in0.0 mm
01:36 PM 62.1°F16.7°C 41.0°F5.0°C 46% 1.7 mph W2.7 kmh W 2.7 mph4.3 kmh 30.34 in1027.4 mb 0.00 in0.0 mm 0.00 in0.0 mm 0.00 in0.0 mm
01:37 PM 62.1°F16.7°C 41.6°F5.3°C 47% 1.7 mph N2.7 kmh N 2.7 mph4.3 kmh 30.34 in1027.4 mb 0.00 in0.0 mm 0.00 in0.0 mm 0.00 in0.0 mm
01:38 PM 63.0°F17.2°C 38.3°F3.5°C 40% 2.2 mph NNW3.5 kmh NNW 2.7 mph4.3 kmh 30.34 in1027.4 mb 0.00 in0.0 mm 0.00 in0.0 mm 0.00 in0.0 mm
01:39 PM 63.1°F17.3°C 37.1°F2.8°C 38% Calm Calm 2.7 mph4.3 kmh 30.34 in1027.4 mb 0.00 in0.0 mm 0.00 in0.0 mm 0.00 in0.0 mm
01:40 PM 63.3°F17.4°C 35.9°F2.2°C 36% 1.1 mph NNW1.8 kmh NNW 2.7 mph4.3 kmh 30.34 in1027.4 mb 0.00 in0.0 mm 0.00 in0.0 mm 0.00 in0.0 mm
01:41 PM 63.7°F17.6°C 35.5°F1.9°C 35% 1.7 mph NW2.7 kmh NW 2.7 mph4.3 kmh 30.34 in1027.4 mb 0.00 in0.0 mm 0.00 in0.0 mm 0.00 in0.0 mm
01:42 PM 63.9°F17.7°C 35.7°F2.1°C 35% 1.7 mph NNW2.7 kmh NNW 2.7 mph4.3 kmh 30.33 in1027.1 mb 0.00 in0.0 mm 0.00 in0.0 mm 0.00 in0.0 mm
01:43 PM 64.0°F17.8°C 36.5°F2.5°C 36% 1.1 mph WNW1.8 kmh WNW 2.2 mph3.5 kmh 30.33 in1027.1 mb 0.00 in0.0 mm 0.00 in0.0 mm 0.00 in0.0 mm
01:44 PM 63.9°F17.7°C 38.4°F3.6°C 39% 1.7 mph W2.7 kmh W 2.2 mph3.5 kmh 30.33 in1027.1 mb 0.00 in0.0 mm 0.00 in0.0 mm 0.00 in0.0 mm
01:45 PM 64.2°F17.9°C 38.1°F3.4°C 38% 1.1 mph NNE1.8 kmh NNE 2.2 mph3.5 kmh 30.33 in1027.1 mb 0.00 in0.0 mm 0.00 in0.0 mm 0.00 in0.0 mm
01:46 PM 64.8°F18.2°C 37.9°F3.3°C 37% 2.2 mph ENE3.5 kmh ENE 2.7 mph4.3 kmh 30.33 in1027.1 mb 0.00 in0.0 mm 0.00 in0.0 mm 0.00 in0.0 mm
01:47 PM 64.8°F18.2°C 37.9°F3.3°C 37% 3.7 mph ESE6.0 kmh ESE 3.7 mph6.0 kmh 30.33 in1027.1 mb 0.00 in0.0 mm 0.00 in0.0 mm 0.00 in0.0 mm
01:48 PM 64.6°F18.1°C 37.0°F2.8°C 36% 2.7 mph ESE4.3 kmh ESE 3.7 mph6.0 kmh 30.33 in1027.1 mb 0.00 in0.0 mm 0.00 in0.0 mm 0.00 in0.0 mm
01:49 PM 64.6°F18.1°C 37.0°F2.8°C 36% 2.7 mph NNE4.3 kmh NNE 3.7 mph6.0 kmh 30.33 in1027.1 mb 0.00 in0.0 mm 0.00 in0.0 mm 0.00 in0.0 mm
01:50 PM 64.6°F18.1°C 37.0°F2.8°C 36% 1.7 mph NNW2.7 kmh NNW 3.7 mph6.0 kmh 30.33 in1027.1 mb 0.00 in0.0 mm 0.00 in0.0 mm 0.00 in0.0 mm
01:51 PM 64.4°F18.0°C 36.2°F2.3°C 35% 2.7 mph ESE4.3 kmh ESE 3.7 mph6.0 kmh 30.33 in1027.1 mb 0.00 in0.0 mm 0.00 in0.0 mm 0.00 in0.0 mm
01:52 PM 64.4°F18.0°C 36.9°F2.7°C 36% Calm Calm 3.7 mph6.0 kmh 30.33 in1027.1 mb 0.00 in0.0 mm 0.00 in0.0 mm 0.00 in0.0 mm
01:53 PM 64.6°F18.1°C 37.0°F2.8°C 36% Calm Calm 3.7 mph6.0 kmh 30.33 in1027.1 mb 0.00 in0.0 mm 0.00 in0.0 mm 0.00 in0.0 mm
01:54 PM 64.9°F18.3°C 38.0°F3.3°C 37% 2.7 mph E4.3 kmh E 3.7 mph6.0 kmh 30.33 in1027.1 mb 0.00 in0.0 mm 0.00 in0.0 mm 0.00 in0.0 mm
01:55 PM 65.5°F18.6°C 38.5°F3.6°C 37% Calm Calm 3.7 mph6.0 kmh 30.32 in1026.8 mb 0.00 in0.0 mm 0.00 in0.0 mm 0.00 in0.0 mm
01:56 PM 65.8°F18.8°C 38.8°F3.8°C 37% 3.2 mph ESE5.1 kmh ESE 3.7 mph6.0 kmh 30.32 in1026.8 mb 0.00 in0.0 mm 0.00 in0.0 mm 0.00 in0.0 mm
01:57 PM 65.8°F18.8°C 38.8°F3.8°C 37% 1.7 mph NE2.7 kmh NE 3.7 mph6.0 kmh 30.32 in1026.8 mb 0.00 in0.0 mm 0.00 in0.0 mm 0.00 in0.0 mm
01:58 PM 65.8°F18.8°C 38.1°F3.4°C 36% 2.2 mph NNE3.5 kmh NNE 3.2 mph5.1 kmh 30.32 in1026.8 mb 0.00 in0.0 mm 0.00 in0.0 mm 0.00 in0.0 mm
01:59 PM 65.7°F18.7°C 37.3°F2.9°C 35% 4.2 mph NNE6.8 kmh NNE 4.2 mph6.8 kmh 30.32 in1026.8 mb 0.00 in0.0 mm 0.00 in0.0 mm 0.00 in0.0 mm
02:00 PM 65.5°F18.6°C 37.1°F2.8°C 35% 1.7 mph ESE2.7 kmh ESE 4.2 mph6.8 kmh 30.32 in1026.8 mb 0.00 in0.0 mm 0.00 in0.0 mm 0.00 in0.0 mm
02:01 PM 65.1°F18.4°C 37.5°F3.1°C 36% 2.7 mph NNE4.3 kmh NNE 4.2 mph6.8 kmh 30.32 in1026.8 mb 0.00 in0.0 mm 0.00 in0.0 mm 0.00 in0.0 mm
02:02 PM 65.1°F18.4°C 37.5°F3.1°C 36% 1.7 mph ESE2.7 kmh ESE 4.2 mph6.8 kmh 30.32 in1026.8 mb 0.00 in0.0 mm 0.00 in0.0 mm 0.00 in0.0 mm
02:03 PM 64.9°F18.3°C 36.6°F2.6°C 35% 2.2 mph NW3.5 kmh NW 4.2 mph6.8 kmh 30.32 in1026.8 mb 0.00 in0.0 mm 0.00 in0.0 mm 0.00 in0.0 mm
02:04 PM 64.8°F18.2°C 36.5°F2.5°C 35% 2.7 mph NE4.3 kmh NE 4.2 mph6.8 kmh 30.32 in1026.8 mb 0.00 in0.0 mm 0.00 in0.0 mm 0.00 in0.0 mm
02:05 PM 64.4°F18.0°C 36.2°F2.3°C 35% 2.7 mph SSE4.3 kmh SSE 4.2 mph6.8 kmh 30.32 in1026.8 mb 0.00 in0.0 mm 0.00 in0.0 mm 0.00 in0.0 mm
02:06 PM 64.6°F18.1°C 37.0°F2.8°C 36% 2.2 mph E3.5 kmh E 4.2 mph6.8 kmh 30.32 in1026.8 mb 0.00 in0.0 mm 0.00 in0.0 mm 0.00 in0.0 mm
02:07 PM 64.8°F18.2°C 37.2°F2.9°C 36% 2.2 mph NE3.5 kmh NE 4.2 mph6.8 kmh 30.32 in1026.8 mb 0.00 in0.0 mm 0.00 in0.0 mm 0.00 in0.0 mm
02:08 PM 64.8°F18.2°C 37.9°F3.3°C 37% 1.1 mph N1.8 kmh N 4.2 mph6.8 kmh 30.32 in1026.8 mb 0.00 in0.0 mm 0.00 in0.0 mm 0.00 in0.0 mm
02:09 PM 64.9°F18.3°C 38.0°F3.3°C 37% 2.7 mph ESE4.3 kmh ESE 2.7 mph4.3 kmh 30.32 in1026.8 mb 0.00 in0.0 mm 0.00 in0.0 mm 0.00 in0.0 mm
02:10 PM 64.8°F18.2°C 37.9°F3.3°C 37% 1.1 mph ESE1.8 kmh ESE 3.7 mph6.0 kmh 30.32 in1026.8 mb 0.00 in0.0 mm 0.00 in0.0 mm 0.00 in0.0 mm
02:11 PM 64.8°F18.2°C 37.9°F3.3°C 37% 2.2 mph N3.5 kmh N 3.7 mph6.0 kmh 30.32 in1026.8 mb 0.00 in0.0 mm 0.00 in0.0 mm 0.00 in0.0 mm
02:12 PM 64.8°F18.2°C 37.2°F2.9°C 36% 2.7 mph NNE4.3 kmh NNE 3.7 mph6.0 kmh 30.32 in1026.8 mb 0.00 in0.0 mm 0.00 in0.0 mm 0.00 in0.0 mm
02:13 PM 64.6°F18.1°C 36.3°F2.4°C 35% 2.7 mph NE4.3 kmh NE 3.7 mph6.0 kmh 30.32 in1026.8 mb 0.00 in0.0 mm 0.00 in0.0 mm 0.00 in0.0 mm
02:14 PM 64.6°F18.1°C 36.3°F2.4°C 35% 1.7 mph N2.7 kmh N 3.7 mph6.0 kmh 30.32 in1026.8 mb 0.00 in0.0 mm 0.00 in0.0 mm 0.00 in0.0 mm
02:15 PM 64.2°F17.9°C 36.0°F2.2°C 35% 1.7 mph NE2.7 kmh NE 3.7 mph6.0 kmh 30.32 in1026.8 mb 0.00 in0.0 mm 0.00 in0.0 mm 0.00 in0.0 mm
02:16 PM 64.2°F17.9°C 36.7°F2.6°C 36% 2.2 mph NE3.5 kmh NE 3.7 mph6.0 kmh 30.32 in1026.8 mb 0.00 in0.0 mm 0.00 in0.0 mm 0.00 in0.0 mm
02:17 PM 64.2°F17.9°C 36.7°F2.6°C 36% 1.7 mph NNE2.7 kmh NNE 3.7 mph6.0 kmh 30.32 in1026.8 mb 0.00 in0.0 mm 0.00 in0.0 mm 0.00 in0.0 mm
02:18 PM 64.0°F17.8°C 36.5°F2.5°C 36% 2.2 mph NNE3.5 kmh NNE 3.7 mph6.0 kmh 30.32 in1026.8 mb 0.00 in0.0 mm 0.00 in0.0 mm 0.00 in0.0 mm
02:19 PM 64.0°F17.8°C 36.5°F2.5°C 36% 1.1 mph ENE1.8 kmh ENE 3.7 mph6.0 kmh 30.32 in1026.8 mb 0.00 in0.0 mm 0.00 in0.0 mm 0.00 in0.0 mm
02:20 PM 64.0°F17.8°C 36.5°F2.5°C 36% 1.1 mph NE1.8 kmh NE 3.2 mph5.1 kmh 30.32 in1026.8 mb 0.00 in0.0 mm 0.00 in0.0 mm 0.00 in0.0 mm
02:21 PM 63.9°F17.7°C 35.7°F2.1°C 35% 3.2 mph NNE5.1 kmh NNE 3.2 mph5.1 kmh 30.32 in1026.8 mb 0.00 in0.0 mm 0.00 in0.0 mm 0.00 in0.0 mm
02:22 PM 63.9°F17.7°C 34.9°F1.6°C 34% 2.2 mph E3.5 kmh E 3.2 mph5.1 kmh 30.32 in1026.8 mb 0.00 in0.0 mm 0.00 in0.0 mm 0.00 in0.0 mm
02:23 PM 63.9°F17.7°C 34.9°F1.6°C 34% 1.7 mph ESE2.7 kmh ESE 3.2 mph5.1 kmh 30.32 in1026.8 mb 0.00 in0.0 mm 0.00 in0.0 mm 0.00 in0.0 mm
02:24 PM 63.5°F17.5°C 34.6°F1.4°C 34% 1.7 mph NNE2.7 kmh NNE 3.2 mph5.1 kmh 30.32 in1026.8 mb 0.00 in0.0 mm 0.00 in0.0 mm 0.00 in0.0 mm
02:25 PM 63.5°F17.5°C 33.9°F1.1°C 33% Calm Calm 3.2 mph5.1 kmh 30.32 in1026.8 mb 0.00 in0.0 mm 0.00 in0.0 mm 0.00 in0.0 mm
02:26 PM 63.7°F17.6°C 34.8°F1.6°C 34% Calm Calm 3.2 mph5.1 kmh 30.32 in1026.8 mb 0.00 in0.0 mm 0.00 in0.0 mm 0.00 in0.0 mm
02:27 PM 63.9°F17.7°C 34.9°F1.6°C 34% 2.2 mph SSE3.5 kmh SSE 3.2 mph5.1 kmh 30.32 in1026.8 mb 0.00 in0.0 mm 0.00 in0.0 mm 0.00 in0.0 mm
02:28 PM 63.9°F17.7°C 34.9°F1.6°C 34% 1.1 mph ESE1.8 kmh ESE 3.2 mph5.1 kmh 30.32 in1026.8 mb 0.00 in0.0 mm 0.00 in0.0 mm 0.00 in0.0 mm
02:29 PM 64.0°F17.8°C 36.5°F2.5°C 36% 1.7 mph ESE2.7 kmh ESE 3.2 mph5.1 kmh 30.32 in1026.8 mb 0.00 in0.0 mm 0.00 in0.0 mm 0.00 in0.0 mm
02:30 PM 64.0°F17.8°C 36.5°F2.5°C 36% 2.7 mph S4.3 kmh S 3.2 mph5.1 kmh 30.32 in1026.8 mb 0.00 in0.0 mm 0.00 in0.0 mm 0.00 in0.0 mm
02:31 PM 64.0°F17.8°C 36.5°F2.5°C 36% 2.7 mph ENE4.3 kmh ENE 3.2 mph5.1 kmh 30.32 in1026.8 mb 0.00 in0.0 mm 0.00 in0.0 mm 0.00 in0.0 mm
02:32 PM 63.9°F17.7°C 35.7°F2.1°C 35% 1.7 mph ESE2.7 kmh ESE 2.7 mph4.3 kmh 30.32 in1026.8 mb 0.00 in0.0 mm 0.00 in0.0 mm 0.00 in0.0 mm
02:33 PM 63.9°F17.7°C 36.4°F2.4°C 36% 1.7 mph ESE2.7 kmh ESE 2.7 mph4.3 kmh 30.32 in1026.8 mb 0.00 in0.0 mm 0.00 in0.0 mm 0.00 in0.0 mm
02:34 PM 63.9°F17.7°C 36.4°F2.4°C 36% Calm Calm 2.7 mph4.3 kmh 30.32 in1026.8 mb 0.00 in0.0 mm 0.00 in0.0 mm 0.00 in0.0 mm
02:35 PM 64.0°F17.8°C 37.2°F2.9°C 37% 2.2 mph ESE3.5 kmh ESE 2.7 mph4.3 kmh 30.32 in1026.8 mb 0.00 in0.0 mm 0.00 in0.0 mm 0.00 in0.0 mm
02:36 PM 64.2°F17.9°C 37.4°F3.0°C 37% 2.2 mph NNW3.5 kmh NNW 3.7 mph6.0 kmh 30.32 in1026.8 mb 0.00 in0.0 mm 0.00 in0.0 mm 0.00 in0.0 mm
02:37 PM 64.2°F17.9°C 36.0°F2.2°C 35% 2.2 mph ESE3.5 kmh ESE 3.7 mph6.0 kmh 30.32 in1026.8 mb 0.00 in0.0 mm 0.00 in0.0 mm 0.00 in0.0 mm
02:38 PM 64.2°F17.9°C 36.0°F2.2°C 35% 2.2 mph ESE3.5 kmh ESE 3.7 mph6.0 kmh 30.32 in1026.8 mb 0.00 in0.0 mm 0.00 in0.0 mm 0.00 in0.0 mm
02:39 PM 64.2°F17.9°C 36.0°F2.2°C 35% 1.7 mph NE2.7 kmh NE 3.7 mph6.0 kmh 30.32 in1026.8 mb 0.00 in0.0 mm 0.00 in0.0 mm 0.00 in0.0 mm
02:40 PM 64.2°F17.9°C 36.0°F2.2°C 35% 1.7 mph NNE2.7 kmh NNE 3.7 mph6.0 kmh 30.32 in1026.8 mb 0.00 in0.0 mm 0.00 in0.0 mm 0.00 in0.0 mm
02:41 PM 64.2°F17.9°C 36.0°F2.2°C 35% 1.7 mph N2.7 kmh N 3.7 mph6.0 kmh 30.32 in1026.8 mb 0.00 in0.0 mm 0.00 in0.0 mm 0.00 in0.0 mm
02:42 PM 64.2°F17.9°C 35.3°F1.8°C 34% 1.1 mph NNE1.8 kmh NNE 3.7 mph6.0 kmh 30.32 in1026.8 mb 0.00 in0.0 mm 0.00 in0.0 mm 0.00 in0.0 mm
02:43 PM 64.2°F17.9°C 36.0°F2.2°C 35% 2.2 mph N3.5 kmh N 3.7 mph6.0 kmh 30.31 in1026.4 mb 0.00 in0.0 mm 0.00 in0.0 mm 0.00 in0.0 mm
02:44 PM 64.4°F18.0°C 35.4°F1.9°C 34% 2.7 mph ESE4.3 kmh ESE 3.7 mph6.0 kmh 30.31 in1026.4 mb 0.00 in0.0 mm 0.00 in0.0 mm 0.00 in0.0 mm
02:45 PM 64.6°F18.1°C 36.3°F2.4°C 35% 1.7 mph E2.7 kmh E 3.7 mph6.0 kmh 30.31 in1026.4 mb 0.00 in0.0 mm 0.00 in0.0 mm 0.00 in0.0 mm
02:46 PM 64.6°F18.1°C 36.3°F2.4°C 35% 1.7 mph NNW2.7 kmh NNW 2.7 mph4.3 kmh 30.31 in1026.4 mb 0.00 in0.0 mm 0.00 in0.0 mm 0.00 in0.0 mm
02:47 PM 64.4°F18.0°C 36.9°F2.7°C 36% 1.7 mph NNW2.7 kmh NNW 2.7 mph4.3 kmh 30.31 in1026.4 mb 0.00 in0.0 mm 0.00 in0.0 mm 0.00 in0.0 mm
02:48 PM 64.6°F18.1°C 37.0°F2.8°C 36% 2.7 mph NNE4.3 kmh NNE 3.7 mph6.0 kmh 30.31 in1026.4 mb 0.00 in0.0 mm 0.00 in0.0 mm 0.00 in0.0 mm
02:49 PM 64.4°F18.0°C 36.9°F2.7°C 36% 3.2 mph NNE5.1 kmh NNE 3.7 mph6.0 kmh 30.31 in1026.4 mb 0.00 in0.0 mm 0.00 in0.0 mm 0.00 in0.0 mm
02:50 PM 64.2°F17.9°C 37.4°F3.0°C 37% 2.2 mph ESE3.5 kmh ESE 3.7 mph6.0 kmh 30.31 in1026.4 mb 0.00 in0.0 mm 0.00 in0.0 mm 0.00 in0.0 mm
02:51 PM 64.2°F17.9°C 38.1°F3.4°C 38% 3.2 mph SE5.1 kmh SE 3.7 mph6.0 kmh 30.31 in1026.4 mb 0.00 in0.0 mm 0.00 in0.0 mm 0.00 in0.0 mm
02:52 PM 64.2°F17.9°C 38.1°F3.4°C 38% 1.7 mph ENE2.7 kmh ENE 3.7 mph6.0 kmh 30.31 in1026.4 mb 0.00 in0.0 mm 0.00 in0.0 mm 0.00 in0.0 mm
02:53 PM 64.0°F17.8°C 37.9°F3.3°C 38% 2.7 mph ESE4.3 kmh ESE 3.7 mph6.0 kmh 30.31 in1026.4 mb 0.00 in0.0 mm 0.00 in0.0 mm 0.00 in0.0 mm
02:54 PM 64.0°F17.8°C 37.2°F2.9°C 37% 1.7 mph E2.7 kmh E 3.7 mph6.0 kmh 30.31 in1026.4 mb 0.00 in0.0 mm 0.00 in0.0 mm 0.00 in0.0 mm
02:55 PM 64.0°F17.8°C 37.2°F2.9°C 37% 2.2 mph E3.5 kmh E 3.7 mph6.0 kmh 30.31 in1026.4 mb 0.00 in0.0 mm 0.00 in0.0 mm 0.00 in0.0 mm
02:56 PM 64.0°F17.8°C 37.9°F3.3°C 38% 4.2 mph ESE6.8 kmh ESE 4.2 mph6.8 kmh 30.31 in1026.4 mb 0.00 in0.0 mm 0.00 in0.0 mm 0.00 in0.0 mm
02:57 PM 64.0°F17.8°C 38.6°F3.7°C 39% 3.2 mph ESE5.1 kmh ESE 4.2 mph6.8 kmh 30.31 in1026.4 mb 0.00 in0.0 mm 0.00 in0.0 mm 0.00 in0.0 mm
02:58 PM 63.9°F17.7°C 37.8°F3.2°C 38% 2.7 mph ESE4.3 kmh ESE 4.2 mph6.8 kmh 30.31 in1026.4 mb 0.00 in0.0 mm 0.00 in0.0 mm 0.00 in0.0 mm
02:59 PM 63.9°F17.7°C 37.1°F2.8°C 37% 2.7 mph ESE4.3 kmh ESE 4.2 mph6.8 kmh 30.31 in1026.4 mb 0.00 in0.0 mm 0.00 in0.0 mm 0.00 in0.0 mm
03:00 PM 63.9°F17.7°C 37.1°F2.8°C 37% 2.2 mph ESE3.5 kmh ESE 4.2 mph6.8 kmh 30.31 in1026.4 mb 0.00 in0.0 mm 0.00 in0.0 mm 0.00 in0.0 mm
03:01 PM 64.0°F17.8°C 37.2°F2.9°C 37% 2.7 mph NE4.3 kmh NE 4.2 mph6.8 kmh 30.31 in1026.4 mb 0.00 in0.0 mm 0.00 in0.0 mm 0.00 in0.0 mm
03:02 PM 63.9°F17.7°C 37.1°F2.8°C 37% 1.1 mph ESE1.8 kmh ESE 4.2 mph6.8 kmh 30.31 in1026.4 mb 0.00 in0.0 mm 0.00 in0.0 mm 0.00 in0.0 mm
03:03 PM 63.9°F17.7°C 37.1°F2.8°C 37% 2.7 mph ESE4.3 kmh ESE 4.2 mph6.8 kmh 30.31 in1026.4 mb 0.00 in0.0 mm 0.00 in0.0 mm 0.00 in0.0 mm
03:04 PM 64.0°F17.8°C 37.2°F2.9°C 37% 2.2 mph ESE3.5 kmh ESE 4.2 mph6.8 kmh 30.31 in1026.4 mb 0.00 in0.0 mm 0.00 in0.0 mm 0.00 in0.0 mm
03:05 PM 64.2°F17.9°C 37.4°F3.0°C 37% 2.7 mph ESE4.3 kmh ESE 4.2 mph6.8 kmh 30.31 in1026.4 mb 0.00 in0.0 mm 0.00 in0.0 mm 0.00 in0.0 mm
03:06 PM 64.4°F18.0°C 38.2°F3.4°C 38% 1.1 mph SE1.8 kmh SE 4.2 mph6.8 kmh 30.31 in1026.4 mb 0.00 in0.0 mm 0.00 in0.0 mm 0.00 in0.0 mm
03:07 PM 64.4°F18.0°C 37.6°F3.1°C 37% 1.7 mph SE2.7 kmh SE 4.2 mph6.8 kmh 30.31 in1026.4 mb 0.00 in0.0 mm 0.00 in0.0 mm 0.00 in0.0 mm
03:08 PM 64.6°F18.1°C 37.7°F3.2°C 37% 1.7 mph NNE2.7 kmh NNE 4.2 mph6.8 kmh 30.31 in1026.4 mb 0.00 in0.0 mm 0.00 in0.0 mm 0.00 in0.0 mm
03:09 PM 64.8°F18.2°C 37.9°F3.3°C 37% 2.2 mph SE3.5 kmh SE 4.2 mph6.8 kmh 30.31 in1026.4 mb 0.00 in0.0 mm 0.00 in0.0 mm 0.00 in0.0 mm
03:10 PM 64.6°F18.1°C 37.7°F3.2°C 37% 2.7 mph ESE4.3 kmh ESE 4.2 mph6.8 kmh 30.31 in1026.4 mb 0.00 in0.0 mm 0.00 in0.0 mm 0.00 in0.0 mm
03:11 PM 64.4°F18.0°C 38.2°F3.4°C 38% 1.7 mph SE2.7 kmh SE 4.2 mph6.8 kmh 30.31 in1026.4 mb 0.00 in0.0 mm 0.00 in0.0 mm 0.00 in0.0 mm
03:12 PM 64.2°F17.9°C 38.1°F3.4°C 38% 1.1 mph N1.8 kmh N 4.2 mph6.8 kmh 30.31 in1026.4 mb 0.00 in0.0 mm 0.00 in0.0 mm 0.00 in0.0 mm
03:13 PM 63.9°F17.7°C 37.1°F2.8°C 37% 2.2 mph E3.5 kmh E 4.2 mph6.8 kmh 30.31 in1026.4 mb 0.00 in0.0 mm 0.00 in0.0 mm 0.00 in0.0 mm
03:14 PM 63.7°F17.6°C 36.9°F2.7°C 37% 1.7 mph NNE2.7 kmh NNE 4.2 mph6.8 kmh 30.31 in1026.4 mb 0.00 in0.0 mm 0.00 in0.0 mm 0.00 in0.0 mm
03:15 PM 63.5°F17.5°C 37.4°F3.0°C 38% 1.1 mph ESE1.8 kmh ESE 4.2 mph6.8 kmh 30.31 in1026.4 mb 0.00 in0.0 mm 0.00 in0.0 mm 0.00 in0.0 mm
03:16 PM 63.5°F17.5°C 38.7°F3.7°C 40% 1.7 mph ESE2.7 kmh ESE 4.2 mph6.8 kmh 30.31 in1026.4 mb 0.00 in0.0 mm 0.00 in0.0 mm 0.00 in0.0 mm
03:17 PM 63.5°F17.5°C 38.7°F3.7°C 40% 1.7 mph ESE2.7 kmh ESE 4.2 mph6.8 kmh 30.31 in1026.4 mb 0.00 in0.0 mm 0.00 in0.0 mm 0.00 in0.0 mm
03:18 PM 63.5°F17.5°C 38.7°F3.7°C 40% 1.7 mph ESE2.7 kmh ESE 4.2 mph6.8 kmh 30.31 in1026.4 mb 0.00 in0.0 mm 0.00 in0.0 mm 0.00 in0.0 mm
03:19 PM 63.5°F17.5°C 38.1°F3.4°C 39% 1.7 mph ESE2.7 kmh ESE 2.7 mph4.3 kmh 30.31 in1026.4 mb 0.00 in0.0 mm 0.00 in0.0 mm 0.00 in0.0 mm
03:20 PM 63.5°F17.5°C 38.1°F3.4°C 39% 2.7 mph ESE4.3 kmh ESE 2.7 mph4.3 kmh 30.31 in1026.4 mb 0.00 in0.0 mm 0.00 in0.0 mm 0.00 in0.0 mm
03:21 PM 63.5°F17.5°C 38.1°F3.4°C 39% 1.7 mph ESE2.7 kmh ESE 2.7 mph4.3 kmh 30.31 in1026.4 mb 0.00 in0.0 mm 0.00 in0.0 mm 0.00 in0.0 mm
03:22 PM 63.5°F17.5°C 38.1°F3.4°C 39% 1.7 mph ESE2.7 kmh ESE 2.7 mph4.3 kmh 30.31 in1026.4 mb 0.00 in0.0 mm 0.00 in0.0 mm 0.00 in0.0 mm
03:23 PM 63.7°F17.6°C 38.3°F3.5°C 39% 3.2 mph ESE5.1 kmh ESE 3.2 mph5.1 kmh 30.31 in1026.4 mb 0.00 in0.0 mm 0.00 in0.0 mm 0.00 in0.0 mm
03:24 PM 63.9°F17.7°C 37.1°F2.8°C 37% 3.2 mph ESE5.1 kmh ESE 3.2 mph5.1 kmh 30.31 in1026.4 mb 0.00 in0.0 mm 0.00 in0.0 mm 0.00 in0.0 mm
03:25 PM 63.7°F17.6°C 36.9°F2.7°C 37% 1.1 mph NE1.8 kmh NE 3.7 mph6.0 kmh 30.31 in1026.4 mb 0.00 in0.0 mm 0.00 in0.0 mm 0.00 in0.0 mm
03:26 PM 63.3°F17.4°C 37.3°F2.9°C 38% 2.2 mph NE3.5 kmh NE 3.7 mph6.0 kmh 30.31 in1026.4 mb 0.00 in0.0 mm 0.00 in0.0 mm 0.00 in0.0 mm
03:27 PM 63.3°F17.4°C 37.9°F3.3°C 39% 2.2 mph ESE3.5 kmh ESE 3.7 mph6.0 kmh 30.31 in1026.4 mb 0.00 in0.0 mm 0.00 in0.0 mm 0.00 in0.0 mm
03:28 PM 63.3°F17.4°C 37.3°F2.9°C 38% 1.7 mph ESE2.7 kmh ESE 3.7 mph6.0 kmh 30.31 in1026.4 mb 0.00 in0.0 mm 0.00 in0.0 mm 0.00 in0.0 mm
03:29 PM 63.3°F17.4°C 37.3°F2.9°C 38% 2.2 mph ESE3.5 kmh ESE 3.7 mph6.0 kmh 30.31 in1026.4 mb 0.00 in0.0 mm 0.00 in0.0 mm 0.00 in0.0 mm
03:30 PM 63.3°F17.4°C 37.3°F2.9°C 38% 2.7 mph NNE4.3 kmh NNE 3.7 mph6.0 kmh 30.31 in1026.4 mb 0.00 in0.0 mm 0.00 in0.0 mm 0.00 in0.0 mm
03:31 PM 63.3°F17.4°C 37.9°F3.3°C 39% 3.2 mph ESE5.1 kmh ESE 3.7 mph6.0 kmh 30.31 in1026.4 mb 0.00 in0.0 mm 0.00 in0.0 mm 0.00 in0.0 mm
03:32 PM 63.1°F17.3°C 37.8°F3.2°C 39% 1.7 mph SE2.7 kmh SE 3.7 mph6.0 kmh 30.31 in1026.4 mb 0.00 in0.0 mm 0.00 in0.0 mm 0.00 in0.0 mm
03:33 PM 63.1°F17.3°C 37.8°F3.2°C 39% 2.2 mph ESE3.5 kmh ESE 3.7 mph6.0 kmh 30.31 in1026.4 mb 0.00 in0.0 mm 0.00 in0.0 mm 0.00 in0.0 mm
03:34 PM 63.1°F17.3°C 37.8°F3.2°C 39% 1.7 mph NE2.7 kmh NE 3.7 mph6.0 kmh 30.31 in1026.4 mb 0.00 in0.0 mm 0.00 in0.0 mm 0.00 in0.0 mm
03:35 PM 63.3°F17.4°C 37.3°F2.9°C 38% 1.7 mph SE2.7 kmh SE 3.2 mph5.1 kmh 30.31 in1026.4 mb 0.00 in0.0 mm 0.00 in0.0 mm 0.00 in0.0 mm
03:36 PM 63.9°F17.7°C 37.8°F3.2°C 38% 1.1 mph NE1.8 kmh NE 3.2 mph5.1 kmh 30.31 in1026.4 mb 0.00 in0.0 mm 0.00 in0.0 mm 0.00 in0.0 mm
03:37 PM 63.9°F17.7°C 37.1°F2.8°C 37% Calm Calm 3.2 mph5.1 kmh 30.31 in1026.4 mb 0.00 in0.0 mm 0.00 in0.0 mm 0.00 in0.0 mm
03:38 PM 63.9°F17.7°C 37.1°F2.8°C 37% 2.2 mph ESE3.5 kmh ESE 3.2 mph5.1 kmh 30.31 in1026.4 mb 0.00 in0.0 mm 0.00 in0.0 mm 0.00 in0.0 mm
03:39 PM 63.9°F17.7°C 37.1°F2.8°C 37% 1.7 mph E2.7 kmh E 3.2 mph5.1 kmh 30.31 in1026.4 mb 0.00 in0.0 mm 0.00 in0.0 mm 0.00 in0.0 mm
03:40 PM 64.2°F17.9°C 37.4°F3.0°C 37% Calm Calm 3.2 mph5.1 kmh 30.31 in1026.4 mb 0.00 in0.0 mm 0.00 in0.0 mm 0.00 in0.0 mm
03:41 PM 64.2°F17.9°C 38.1°F3.4°C 38% 2.2 mph ESE3.5 kmh ESE 3.2 mph5.1 kmh 30.31 in1026.4 mb 0.00 in0.0 mm 0.00 in0.0 mm 0.00 in0.0 mm
03:42 PM 64.2°F17.9°C 37.4°F3.0°C 37% 1.7 mph ESE2.7 kmh ESE 3.2 mph5.1 kmh 30.31 in1026.4 mb 0.00 in0.0 mm 0.00 in0.0 mm 0.00 in0.0 mm
03:43 PM 64.2°F17.9°C 37.4°F3.0°C 37% 2.7 mph ENE4.3 kmh ENE 3.2 mph5.1 kmh 30.32 in1026.8 mb 0.00 in0.0 mm 0.00 in0.0 mm 0.00 in0.0 mm
03:44 PM 64.2°F17.9°C 37.4°F3.0°C 37% 2.2 mph NE3.5 kmh NE 3.2 mph5.1 kmh 30.32 in1026.8 mb 0.00 in0.0 mm 0.00 in0.0 mm 0.00 in0.0 mm
03:45 PM 64.0°F17.8°C 37.9°F3.3°C 38% 1.1 mph N1.8 kmh N 3.2 mph5.1 kmh 30.32 in1026.8 mb 0.00 in0.0 mm 0.00 in0.0 mm 0.00 in0.0 mm
03:46 PM 63.9°F17.7°C 37.8°F3.2°C 38% 1.7 mph ESE2.7 kmh ESE 3.2 mph5.1 kmh 30.32 in1026.8 mb 0.00 in0.0 mm 0.00 in0.0 mm 0.00 in0.0 mm
03:47 PM 63.9°F17.7°C 37.8°F3.2°C 38% 1.7 mph ESE2.7 kmh ESE 2.7 mph4.3 kmh 30.32 in1026.8 mb 0.00 in0.0 mm 0.00 in0.0 mm 0.00 in0.0 mm
03:48 PM 63.9°F17.7°C 38.4°F3.6°C 39% Calm Calm 2.7 mph4.3 kmh 30.32 in1026.8 mb 0.00 in0.0 mm 0.00 in0.0 mm 0.00 in0.0 mm
03:49 PM 63.9°F17.7°C 38.4°F3.6°C 39% 2.2 mph E3.5 kmh E 2.7 mph4.3 kmh 30.32 in1026.8 mb 0.00 in0.0 mm 0.00 in0.0 mm 0.00 in0.0 mm
03:50 PM 63.7°F17.6°C 38.3°F3.5°C 39% 1.7 mph NNE2.7 kmh NNE 2.7 mph4.3 kmh 30.32 in1026.8 mb 0.00 in0.0 mm 0.00 in0.0 mm 0.00 in0.0 mm
03:51 PM 63.7°F17.6°C 38.3°F3.5°C 39% 1.1 mph E1.8 kmh E 2.7 mph4.3 kmh 30.32 in1026.8 mb 0.00 in0.0 mm 0.00 in0.0 mm 0.00 in0.0 mm
03:52 PM 63.7°F17.6°C 38.3°F3.5°C 39% 1.7 mph N2.7 kmh N 2.7 mph4.3 kmh 30.32 in1026.8 mb 0.00 in0.0 mm 0.00 in0.0 mm 0.00 in0.0 mm
03:53 PM 63.7°F17.6°C 38.3°F3.5°C 39% 1.1 mph W1.8 kmh W 2.7 mph4.3 kmh 30.32 in1026.8 mb 0.00 in0.0 mm 0.00 in0.0 mm 0.00 in0.0 mm
03:54 PM 63.7°F17.6°C 38.3°F3.5°C 39% 1.7 mph E2.7 kmh E 2.7 mph4.3 kmh 30.32 in1026.8 mb 0.00 in0.0 mm 0.00 in0.0 mm 0.00 in0.0 mm
03:55 PM 63.5°F17.5°C 38.1°F3.4°C 39% 1.7 mph ESE2.7 kmh ESE 2.7 mph4.3 kmh 30.32 in1026.8 mb 0.00 in0.0 mm 0.00 in0.0 mm 0.00 in0.0 mm
03:56 PM 63.3°F17.4°C 37.9°F3.3°C 39% 1.7 mph ESE2.7 kmh ESE 2.2 mph3.5 kmh 30.32 in1026.8 mb 0.00 in0.0 mm 0.00 in0.0 mm 0.00 in0.0 mm
03:57 PM 63.3°F17.4°C 38.6°F3.7°C 40% 1.7 mph E2.7 kmh E 2.2 mph3.5 kmh 30.32 in1026.8 mb 0.00 in0.0 mm 0.00 in0.0 mm 0.00 in0.0 mm
03:58 PM 63.3°F17.4°C 38.6°F3.7°C 40% 1.1 mph ESE1.8 kmh ESE 2.2 mph3.5 kmh 30.32 in1026.8 mb 0.00 in0.0 mm 0.00 in0.0 mm 0.00 in0.0 mm
03:59 PM 63.1°F17.3°C 39.1°F3.9°C 41% Calm Calm 2.2 mph3.5 kmh 30.32 in1026.8 mb 0.00 in0.0 mm 0.00 in0.0 mm 0.00 in0.0 mm
04:00 PM 63.1°F17.3°C 39.1°F3.9°C 41% Calm Calm 2.2 mph3.5 kmh 30.32 in1026.8 mb 0.00 in0.0 mm 0.00 in0.0 mm 0.00 in0.0 mm
04:01 PM 63.1°F17.3°C 39.1°F3.9°C 41% 2.2 mph SSE3.5 kmh SSE 2.2 mph3.5 kmh 30.32 in1026.8 mb 0.00 in0.0 mm 0.00 in0.0 mm 0.00 in0.0 mm
04:02 PM 63.0°F17.2°C 38.9°F3.8°C 41% Calm Calm 2.2 mph3.5 kmh 30.32 in1026.8 mb 0.00 in0.0 mm 0.00 in0.0 mm 0.00 in0.0 mm
04:03 PM 63.0°F17.2°C 39.5°F4.2°C 42% Calm Calm 2.2 mph3.5 kmh 30.32 in1026.8 mb 0.00 in0.0 mm 0.00 in0.0 mm 0.00 in0.0 mm
04:04 PM 63.0°F17.2°C 39.5°F4.2°C 42% Calm Calm 2.2 mph3.5 kmh 30.32 in1026.8 mb 0.00 in0.0 mm 0.00 in0.0 mm 0.00 in0.0 mm
04:05 PM 62.8°F17.1°C 39.3°F4.1°C 42% Calm Calm 2.2 mph3.5 kmh 30.32 in1026.8 mb 0.00 in0.0 mm 0.00 in0.0 mm 0.00 in0.0 mm
04:06 PM 62.6°F17.0°C 39.8°F4.3°C 43% 1.1 mph NE1.8 kmh NE 2.2 mph3.5 kmh 30.31 in1026.4 mb 0.00 in0.0 mm 0.00 in0.0 mm 0.00 in0.0 mm
04:07 PM 62.6°F17.0°C 39.8°F4.3°C 43% Calm Calm 2.2 mph3.5 kmh 30.31 in1026.4 mb 0.00 in0.0 mm 0.00 in0.0 mm 0.00 in0.0 mm
04:08 PM 62.6°F17.0°C 40.4°F4.7°C 44% Calm Calm 2.2 mph3.5 kmh 30.31 in1026.4 mb 0.00 in0.0 mm 0.00 in0.0 mm 0.00 in0.0 mm
04:09 PM 62.6°F17.0°C 40.4°F4.7°C 44% Calm Calm 2.2 mph3.5 kmh 30.31 in1026.4 mb 0.00 in0.0 mm 0.00 in0.0 mm 0.00 in0.0 mm
04:10 PM 62.6°F17.0°C 40.4°F4.7°C 44% Calm Calm 2.2 mph3.5 kmh 30.31 in1026.4 mb 0.00 in0.0 mm 0.00 in0.0 mm 0.00 in0.0 mm
04:11 PM 62.4°F16.9°C 40.2°F4.6°C 44% Calm Calm 1.7 mph2.7 kmh 30.31 in1026.4 mb 0.00 in0.0 mm 0.00 in0.0 mm 0.00 in0.0 mm
04:12 PM 62.2°F16.8°C 40.1°F4.5°C 44% Calm Calm 1.7 mph2.7 kmh 30.31 in1026.4 mb 0.00 in0.0 mm 0.00 in0.0 mm 0.00 in0.0 mm
04:13 PM 62.2°F16.8°C 39.5°F4.2°C 43% Calm Calm 1.7 mph2.7 kmh 30.31 in1026.4 mb 0.00 in0.0 mm 0.00 in0.0 mm 0.00 in0.0 mm
04:14 PM 62.1°F16.7°C 39.3°F4.1°C 43% Calm Calm 1.7 mph2.7 kmh 30.31 in1026.4 mb 0.00 in0.0 mm 0.00 in0.0 mm 0.00 in0.0 mm
04:15 PM 62.1°F16.7°C 39.3°F4.1°C 43% Calm Calm 1.7 mph2.7 kmh 30.31 in1026.4 mb 0.00 in0.0 mm 0.00 in0.0 mm 0.00 in0.0 mm
04:16 PM 61.9°F16.6°C 39.1°F3.9°C 43% 1.1 mph NE1.8 kmh NE 1.7 mph2.7 kmh 30.31 in1026.4 mb 0.00 in0.0 mm 0.00 in0.0 mm 0.00 in0.0 mm
04:17 PM 61.7°F16.5°C 39.0°F3.9°C 43% 1.7 mph E2.7 kmh E 2.7 mph4.3 kmh 30.31 in1026.4 mb 0.00 in0.0 mm 0.00 in0.0 mm 0.00 in0.0 mm
04:18 PM 61.5°F16.4°C 38.8°F3.8°C 43% 2.2 mph E3.5 kmh E 2.7 mph4.3 kmh 30.31 in1026.4 mb 0.00 in0.0 mm 0.00 in0.0 mm 0.00 in0.0 mm
04:19 PM 61.5°F16.4°C 38.8°F3.8°C 43% Calm Calm 2.7 mph4.3 kmh 30.32 in1026.8 mb 0.00 in0.0 mm 0.00 in0.0 mm 0.00 in0.0 mm
04:20 PM 61.3°F16.3°C 38.7°F3.7°C 43% Calm Calm 2.7 mph4.3 kmh 30.32 in1026.8 mb 0.00 in0.0 mm 0.00 in0.0 mm 0.00 in0.0 mm
04:21 PM 61.3°F16.3°C 39.2°F4.0°C 44% 1.7 mph NNE2.7 kmh NNE 2.7 mph4.3 kmh 30.32 in1026.8 mb 0.00 in0.0 mm 0.00 in0.0 mm 0.00 in0.0 mm
04:22 PM 61.2°F16.2°C 39.1°F3.9°C 44% Calm Calm 2.7 mph4.3 kmh 30.32 in1026.8 mb 0.00 in0.0 mm 0.00 in0.0 mm 0.00 in0.0 mm
04:23 PM 61.2°F16.2°C 39.1°F3.9°C 44% Calm Calm 2.7 mph4.3 kmh 30.32 in1026.8 mb 0.00 in0.0 mm 0.00 in0.0 mm 0.00 in0.0 mm
04:24 PM 61.2°F16.2°C 39.1°F3.9°C 44% 1.1 mph E1.8 kmh E 2.7 mph4.3 kmh 30.32 in1026.8 mb 0.00 in0.0 mm 0.00 in0.0 mm 0.00 in0.0 mm
04:25 PM 61.0°F16.1°C 38.9°F3.8°C 44% 1.7 mph NNE2.7 kmh NNE 2.7 mph4.3 kmh 30.32 in1026.8 mb 0.00 in0.0 mm 0.00 in0.0 mm 0.00 in0.0 mm
04:26 PM 60.8°F16.0°C 38.8°F3.8°C 44% Calm Calm 2.7 mph4.3 kmh 30.32 in1026.8 mb 0.00 in0.0 mm 0.00 in0.0 mm 0.00 in0.0 mm
04:27 PM 60.8°F16.0°C 38.8°F3.8°C 44% 1.1 mph ENE1.8 kmh ENE 2.2 mph3.5 kmh 30.32 in1026.8 mb 0.00 in0.0 mm 0.00 in0.0 mm 0.00 in0.0 mm
04:28 PM 60.8°F16.0°C 39.3°F4.1°C 45% 1.7 mph ESE2.7 kmh ESE 2.2 mph3.5 kmh 30.32 in1026.8 mb 0.00 in0.0 mm 0.00 in0.0 mm 0.00 in0.0 mm
04:29 PM 60.6°F15.9°C 39.2°F4.0°C 45% Calm Calm 2.2 mph3.5 kmh 30.32 in1026.8 mb 0.00 in0.0 mm 0.00 in0.0 mm 0.00 in0.0 mm
04:30 PM 60.6°F15.9°C 39.2°F4.0°C 45% Calm Calm 2.2 mph3.5 kmh 30.32 in1026.8 mb 0.00 in0.0 mm 0.00 in0.0 mm 0.00 in0.0 mm
04:31 PM 60.4°F15.8°C 39.0°F3.9°C 45% 1.1 mph NNE1.8 kmh NNE 2.2 mph3.5 kmh 30.32 in1026.8 mb 0.00 in0.0 mm 0.00 in0.0 mm 0.00 in0.0 mm
04:32 PM 60.4°F15.8°C 39.6°F4.2°C 46% 1.1 mph NNE1.8 kmh NNE 2.2 mph3.5 kmh 30.32 in1026.8 mb 0.00 in0.0 mm 0.00 in0.0 mm 0.00 in0.0 mm
04:33 PM 60.3°F15.7°C 39.4°F4.1°C 46% 1.1 mph E1.8 kmh E 2.2 mph3.5 kmh 30.32 in1026.8 mb 0.00 in0.0 mm 0.00 in0.0 mm 0.00 in0.0 mm
04:34 PM 60.1°F15.6°C 39.2°F4.0°C 46% 1.1 mph E1.8 kmh E 2.2 mph3.5 kmh 30.32 in1026.8 mb 0.00 in0.0 mm 0.00 in0.0 mm 0.00 in0.0 mm
04:35 PM 60.1°F15.6°C 39.2°F4.0°C 46% 1.1 mph NNE1.8 kmh NNE 1.7 mph2.7 kmh 30.32 in1026.8 mb 0.00 in0.0 mm 0.00 in0.0 mm 0.00 in0.0 mm
04:36 PM 60.1°F15.6°C 39.8°F4.3°C 47% 1.1 mph NNW1.8 kmh NNW 1.7 mph2.7 kmh 30.32 in1026.8 mb 0.00 in0.0 mm 0.00 in0.0 mm 0.00 in0.0 mm
04:37 PM 60.1°F15.6°C 39.8°F4.3°C 47% Calm Calm 1.7 mph2.7 kmh 30.32 in1026.8 mb 0.00 in0.0 mm 0.00 in0.0 mm 0.00 in0.0 mm
04:38 PM 59.9°F15.5°C 39.6°F4.2°C 47% 1.1 mph N1.8 kmh N 1.7 mph2.7 kmh 30.32 in1026.8 mb 0.00 in0.0 mm 0.00 in0.0 mm 0.00 in0.0 mm
04:39 PM 59.9°F15.5°C 39.6°F4.2°C 47% 1.7 mph NNE2.7 kmh NNE 1.7 mph2.7 kmh 30.32 in1026.8 mb 0.00 in0.0 mm 0.00 in0.0 mm 0.00 in0.0 mm
04:40 PM 59.7°F15.4°C 39.5°F4.2°C 47% Calm Calm 1.7 mph2.7 kmh 30.32 in1026.8 mb 0.00 in0.0 mm 0.00 in0.0 mm 0.00 in0.0 mm
04:41 PM 59.7°F15.4°C 39.5°F4.2°C 47% Calm Calm 1.7 mph2.7 kmh 30.32 in1026.8 mb 0.00 in0.0 mm 0.00 in0.0 mm 0.00 in0.0 mm
04:42 PM 59.5°F15.3°C 39.3°F4.1°C 47% Calm Calm 1.7 mph2.7 kmh 30.32 in1026.8 mb 0.00 in0.0 mm 0.00 in0.0 mm 0.00 in0.0 mm
04:43 PM 59.5°F15.3°C 39.3°F4.1°C 47% 1.1 mph NNE1.8 kmh NNE 1.7 mph2.7 kmh 30.32 in1026.8 mb 0.00 in0.0 mm 0.00 in0.0 mm 0.00 in0.0 mm
04:44 PM 59.5°F15.3°C 39.3°F4.1°C 47% Calm Calm 1.7 mph2.7 kmh 30.32 in1026.8 mb 0.00 in0.0 mm 0.00 in0.0 mm 0.00 in0.0 mm
04:45 PM 59.5°F15.3°C 39.8°F4.3°C 48% Calm Calm 1.7 mph2.7 kmh 30.32 in1026.8 mb 0.00 in0.0 mm 0.00 in0.0 mm 0.00 in0.0 mm
04:46 PM 59.4°F15.2°C 39.7°F4.3°C 48% Calm Calm 1.7 mph2.7 kmh 30.32 in1026.8 mb 0.00 in0.0 mm 0.00 in0.0 mm 0.00 in0.0 mm
04:47 PM 59.4°F15.2°C 39.7°F4.3°C 48% Calm Calm 1.7 mph2.7 kmh 30.32 in1026.8 mb 0.00 in0.0 mm 0.00 in0.0 mm 0.00 in0.0 mm
04:48 PM 59.2°F15.1°C 39.5°F4.2°C 48% Calm Calm 1.7 mph2.7 kmh 30.32 in1026.8 mb 0.00 in0.0 mm 0.00 in0.0 mm 0.00 in0.0 mm
04:49 PM 59.0°F15.0°C 39.9°F4.4°C 49% Calm Calm 1.7 mph2.7 kmh 30.32 in1026.8 mb 0.00 in0.0 mm 0.00 in0.0 mm 0.00 in0.0 mm
04:50 PM 59.0°F15.0°C 39.9°F4.4°C 49% Calm Calm 1.1 mph1.8 kmh 30.32 in1026.8 mb 0.00 in0.0 mm 0.00 in0.0 mm 0.00 in0.0 mm
04:51 PM 58.8°F14.9°C 39.7°F4.3°C 49% Calm Calm 1.1 mph1.8 kmh 30.32 in1026.8 mb 0.00 in0.0 mm 0.00 in0.0 mm 0.00 in0.0 mm
04:52 PM 58.6°F14.8°C 39.5°F4.2°C 49% Calm Calm 1.1 mph1.8 kmh 30.32 in1026.8 mb 0.00 in0.0 mm 0.00 in0.0 mm 0.00 in0.0 mm
04:53 PM 58.6°F14.8°C 39.5°F4.2°C 49% Calm Calm 1.1 mph1.8 kmh 30.32 in1026.8 mb 0.00 in0.0 mm 0.00 in0.0 mm 0.00 in0.0 mm
04:54 PM 58.5°F14.7°C 39.4°F4.1°C 49% Calm Calm -- 30.32 in1026.8 mb 0.00 in0.0 mm 0.00 in0.0 mm 0.00 in0.0 mm
04:55 PM 58.3°F14.6°C 39.2°F4.0°C 49% 1.7 mph NNE2.7 kmh NNE 1.7 mph2.7 kmh 30.32 in1026.8 mb 0.00 in0.0 mm 0.00 in0.0 mm 0.00 in0.0 mm
04:56 PM 58.3°F14.6°C 39.2°F4.0°C 49% Calm Calm 1.7 mph2.7 kmh 30.32 in1026.8 mb 0.00 in0.0 mm 0.00 in0.0 mm 0.00 in0.0 mm
04:57 PM 58.3°F14.6°C 39.7°F4.3°C 50% Calm Calm 1.7 mph2.7 kmh 30.32 in1026.8 mb 0.00 in0.0 mm 0.00 in0.0 mm 0.00 in0.0 mm
04:58 PM 58.3°F14.6°C 39.7°F4.3°C 50% Calm Calm 1.7 mph2.7 kmh 30.32 in1026.8 mb 0.00 in0.0 mm 0.00 in0.0 mm 0.00 in0.0 mm
04:59 PM 58.1°F14.5°C 39.6°F4.2°C 50% Calm Calm 1.7 mph2.7 kmh 30.32 in1026.8 mb 0.00 in0.0 mm 0.00 in0.0 mm 0.00 in0.0 mm
05:00 PM 57.9°F14.4°C 39.4°F4.1°C 50% Calm Calm 1.7 mph2.7 kmh 30.32 in1026.8 mb 0.00 in0.0 mm 0.00 in0.0 mm 0.00 in0.0 mm
05:01 PM 57.9°F14.4°C 39.4°F4.1°C 50% Calm Calm 1.7 mph2.7 kmh 30.32 in1026.8 mb 0.00 in0.0 mm 0.00 in0.0 mm 0.00 in0.0 mm
05:02 PM 57.7°F14.3°C 39.7°F4.3°C 51% Calm Calm 1.7 mph2.7 kmh 30.32 in1026.8 mb 0.00 in0.0 mm 0.00 in0.0 mm 0.00 in0.0 mm
05:03 PM 57.7°F14.3°C 39.7°F4.3°C 51% Calm Calm 1.7 mph2.7 kmh 30.32 in1026.8 mb 0.00 in0.0 mm 0.00 in0.0 mm 0.00 in0.0 mm
05:04 PM 57.7°F14.3°C 39.7°F4.3°C 51% Calm Calm 1.7 mph2.7 kmh 30.32 in1026.8 mb 0.00 in0.0 mm 0.00 in0.0 mm 0.00 in0.0 mm
05:05 PM 57.6°F14.2°C 39.6°F4.2°C 51% Calm Calm 1.7 mph2.7 kmh 30.32 in1026.8 mb 0.00 in0.0 mm 0.00 in0.0 mm 0.00 in0.0 mm
05:06 PM 57.6°F14.2°C 40.1°F4.5°C 52% Calm Calm -- 30.32 in1026.8 mb 0.00 in0.0 mm 0.00 in0.0 mm 0.00 in0.0 mm
05:07 PM 57.4°F14.1°C 39.9°F4.4°C 52% Calm Calm -- 30.32 in1026.8 mb 0.00 in0.0 mm 0.00 in0.0 mm 0.00 in0.0 mm
05:08 PM 57.2°F14.0°C 39.7°F4.3°C 52% Calm Calm -- 30.32 in1026.8 mb 0.00 in0.0 mm 0.00 in0.0 mm 0.00 in0.0 mm
05:09 PM 57.2°F14.0°C 39.7°F4.3°C 52% Calm Calm -- 30.32 in1026.8 mb 0.00 in0.0 mm 0.00 in0.0 mm 0.00 in0.0 mm
05:10 PM 57.0°F13.9°C 39.6°F4.2°C 52% Calm Calm -- 30.32 in1026.8 mb 0.00 in0.0 mm 0.00 in0.0 mm 0.00 in0.0 mm
05:11 PM 57.0°F13.9°C 39.6°F4.2°C 52% Calm Calm -- 30.32 in1026.8 mb 0.00 in0.0 mm 0.00 in0.0 mm 0.00 in0.0 mm
05:12 PM 56.8°F13.8°C 39.4°F4.1°C 52% Calm Calm -- 30.32 in1026.8 mb 0.00 in0.0 mm 0.00 in0.0 mm 0.00 in0.0 mm
05:13 PM 56.8°F13.8°C 39.4°F4.1°C 52% Calm Calm -- 30.32 in1026.8 mb 0.00 in0.0 mm 0.00 in0.0 mm 0.00 in0.0 mm
05:14 PM 56.8°F13.8°C 39.9°F4.4°C 53% 1.1 mph NE1.8 kmh NE 1.1 mph1.8 kmh 30.32 in1026.8 mb 0.00 in0.0 mm 0.00 in0.0 mm 0.00 in0.0 mm
05:15 PM 56.8°F13.8°C 39.9°F4.4°C 53% 1.7 mph NE2.7 kmh NE 2.7 mph4.3 kmh 30.32 in1026.8 mb 0.00 in0.0 mm 0.00 in0.0 mm 0.00 in0.0 mm
05:16 PM 56.8°F13.8°C 39.9°F4.4°C 53% Calm Calm 2.7 mph4.3 kmh 30.32 in1026.8 mb 0.00 in0.0 mm 0.00 in0.0 mm 0.00 in0.0 mm
05:17 PM 56.7°F13.7°C 40.2°F4.6°C 54% Calm Calm 2.7 mph4.3 kmh 30.32 in1026.8 mb 0.00 in0.0 mm 0.00 in0.0 mm 0.00 in0.0 mm
05:18 PM 56.7°F13.7°C 40.2°F4.6°C 54% Calm Calm 2.7 mph4.3 kmh 30.31 in1026.4 mb 0.00 in0.0 mm 0.00 in0.0 mm 0.00 in0.0 mm
05:19 PM 56.7°F13.7°C 40.2°F4.6°C 54% Calm Calm 2.7 mph4.3 kmh 30.31 in1026.4 mb 0.00 in0.0 mm 0.00 in0.0 mm 0.00 in0.0 mm
05:20 PM 56.5°F13.6°C 40.0°F4.4°C 54% 1.7 mph N2.7 kmh N 2.7 mph4.3 kmh 30.31 in1026.4 mb 0.00 in0.0 mm 0.00 in0.0 mm 0.00 in0.0 mm
05:21 PM 56.5°F13.6°C 40.0°F4.4°C 54% 1.1 mph NNE1.8 kmh NNE 2.7 mph4.3 kmh 30.31 in1026.4 mb 0.00 in0.0 mm 0.00 in0.0 mm 0.00 in0.0 mm
05:22 PM 56.5°F13.6°C 40.0°F4.4°C 54% Calm Calm 2.7 mph4.3 kmh 30.31 in1026.4 mb 0.00 in0.0 mm 0.00 in0.0 mm 0.00 in0.0 mm
05:23 PM 56.5°F13.6°C 40.0°F4.4°C 54% 1.1 mph NNE1.8 kmh NNE 2.7 mph4.3 kmh 30.31 in1026.4 mb 0.00 in0.0 mm 0.00 in0.0 mm 0.00 in0.0 mm
05:24 PM 56.3°F13.5°C 39.9°F4.4°C 54% Calm Calm 2.7 mph4.3 kmh 30.31 in1026.4 mb 0.00 in0.0 mm 0.00 in0.0 mm 0.00 in0.0 mm
05:25 PM 56.3°F13.5°C 39.9°F4.4°C 54% Calm Calm 1.7 mph2.7 kmh 30.31 in1026.4 mb 0.00 in0.0 mm 0.00 in0.0 mm 0.00 in0.0 mm
05:26 PM 56.3°F13.5°C 39.9°F4.4°C 54% 1.1 mph NE1.8 kmh NE 1.7 mph2.7 kmh 30.31 in1026.4 mb 0.00 in0.0 mm 0.00 in0.0 mm 0.00 in0.0 mm
05:27 PM 56.1°F13.4°C 39.7°F4.3°C 54% Calm Calm 1.7 mph2.7 kmh 30.31 in1026.4 mb 0.00 in0.0 mm 0.00 in0.0 mm 0.00 in0.0 mm
05:28 PM 56.1°F13.4°C 39.7°F4.3°C 54% Calm Calm 1.7 mph2.7 kmh 30.31 in1026.4 mb 0.00 in0.0 mm 0.00 in0.0 mm 0.00 in0.0 mm
05:29 PM 56.1°F13.4°C 39.7°F4.3°C 54% Calm Calm 1.7 mph2.7 kmh 30.31 in1026.4 mb 0.00 in0.0 mm 0.00 in0.0 mm 0.00 in0.0 mm
05:30 PM 56.1°F13.4°C 39.7°F4.3°C 54% Calm Calm 1.7 mph2.7 kmh 30.31 in1026.4 mb 0.00 in0.0 mm 0.00 in0.0 mm 0.00 in0.0 mm
05:31 PM 56.1°F13.4°C 39.7°F4.3°C 54% 1.1 mph NNE1.8 kmh NNE 1.1 mph1.8 kmh 30.31 in1026.4 mb 0.00 in0.0 mm 0.00 in0.0 mm 0.00 in0.0 mm
05:32 PM 55.9°F13.3°C 39.5°F4.2°C 54% Calm Calm 1.1 mph1.8 kmh 30.31 in1026.4 mb 0.00 in0.0 mm 0.00 in0.0 mm 0.00 in0.0 mm
05:33 PM 55.9°F13.3°C 39.5°F4.2°C 54% Calm Calm 1.1 mph1.8 kmh 30.31 in1026.4 mb 0.00 in0.0 mm 0.00 in0.0 mm 0.00 in0.0 mm
05:34 PM 55.9°F13.3°C 39.5°F4.2°C 54% Calm Calm 1.1 mph1.8 kmh 30.31 in1026.4 mb 0.00 in0.0 mm 0.00 in0.0 mm 0.00 in0.0 mm
05:35 PM 55.9°F13.3°C 39.5°F4.2°C 54% Calm Calm 1.1 mph1.8 kmh 30.31 in1026.4 mb 0.00 in0.0 mm 0.00 in0.0 mm 0.00 in0.0 mm
05:36 PM 55.8°F13.2°C 39.4°F4.1°C 54% Calm Calm 1.1 mph1.8 kmh 30.31 in1026.4 mb 0.00 in0.0 mm 0.00 in0.0 mm 0.00 in0.0 mm
05:37 PM 55.8°F13.2°C 39.4°F4.1°C 54% Calm Calm 1.1 mph1.8 kmh 30.31 in1026.4 mb 0.00 in0.0 mm 0.00 in0.0 mm 0.00 in0.0 mm
05:38 PM 55.8°F13.2°C 39.4°F4.1°C 54% 1.1 mph E1.8 kmh E 1.1 mph1.8 kmh 30.31 in1026.4 mb 0.00 in0.0 mm 0.00 in0.0 mm 0.00 in0.0 mm
05:39 PM 55.6°F13.1°C 39.7°F4.3°C 55% Calm Calm 1.1 mph1.8 kmh 30.31 in1026.4 mb 0.00 in0.0 mm 0.00 in0.0 mm 0.00 in0.0 mm
05:40 PM 55.6°F13.1°C 39.7°F4.3°C 55% Calm Calm 1.1 mph1.8 kmh 30.31 in1026.4 mb 0.00 in0.0 mm 0.00 in0.0 mm 0.00 in0.0 mm
05:41 PM 55.4°F13.0°C 39.5°F4.2°C 55% Calm Calm 1.1 mph1.8 kmh 30.31 in1026.4 mb 0.00 in0.0 mm 0.00 in0.0 mm 0.00 in0.0 mm
05:42 PM 55.4°F13.0°C 39.5°F4.2°C 55% Calm Calm 1.1 mph1.8 kmh 30.31 in1026.4 mb 0.00 in0.0 mm 0.00 in0.0 mm 0.00 in0.0 mm
05:43 PM 55.4°F13.0°C 39.5°F4.2°C 55% 1.1 mph NE1.8 kmh NE 1.7 mph2.7 kmh 30.32 in1026.8 mb 0.00 in0.0 mm 0.00 in0.0 mm 0.00 in0.0 mm
05:44 PM 55.4°F13.0°C 39.5°F4.2°C 55% 1.1 mph N1.8 kmh N 1.7 mph2.7 kmh 30.32 in1026.8 mb 0.00 in0.0 mm 0.00 in0.0 mm 0.00 in0.0 mm
05:45 PM 55.4°F13.0°C 39.5°F4.2°C 55% 1.7 mph NNE2.7 kmh NNE 1.7 mph2.7 kmh 30.32 in1026.8 mb 0.00 in0.0 mm 0.00 in0.0 mm 0.00 in0.0 mm
05:46 PM 55.2°F12.9°C 39.3°F4.1°C 55% 1.1 mph NE1.8 kmh NE 1.7 mph2.7 kmh 30.32 in1026.8 mb 0.00 in0.0 mm 0.00 in0.0 mm 0.00 in0.0 mm
05:47 PM 55.2°F12.9°C 39.3°F4.1°C 55% 1.7 mph ENE2.7 kmh ENE 1.7 mph2.7 kmh 30.32 in1026.8 mb 0.00 in0.0 mm 0.00 in0.0 mm 0.00 in0.0 mm
05:48 PM 55.2°F12.9°C 39.3°F4.1°C 55% Calm Calm 1.7 mph2.7 kmh 30.32 in1026.8 mb 0.00 in0.0 mm 0.00 in0.0 mm 0.00 in0.0 mm
05:49 PM 55.2°F12.9°C 39.3°F4.1°C 55% 1.1 mph NNE1.8 kmh NNE 2.2 mph3.5 kmh 30.32 in1026.8 mb 0.00 in0.0 mm 0.00 in0.0 mm 0.00 in0.0 mm
05:50 PM 55.2°F12.9°C 39.3°F4.1°C 55% 1.1 mph NE1.8 kmh NE 2.2 mph3.5 kmh 30.32 in1026.8 mb 0.00 in0.0 mm 0.00 in0.0 mm 0.00 in0.0 mm
05:51 PM 55.0°F12.8°C 39.2°F4.0°C 55% 1.1 mph NE1.8 kmh NE 2.2 mph3.5 kmh 30.32 in1026.8 mb 0.00 in0.0 mm 0.00 in0.0 mm 0.00 in0.0 mm
05:52 PM 55.0°F12.8°C 39.2°F4.0°C 55% 1.7 mph NNE2.7 kmh NNE 2.2 mph3.5 kmh 30.32 in1026.8 mb 0.00 in0.0 mm 0.00 in0.0 mm 0.00 in0.0 mm
05:53 PM 55.0°F12.8°C 39.6°F4.2°C 56% 1.1 mph NNE1.8 kmh NNE 2.2 mph3.5 kmh 30.32 in1026.8 mb 0.00 in0.0 mm 0.00 in0.0 mm 0.00 in0.0 mm
05:54 PM 55.0°F12.8°C 39.6°F4.2°C 56% Calm Calm 2.2 mph3.5 kmh 30.32 in1026.8 mb 0.00 in0.0 mm 0.00 in0.0 mm 0.00 in0.0 mm
05:55 PM 54.9°F12.7°C 39.5°F4.2°C 56% 1.1 mph NNE1.8 kmh NNE 2.2 mph3.5 kmh 30.32 in1026.8 mb 0.00 in0.0 mm 0.00 in0.0 mm 0.00 in0.0 mm
05:56 PM 54.9°F12.7°C 39.9°F4.4°C 57% Calm Calm 2.2 mph3.5 kmh 30.32 in1026.8 mb 0.00 in0.0 mm 0.00 in0.0 mm 0.00 in0.0 mm
05:57 PM 54.9°F12.7°C 39.9°F4.4°C 57% Calm Calm 2.2 mph3.5 kmh 30.32 in1026.8 mb 0.00 in0.0 mm 0.00 in0.0 mm 0.00 in0.0 mm
05:58 PM 54.7°F12.6°C 39.3°F4.1°C 56% Calm Calm 2.2 mph3.5 kmh 30.32 in1026.8 mb 0.00 in0.0 mm 0.00 in0.0 mm 0.00 in0.0 mm
05:59 PM 54.7°F12.6°C 39.3°F4.1°C 56% 2.2 mph NNE3.5 kmh NNE 2.2 mph3.5 kmh 30.32 in1026.8 mb 0.00 in0.0 mm 0.00 in0.0 mm 0.00 in0.0 mm
06:00 PM 54.7°F12.6°C 39.3°F4.1°C 56% Calm Calm 2.2 mph3.5 kmh 30.32 in1026.8 mb 0.00 in0.0 mm 0.00 in0.0 mm 0.00 in0.0 mm
06:01 PM 54.5°F12.5°C 39.1°F3.9°C 56% Calm Calm 2.2 mph3.5 kmh 30.32 in1026.8 mb 0.00 in0.0 mm 0.00 in0.0 mm 0.00 in0.0 mm
06:02 PM 54.5°F12.5°C 39.1°F3.9°C 56% 1.7 mph NE2.7 kmh NE 2.2 mph3.5 kmh 30.32 in1026.8 mb 0.00 in0.0 mm 0.00 in0.0 mm 0.00 in0.0 mm
06:03 PM 54.5°F12.5°C 39.1°F3.9°C 56% 1.1 mph NNE1.8 kmh NNE 2.2 mph3.5 kmh 30.32 in1026.8 mb 0.00 in0.0 mm 0.00 in0.0 mm 0.00 in0.0 mm
06:04 PM 54.3°F12.4°C 39.0°F3.9°C 56% 2.2 mph NNE3.5 kmh NNE 2.7 mph4.3 kmh 30.32 in1026.8 mb 0.00 in0.0 mm 0.00 in0.0 mm 0.00 in0.0 mm
06:05 PM 54.3°F12.4°C 39.0°F3.9°C 56% Calm Calm 2.7 mph4.3 kmh 30.32 in1026.8 mb 0.00 in0.0 mm 0.00 in0.0 mm 0.00 in0.0 mm
06:06 PM 54.3°F12.4°C 39.4°F4.1°C 57% 1.1 mph E1.8 kmh E 2.7 mph4.3 kmh 30.33 in1027.1 mb 0.00 in0.0 mm 0.00 in0.0 mm 0.00 in0.0 mm
06:07 PM 54.3°F12.4°C 39.4°F4.1°C 57% Calm Calm 2.7 mph4.3 kmh 30.33 in1027.1 mb 0.00 in0.0 mm 0.00 in0.0 mm 0.00 in0.0 mm
06:08 PM 54.3°F12.4°C 39.4°F4.1°C 57% 1.1 mph NE1.8 kmh NE 2.7 mph4.3 kmh 30.33 in1027.1 mb 0.00 in0.0 mm 0.00 in0.0 mm 0.00 in0.0 mm
06:09 PM 54.1°F12.3°C 38.8°F3.8°C 56% Calm Calm 2.7 mph4.3 kmh 30.33 in1027.1 mb 0.00 in0.0 mm 0.00 in0.0 mm 0.00 in0.0 mm
06:10 PM 54.1°F12.3°C 38.8°F3.8°C 56% Calm Calm 2.7 mph4.3 kmh 30.33 in1027.1 mb 0.00 in0.0 mm 0.00 in0.0 mm 0.00 in0.0 mm
06:11 PM 54.1°F12.3°C 38.8°F3.8°C 56% Calm Calm 2.7 mph4.3 kmh 30.33 in1027.1 mb 0.00 in0.0 mm 0.00 in0.0 mm 0.00 in0.0 mm
06:12 PM 54.1°F12.3°C 38.8°F3.8°C 56% 1.1 mph NNE1.8 kmh NNE 2.7 mph4.3 kmh 30.33 in1027.1 mb 0.00 in0.0 mm 0.00 in0.0 mm 0.00 in0.0 mm
06:13 PM 54.0°F12.2°C 38.6°F3.7°C 56% Calm Calm 2.7 mph4.3 kmh 30.33 in1027.1 mb 0.00 in0.0 mm 0.00 in0.0 mm 0.00 in0.0 mm
06:14 PM 54.0°F12.2°C 38.6°F3.7°C 56% Calm Calm 1.7 mph2.7 kmh 30.33 in1027.1 mb 0.00 in0.0 mm 0.00 in0.0 mm 0.00 in0.0 mm
06:15 PM 54.0°F12.2°C 38.6°F3.7°C 56% 1.1 mph E1.8 kmh E 1.7 mph2.7 kmh 30.33 in1027.1 mb 0.00 in0.0 mm 0.00 in0.0 mm 0.00 in0.0 mm
06:16 PM 54.0°F12.2°C 38.6°F3.7°C 56% 1.1 mph ESE1.8 kmh ESE 1.7 mph2.7 kmh 30.33 in1027.1 mb 0.00 in0.0 mm 0.00 in0.0 mm 0.00 in0.0 mm
06:17 PM 54.0°F12.2°C 38.6°F3.7°C 56% 1.1 mph ESE1.8 kmh ESE 1.7 mph2.7 kmh 30.33 in1027.1 mb 0.00 in0.0 mm 0.00 in0.0 mm 0.00 in0.0 mm
06:18 PM 53.8°F12.1°C 38.5°F3.6°C 56% Calm Calm 1.7 mph2.7 kmh 30.33 in1027.1 mb 0.00 in0.0 mm 0.00 in0.0 mm 0.00 in0.0 mm
06:19 PM 53.8°F12.1°C 38.5°F3.6°C 56% 1.1 mph E1.8 kmh E 1.7 mph2.7 kmh 30.33 in1027.1 mb 0.00 in0.0 mm 0.00 in0.0 mm 0.00 in0.0 mm
06:20 PM 53.8°F12.1°C 38.5°F3.6°C 56% Calm Calm 1.7 mph2.7 kmh 30.33 in1027.1 mb 0.00 in0.0 mm 0.00 in0.0 mm 0.00 in0.0 mm
06:21 PM 53.8°F12.1°C 38.5°F3.6°C 56% 1.1 mph ENE1.8 kmh ENE 1.7 mph2.7 kmh 30.33 in1027.1 mb 0.00 in0.0 mm 0.00 in0.0 mm 0.00 in0.0 mm
06:22 PM 53.6°F12.0°C 38.3°F3.5°C 56% Calm Calm 1.7 mph2.7 kmh 30.33 in1027.1 mb 0.00 in0.0 mm 0.00 in0.0 mm 0.00 in0.0 mm
06:23 PM 53.6°F12.0°C 38.3°F3.5°C 56% 1.7 mph ESE2.7 kmh ESE 1.7 mph2.7 kmh 30.33 in1027.1 mb 0.00 in0.0 mm 0.00 in0.0 mm 0.00 in0.0 mm
06:24 PM 53.6°F12.0°C 38.3°F3.5°C 56% Calm Calm 1.7 mph2.7 kmh 30.33 in1027.1 mb 0.00 in0.0 mm 0.00 in0.0 mm 0.00 in0.0 mm
06:25 PM 53.6°F12.0°C 39.2°F4.0°C 58% Calm Calm 1.7 mph2.7 kmh 30.33 in1027.1 mb 0.00 in0.0 mm 0.00 in0.0 mm 0.00 in0.0 mm
06:26 PM 53.4°F11.9°C 39.0°F3.9°C 58% Calm Calm 1.7 mph2.7 kmh 30.33 in1027.1 mb 0.00 in0.0 mm 0.00 in0.0 mm 0.00 in0.0 mm
06:27 PM 53.4°F11.9°C 39.0°F3.9°C 58% Calm Calm 1.7 mph2.7 kmh 30.33 in1027.1 mb 0.00 in0.0 mm 0.00 in0.0 mm 0.00 in0.0 mm
06:28 PM 53.4°F11.9°C 39.0°F3.9°C 58% Calm Calm 1.7 mph2.7 kmh 30.33 in1027.1 mb 0.00 in0.0 mm 0.00 in0.0 mm 0.00 in0.0 mm
06:29 PM 53.2°F11.8°C 38.4°F3.6°C 57% 1.1 mph NNE1.8 kmh NNE 2.7 mph4.3 kmh 30.33 in1027.1 mb 0.00 in0.0 mm 0.00 in0.0 mm 0.00 in0.0 mm
06:30 PM 53.2°F11.8°C 38.8°F3.8°C 58% 1.7 mph ESE2.7 kmh ESE 2.7 mph4.3 kmh 30.33 in1027.1 mb 0.00 in0.0 mm 0.00 in0.0 mm 0.00 in0.0 mm
06:31 PM 53.2°F11.8°C 38.4°F3.6°C 57% Calm Calm 2.7 mph4.3 kmh 30.33 in1027.1 mb 0.00 in0.0 mm 0.00 in0.0 mm 0.00 in0.0 mm
06:32 PM 53.2°F11.8°C 38.4°F3.6°C 57% 1.7 mph E2.7 kmh E 2.7 mph4.3 kmh 30.33 in1027.1 mb 0.00 in0.0 mm 0.00 in0.0 mm 0.00 in0.0 mm
06:33 PM 53.2°F11.8°C 38.4°F3.6°C 57% 1.1 mph E1.8 kmh E 2.7 mph4.3 kmh 30.33 in1027.1 mb 0.00 in0.0 mm 0.00 in0.0 mm 0.00 in0.0 mm
06:34 PM 53.2°F11.8°C 38.4°F3.6°C 57% 1.7 mph NE2.7 kmh NE 2.7 mph4.3 kmh 30.33 in1027.1 mb 0.00 in0.0 mm 0.00 in0.0 mm 0.00 in0.0 mm
06:35 PM 53.2°F11.8°C 38.0°F3.3°C 56% Calm Calm 2.7 mph4.3 kmh 30.33 in1027.1 mb 0.00 in0.0 mm 0.00 in0.0 mm 0.00 in0.0 mm
06:36 PM 53.1°F11.7°C 37.8°F3.2°C 56% 2.2 mph NNE3.5 kmh NNE 2.7 mph4.3 kmh 30.33 in1027.1 mb 0.00 in0.0 mm 0.00 in0.0 mm 0.00 in0.0 mm
06:37 PM 53.1°F11.7°C 37.8°F3.2°C 56% Calm Calm 2.7 mph4.3 kmh 30.33 in1027.1 mb 0.00 in0.0 mm 0.00 in0.0 mm 0.00 in0.0 mm
06:38 PM 53.1°F11.7°C 37.8°F3.2°C 56% 2.2 mph ESE3.5 kmh ESE 2.7 mph4.3 kmh 30.33 in1027.1 mb 0.00 in0.0 mm 0.00 in0.0 mm 0.00 in0.0 mm
06:39 PM 53.1°F11.7°C 37.8°F3.2°C 56% Calm Calm 2.2 mph3.5 kmh 30.33 in1027.1 mb 0.00 in0.0 mm 0.00 in0.0 mm 0.00 in0.0 mm
06:40 PM 53.1°F11.7°C 37.8°F3.2°C 56% 1.1 mph NE1.8 kmh NE 2.2 mph3.5 kmh 30.33 in1027.1 mb 0.00 in0.0 mm 0.00 in0.0 mm 0.00 in0.0 mm
06:41 PM 53.1°F11.7°C 37.8°F3.2°C 56% 1.7 mph NE2.7 kmh NE 2.2 mph3.5 kmh 30.33 in1027.1 mb 0.00 in0.0 mm 0.00 in0.0 mm 0.00 in0.0 mm
06:42 PM 53.1°F11.7°C 37.8°F3.2°C 56% 1.1 mph ESE1.8 kmh ESE 2.2 mph3.5 kmh 30.33 in1027.1 mb 0.00 in0.0 mm 0.00 in0.0 mm 0.00 in0.0 mm
06:43 PM 53.1°F11.7°C 37.3°F2.9°C 55% 2.7 mph NNE4.3 kmh NNE 2.7 mph4.3 kmh 30.33 in1027.1 mb 0.00 in0.0 mm 0.00 in0.0 mm 0.00 in0.0 mm
06:44 PM 53.1°F11.7°C 37.3°F2.9°C 55% 1.1 mph NNE1.8 kmh NNE 2.7 mph4.3 kmh 30.33 in1027.1 mb 0.00 in0.0 mm 0.00 in0.0 mm 0.00 in0.0 mm
06:45 PM 53.1°F11.7°C 37.8°F3.2°C 56% 1.7 mph ESE2.7 kmh ESE 2.7 mph4.3 kmh 30.33 in1027.1 mb 0.00 in0.0 mm 0.00 in0.0 mm 0.00 in0.0 mm
06:46 PM 53.1°F11.7°C 37.8°F3.2°C 56% 1.7 mph N2.7 kmh N 2.7 mph4.3 kmh 30.33 in1027.1 mb 0.00 in0.0 mm 0.00 in0.0 mm 0.00 in0.0 mm
06:47 PM 53.1°F11.7°C 37.8°F3.2°C 56% 1.7 mph ESE2.7 kmh ESE 2.7 mph4.3 kmh 30.33 in1027.1 mb 0.00 in0.0 mm 0.00 in0.0 mm 0.00 in0.0 mm
06:48 PM 53.1°F11.7°C 37.8°F3.2°C 56% 1.1 mph N1.8 kmh N 2.7 mph4.3 kmh 30.33 in1027.1 mb 0.00 in0.0 mm 0.00 in0.0 mm 0.00 in0.0 mm
06:49 PM 53.1°F11.7°C 37.8°F3.2°C 56% 2.2 mph NE3.5 kmh NE 2.7 mph4.3 kmh 30.33 in1027.1 mb 0.00 in0.0 mm 0.00 in0.0 mm 0.00 in0.0 mm
06:50 PM 53.1°F11.7°C 37.8°F3.2°C 56% Calm Calm 2.7 mph4.3 kmh 30.33 in1027.1 mb 0.00 in0.0 mm 0.00 in0.0 mm 0.00 in0.0 mm
06:51 PM 52.9°F11.6°C 37.6°F3.1°C 56% 1.1 mph NNE1.8 kmh NNE 2.7 mph4.3 kmh 30.33 in1027.1 mb 0.00 in0.0 mm 0.00 in0.0 mm 0.00 in0.0 mm
06:52 PM 52.9°F11.6°C 37.6°F3.1°C 56% Calm Calm 2.7 mph4.3 kmh 30.33 in1027.1 mb 0.00 in0.0 mm 0.00 in0.0 mm 0.00 in0.0 mm
06:53 PM 52.9°F11.6°C 37.6°F3.1°C 56% 1.1 mph NE1.8 kmh NE 2.2 mph3.5 kmh 30.33 in1027.1 mb 0.00 in0.0 mm 0.00 in0.0 mm 0.00 in0.0 mm
06:54 PM 52.9°F11.6°C 37.6°F3.1°C 56% Calm Calm 2.2 mph3.5 kmh 30.32 in1026.8 mb 0.00 in0.0 mm 0.00 in0.0 mm 0.00 in0.0 mm
06:55 PM 52.9°F11.6°C 37.6°F3.1°C 56% 1.1 mph NE1.8 kmh NE 2.2 mph3.5 kmh 30.32 in1026.8 mb 0.00 in0.0 mm 0.00 in0.0 mm 0.00 in0.0 mm
06:56 PM 52.7°F11.5°C 37.4°F3.0°C 56% 1.7 mph ENE2.7 kmh ENE 2.2 mph3.5 kmh 30.32 in1026.8 mb 0.00 in0.0 mm 0.00 in0.0 mm 0.00 in0.0 mm
06:57 PM 52.7°F11.5°C 37.4°F3.0°C 56% Calm Calm 2.2 mph3.5 kmh 30.32 in1026.8 mb 0.00 in0.0 mm 0.00 in0.0 mm 0.00 in0.0 mm
06:58 PM 52.7°F11.5°C 37.4°F3.0°C 56% 1.7 mph E2.7 kmh E 2.2 mph3.5 kmh 30.32 in1026.8 mb 0.00 in0.0 mm 0.00 in0.0 mm 0.00 in0.0 mm
06:59 PM 52.7°F11.5°C 37.4°F3.0°C 56% 1.1 mph ESE1.8 kmh ESE 1.7 mph2.7 kmh 30.32 in1026.8 mb 0.00 in0.0 mm 0.00 in0.0 mm 0.00 in0.0 mm
07:00 PM 52.5°F11.4°C 37.3°F2.9°C 56% 1.7 mph E2.7 kmh E 1.7 mph2.7 kmh 30.32 in1026.8 mb 0.00 in0.0 mm 0.00 in0.0 mm 0.00 in0.0 mm
07:01 PM 52.5°F11.4°C 37.3°F2.9°C 56% 1.7 mph ESE2.7 kmh ESE 1.7 mph2.7 kmh 30.32 in1026.8 mb 0.00 in0.0 mm 0.00 in0.0 mm 0.00 in0.0 mm
07:02 PM 52.5°F11.4°C 37.3°F2.9°C 56% 2.2 mph ESE3.5 kmh ESE 2.2 mph3.5 kmh 30.32 in1026.8 mb 0.00 in0.0 mm 0.00 in0.0 mm 0.00 in0.0 mm
07:03 PM 52.5°F11.4°C 37.3°F2.9°C 56% 1.7 mph NNE2.7 kmh NNE 2.2 mph3.5 kmh 30.32 in1026.8 mb 0.00 in0.0 mm 0.00 in0.0 mm 0.00 in0.0 mm
07:04 PM 52.5°F11.4°C 37.3°F2.9°C 56% 1.7 mph ESE2.7 kmh ESE 2.2 mph3.5 kmh 30.32 in1026.8 mb 0.00 in0.0 mm 0.00 in0.0 mm 0.00 in0.0 mm
07:05 PM 52.5°F11.4°C 37.3°F2.9°C 56% 1.1 mph ESE1.8 kmh ESE 2.2 mph3.5 kmh 30.32 in1026.8 mb 0.00 in0.0 mm 0.00 in0.0 mm 0.00 in0.0 mm
07:06 PM 52.5°F11.4°C 37.7°F3.2°C 57% Calm Calm 2.2 mph3.5 kmh 30.31 in1026.4 mb 0.00 in0.0 mm 0.00 in0.0 mm 0.00 in0.0 mm
07:07 PM 52.3°F11.3°C 37.6°F3.1°C 57% 1.7 mph ESE2.7 kmh ESE 2.2 mph3.5 kmh 30.31 in1026.4 mb 0.00 in0.0 mm 0.00 in0.0 mm 0.00 in0.0 mm
07:08 PM 52.3°F11.3°C 37.6°F3.1°C 57% 1.7 mph NNE2.7 kmh NNE 2.2 mph3.5 kmh 30.31 in1026.4 mb 0.00 in0.0 mm 0.00 in0.0 mm 0.00 in0.0 mm
07:09 PM 52.3°F11.3°C 37.6°F3.1°C 57% 1.7 mph E2.7 kmh E 2.2 mph3.5 kmh 30.31 in1026.4 mb 0.00 in0.0 mm 0.00 in0.0 mm 0.00 in0.0 mm
07:10 PM 52.3°F11.3°C 37.6°F3.1°C 57% 1.1 mph ENE1.8 kmh ENE 2.2 mph3.5 kmh 30.31 in1026.4 mb 0.00 in0.0 mm 0.00 in0.0 mm 0.00 in0.0 mm
07:11 PM 52.3°F11.3°C 38.0°F3.3°C 58% 1.1 mph ESE1.8 kmh ESE 2.2 mph3.5 kmh 30.31 in1026.4 mb 0.00 in0.0 mm 0.00 in0.0 mm 0.00 in0.0 mm
07:12 PM 52.3°F11.3°C 38.0°F3.3°C 58% 1.1 mph NE1.8 kmh NE 2.2 mph3.5 kmh 30.31 in1026.4 mb 0.00 in0.0 mm 0.00 in0.0 mm 0.00 in0.0 mm
07:13 PM 52.3°F11.3°C 38.0°F3.3°C 58% 1.7 mph ENE2.7 kmh ENE 2.2 mph3.5 kmh 30.31 in1026.4 mb 0.00 in0.0 mm 0.00 in0.0 mm 0.00 in0.0 mm
07:14 PM 52.3°F11.3°C 38.0°F3.3°C 58% 1.7 mph E2.7 kmh E 2.2 mph3.5 kmh 30.31 in1026.4 mb 0.00 in0.0 mm 0.00 in0.0 mm 0.00 in0.0 mm
07:15 PM 52.3°F11.3°C 38.0°F3.3°C 58% 1.7 mph ESE2.7 kmh ESE 2.2 mph3.5 kmh 30.31 in1026.4 mb 0.00 in0.0 mm 0.00 in0.0 mm 0.00 in0.0 mm
07:16 PM 52.2°F11.2°C 37.8°F3.2°C 58% Calm Calm 2.2 mph3.5 kmh 30.31 in1026.4 mb 0.00 in0.0 mm 0.00 in0.0 mm 0.00 in0.0 mm
07:17 PM 52.2°F11.2°C 37.8°F3.2°C 58% 1.1 mph NNE1.8 kmh NNE 2.2 mph3.5 kmh 30.31 in1026.4 mb 0.00 in0.0 mm 0.00 in0.0 mm 0.00 in0.0 mm
07:18 PM 52.2°F11.2°C 37.4°F3.0°C 57% 1.7 mph E2.7 kmh E 2.2 mph3.5 kmh 30.31 in1026.4 mb 0.00 in0.0 mm 0.00 in0.0 mm 0.00 in0.0 mm
07:19 PM 52.2°F11.2°C 37.4°F3.0°C 57% 1.1 mph NNE1.8 kmh NNE 2.2 mph3.5 kmh 30.31 in1026.4 mb 0.00 in0.0 mm 0.00 in0.0 mm 0.00 in0.0 mm
07:20 PM 52.2°F11.2°C 37.8°F3.2°C 58% 1.7 mph E2.7 kmh E 2.2 mph3.5 kmh 30.31 in1026.4 mb 0.00 in0.0 mm 0.00 in0.0 mm 0.00 in0.0 mm
07:21 PM 52.2°F11.2°C 37.4°F3.0°C 57% 1.7 mph NNE2.7 kmh NNE 2.2 mph3.5 kmh 30.31 in1026.4 mb 0.00 in0.0 mm 0.00 in0.0 mm 0.00 in0.0 mm
07:22 PM 52.2°F11.2°C 37.4°F3.0°C 57% 1.1 mph SE1.8 kmh SE 2.2 mph3.5 kmh 30.31 in1026.4 mb 0.00 in0.0 mm 0.00 in0.0 mm 0.00 in0.0 mm
07:23 PM 52.2°F11.2°C 37.8°F3.2°C 58% 1.7 mph ESE2.7 kmh ESE 2.2 mph3.5 kmh 30.31 in1026.4 mb 0.00 in0.0 mm 0.00 in0.0 mm 0.00 in0.0 mm
07:24 PM 52.2°F11.2°C 37.8°F3.2°C 58% 1.1 mph ESE1.8 kmh ESE 2.2 mph3.5 kmh 30.31 in1026.4 mb 0.00 in0.0 mm 0.00 in0.0 mm 0.00 in0.0 mm
07:25 PM 52.0°F11.1°C 38.1°F3.4°C 59% Calm Calm 2.2 mph3.5 kmh 30.31 in1026.4 mb 0.00 in0.0 mm 0.00 in0.0 mm 0.00 in0.0 mm
07:26 PM 52.0°F11.1°C 38.1°F3.4°C 59% 1.7 mph ESE2.7 kmh ESE 2.2 mph3.5 kmh 30.31 in1026.4 mb 0.00 in0.0 mm 0.00 in0.0 mm 0.00 in0.0 mm
07:27 PM 52.0°F11.1°C 37.7°F3.2°C 58% 1.7 mph ESE2.7 kmh ESE 2.2 mph3.5 kmh 30.31 in1026.4 mb 0.00 in0.0 mm 0.00 in0.0 mm 0.00 in0.0 mm
07:28 PM 52.0°F11.1°C 37.7°F3.2°C 58% 1.1 mph ESE1.8 kmh ESE 2.2 mph3.5 kmh 30.31 in1026.4 mb 0.00 in0.0 mm 0.00 in0.0 mm 0.00 in0.0 mm
07:29 PM 52.0°F11.1°C 37.7°F3.2°C 58% Calm Calm 2.2 mph3.5 kmh 30.31 in1026.4 mb 0.00 in0.0 mm 0.00 in0.0 mm 0.00 in0.0 mm
07:30 PM 52.0°F11.1°C 37.7°F3.2°C 58% Calm Calm 2.2 mph3.5 kmh 30.31 in1026.4 mb 0.00 in0.0 mm 0.00 in0.0 mm 0.00 in0.0 mm
07:31 PM 52.0°F11.1°C 37.7°F3.2°C 58% 1.7 mph E2.7 kmh E 2.2 mph3.5 kmh 30.32 in1026.8 mb 0.00 in0.0 mm 0.00 in0.0 mm 0.00 in0.0 mm
07:32 PM 52.0°F11.1°C 37.7°F3.2°C 58% 1.7 mph ESE2.7 kmh ESE 2.2 mph3.5 kmh 30.32 in1026.8 mb 0.00 in0.0 mm 0.00 in0.0 mm 0.00 in0.0 mm
07:33 PM 52.0°F11.1°C 37.7°F3.2°C 58% Calm Calm 2.2 mph3.5 kmh 30.32 in1026.8 mb 0.00 in0.0 mm 0.00 in0.0 mm 0.00 in0.0 mm
07:34 PM 52.0°F11.1°C 37.7°F3.2°C 58% Calm Calm 1.7 mph2.7 kmh 30.32 in1026.8 mb 0.00 in0.0 mm 0.00 in0.0 mm 0.00 in0.0 mm
07:35 PM 51.8°F11.0°C 37.5°F3.1°C 58% Calm Calm 1.7 mph2.7 kmh 30.32 in1026.8 mb 0.00 in0.0 mm 0.00 in0.0 mm 0.00 in0.0 mm
07:36 PM 51.8°F11.0°C 37.5°F3.1°C 58% 2.7 mph E4.3 kmh E 2.7 mph4.3 kmh 30.32 in1026.8 mb 0.00 in0.0 mm 0.00 in0.0 mm 0.00 in0.0 mm
07:37 PM 51.8°F11.0°C 37.5°F3.1°C 58% Calm Calm 2.7 mph4.3 kmh 30.32 in1026.8 mb 0.00 in0.0 mm 0.00 in0.0 mm 0.00 in0.0 mm
07:38 PM 51.8°F11.0°C 37.5°F3.1°C 58% 1.1 mph NE1.8 kmh NE 2.7 mph4.3 kmh 30.32 in1026.8 mb 0.00 in0.0 mm 0.00 in0.0 mm 0.00 in0.0 mm
07:39 PM 51.8°F11.0°C 37.5°F3.1°C 58% 1.7 mph ESE2.7 kmh ESE 2.7 mph4.3 kmh 30.32 in1026.8 mb 0.00 in0.0 mm 0.00 in0.0 mm 0.00 in0.0 mm
07:40 PM 51.8°F11.0°C 37.5°F3.1°C 58% Calm Calm 2.7 mph4.3 kmh 30.32 in1026.8 mb 0.00 in0.0 mm 0.00 in0.0 mm 0.00 in0.0 mm
07:41 PM 51.8°F11.0°C 37.5°F3.1°C 58% 1.1 mph ESE1.8 kmh ESE 2.7 mph4.3 kmh 30.32 in1026.8 mb 0.00 in0.0 mm 0.00 in0.0 mm 0.00 in0.0 mm
07:42 PM 51.8°F11.0°C 37.5°F3.1°C 58% 1.7 mph NNE2.7 kmh NNE 2.7 mph4.3 kmh 30.32 in1026.8 mb 0.00 in0.0 mm 0.00 in0.0 mm 0.00 in0.0 mm
07:43 PM 51.8°F11.0°C 37.5°F3.1°C 58% Calm Calm 2.7 mph4.3 kmh 30.32 in1026.8 mb 0.00 in0.0 mm 0.00 in0.0 mm 0.00 in0.0 mm
07:44 PM 51.8°F11.0°C 37.5°F3.1°C 58% Calm Calm 2.7 mph4.3 kmh 30.32 in1026.8 mb 0.00 in0.0 mm 0.00 in0.0 mm 0.00 in0.0 mm
07:45 PM 51.8°F11.0°C 37.5°F3.1°C 58% Calm Calm 2.7 mph4.3 kmh